Wetterdaten: Samstag, 14.01.2017
Datum Zeit Temp. A. Feuchte A. Luftdruck Regen Wind Richtung Richtung Sonnenschein ET UV Solar Taupunkt Windchill Windben Empfang
14.01.2017 00:00 -0,8 C 95 % 1004,4 hPa 0,0 l/m 17,5 km/h (3 Bft) W-SW 245 0 min 0,000 mm 0,0 UV-I 0 W/m -1,5 C -9,4 C 24,1 km/h (4 Bft) 100,00 %
14.01.2017 00:02 -0,8 C 95 % 1004,4 hPa 0,0 l/m 16,5 km/h (3 Bft) W-SW 243 0 min 0,000 mm 0,0 UV-I 0 W/m -1,5 C -8,8 C 22,5 km/h (4 Bft) 94,74 %
14.01.2017 00:04 -0,8 C 94 % 1004,4 hPa 0,0 l/m 16,3 km/h (3 Bft) W-SW 239 0 min 0,000 mm 0,0 UV-I 0 W/m -1,6 C -8,7 C 24,1 km/h (4 Bft) 100,00 %
14.01.2017 00:06 -0,8 C 94 % 1004,4 hPa 0,0 l/m 14,7 km/h (3 Bft) W-SW 246 0 min 0,000 mm 0,0 UV-I 0 W/m -1,6 C -7,8 C 22,5 km/h (4 Bft) 100,00 %
14.01.2017 00:08 -0,8 C 94 % 1004,4 hPa 0,0 l/m 14,3 km/h (3 Bft) SW 235 0 min 0,000 mm 0,0 UV-I 0 W/m -1,6 C -7,5 C 22,5 km/h (4 Bft) 100,00 %
14.01.2017 00:10 -0,8 C 94 % 1004,4 hPa 0,0 l/m 15,7 km/h (3 Bft) W-SW 238 0 min 0,000 mm 0,0 UV-I 0 W/m -1,6 C -8,4 C 24,1 km/h (4 Bft) 100,00 %
14.01.2017 00:12 -0,8 C 94 % 1004,4 hPa 0,0 l/m 17,4 km/h (3 Bft) W-SW 251 0 min 0,000 mm 0,0 UV-I 0 W/m -1,6 C -9,3 C 24,1 km/h (4 Bft) 100,00 %
14.01.2017 00:14 -0,8 C 94 % 1004,5 hPa 0,0 l/m 16,4 km/h (3 Bft) W-SW 245 0 min 0,000 mm 0,0 UV-I 0 W/m -1,6 C -8,8 C 27,4 km/h (4 Bft) 100,00 %
14.01.2017 00:16 -0,8 C 94 % 1004,5 hPa 0,0 l/m 20,2 km/h (4 Bft) W-SW 240 0 min 0,000 mm 0,0 UV-I 0 W/m -1,6 C -10,8 C 32,2 km/h (5 Bft) 100,00 %
14.01.2017 00:18 -0,8 C 94 % 1004,6 hPa 0,0 l/m 20,5 km/h (4 Bft) W-SW 248 0 min 0,000 mm 0,0 UV-I 0 W/m -1,6 C -10,9 C 35,4 km/h (5 Bft) 100,00 %
14.01.2017 00:20 -0,8 C 93 % 1004,5 hPa 0,0 l/m 21,8 km/h (4 Bft) W-SW 248 0 min 0,000 mm 0,0 UV-I 0 W/m -1,8 C -11,5 C 33,8 km/h (5 Bft) 100,00 %
14.01.2017 00:22 -0,7 C 93 % 1004,4 hPa 0,0 l/m 21,9 km/h (4 Bft) W 259 0 min 0,000 mm 0,0 UV-I 0 W/m -1,7 C -11,4 C 33,8 km/h (5 Bft) 100,00 %
14.01.2017 00:24 -0,7 C 93 % 1004,6 hPa 0,0 l/m 20,3 km/h (4 Bft) W-SW 258 0 min 0,000 mm 0,0 UV-I 0 W/m -1,7 C -10,7 C 32,2 km/h (5 Bft) 100,00 %
14.01.2017 00:26 -0,7 C 92 % 1004,5 hPa 0,0 l/m 20,7 km/h (4 Bft) W-SW 254 0 min 0,000 mm 0,0 UV-I 0 W/m -1,8 C -10,9 C 32,2 km/h (5 Bft) 100,00 %
14.01.2017 00:28 -0,6 C 92 % 1004,6 hPa 0,0 l/m 19,5 km/h (3 Bft) W-SW 253 0 min 0,000 mm 0,0 UV-I 0 W/m -1,7 C -10,2 C 27,4 km/h (4 Bft) 100,00 %
14.01.2017 00:30 -0,6 C 91 % 1004,5 hPa 0,0 l/m 21,2 km/h (4 Bft) S-SW 213 0 min 0,000 mm 0,0 UV-I 0 W/m -1,9 C -11,0 C 29,0 km/h (5 Bft) 100,00 %
14.01.2017 00:32 -0,6 C 91 % 1004,6 hPa 0,0 l/m 20,5 km/h (4 Bft) W-SW 254 0 min 0,000 mm 0,0 UV-I 0 W/m -1,9 C -10,6 C 32,2 km/h (5 Bft) 100,00 %
14.01.2017 00:34 -0,6 C 91 % 1004,5 hPa 0,0 l/m 19,4 km/h (3 Bft) W-SW 255 0 min 0,000 mm 0,0 UV-I 0 W/m -1,9 C -10,1 C 30,6 km/h (5 Bft) 100,00 %
14.01.2017 00:36 -0,6 C 90 % 1004,6 hPa 0,0 l/m 17,9 km/h (3 Bft) W-SW 257 0 min 0,000 mm 0,0 UV-I 0 W/m -2,0 C -9,4 C 25,7 km/h (4 Bft) 98,00 %
14.01.2017 00:38 -0,5 C 90 % 1004,6 hPa 0,0 l/m 20,7 km/h (4 Bft) W-SW 257 0 min 0,000 mm 0,0 UV-I 0 W/m -1,9 C -10,6 C 27,4 km/h (4 Bft) 98,00 %
14.01.2017 00:40 -0,5 C 90 % 1004,6 hPa 0,0 l/m 21,6 km/h (4 Bft) S-SW 212 0 min 0,000 mm 0,0 UV-I 0 W/m -1,9 C -11,0 C 32,2 km/h (5 Bft) 100,00 %
14.01.2017 00:42 -0,5 C 89 % 1004,6 hPa 0,0 l/m 19,1 km/h (3 Bft) W-SW 258 0 min 0,000 mm 0,0 UV-I 0 W/m -2,1 C -9,8 C 27,4 km/h (4 Bft) 100,00 %
14.01.2017 00:44 -0,4 C 89 % 1004,7 hPa 0,0 l/m 15,8 km/h (3 Bft) W 262 0 min 0,000 mm 0,0 UV-I 0 W/m -2,0 C -7,9 C 25,7 km/h (4 Bft) 100,00 %
14.01.2017 00:46 -0,4 C 89 % 1004,7 hPa 0,0 l/m 17,5 km/h (3 Bft) W 259 0 min 0,000 mm 0,0 UV-I 0 W/m -2,0 C -8,9 C 22,5 km/h (4 Bft) 100,00 %
14.01.2017 00:48 -0,4 C 88 % 1004,7 hPa 0,0 l/m 17,6 km/h (3 Bft) W-SW 244 0 min 0,000 mm 0,0 UV-I 0 W/m -2,1 C -8,9 C 25,7 km/h (4 Bft) 100,00 %
14.01.2017 00:50 -0,4 C 88 % 1004,7 hPa 0,0 l/m 19,4 km/h (3 Bft) W 259 0 min 0,000 mm 0,0 UV-I 0 W/m -2,1 C -9,9 C 27,4 km/h (4 Bft) 100,00 %
14.01.2017 00:52 -0,4 C 88 % 1004,7 hPa 0,0 l/m 19,4 km/h (3 Bft) W-SW 256 0 min 0,000 mm 0,0 UV-I 0 W/m -2,1 C -9,9 C 32,2 km/h (5 Bft) 100,00 %
14.01.2017 00:54 -0,4 C 88 % 1004,8 hPa 0,0 l/m 15,4 km/h (3 Bft) W 260 0 min 0,000 mm 0,0 UV-I 0 W/m -2,1 C -7,7 C 24,1 km/h (4 Bft) 100,00 %
14.01.2017 00:56 -0,4 C 88 % 1004,8 hPa 0,0 l/m 18,5 km/h (3 Bft) W 276 0 min 0,000 mm 0,0 UV-I 0 W/m -2,1 C -9,4 C 25,7 km/h (4 Bft) 100,00 %
14.01.2017 00:58 -0,4 C 87 % 1004,8 hPa 0,0 l/m 18,4 km/h (3 Bft) W 269 0 min 0,000 mm 0,0 UV-I 0 W/m -2,3 C -9,4 C 29,0 km/h (5 Bft) 100,00 %
14.01.2017 01:00 -0,4 C 87 % 1004,8 hPa 0,0 l/m 14,9 km/h (3 Bft) SW 229 0 min 0,000 mm 0,0 UV-I 0 W/m -2,3 C -7,4 C 24,1 km/h (4 Bft) 100,00 %
14.01.2017 01:02 -0,4 C 87 % 1004,8 hPa 0,0 l/m 16,1 km/h (3 Bft) W 269 0 min 0,000 mm 0,0 UV-I 0 W/m -2,3 C -8,1 C 24,1 km/h (4 Bft) 96,55 %
14.01.2017 01:04 -0,4 C 87 % 1004,8 hPa 0,0 l/m 18,3 km/h (3 Bft) SW 233 0 min 0,000 mm 0,0 UV-I 0 W/m -2,3 C -9,3 C 27,4 km/h (4 Bft) 97,44 %
14.01.2017 01:06 -0,4 C 86 % 1004,9 hPa 0,0 l/m 19,0 km/h (3 Bft) W-SW 257 0 min 0,000 mm 0,0 UV-I 0 W/m -2,4 C -9,7 C 38,6 km/h (5 Bft) 96,00 %
14.01.2017 01:08 -0,4 C 86 % 1004,8 hPa 0,0 l/m 19,6 km/h (3 Bft) W-NW 293 0 min 0,000 mm 0,0 UV-I 0 W/m -2,4 C -10,0 C 25,7 km/h (4 Bft) 98,00 %
14.01.2017 01:10 -0,4 C 86 % 1004,8 hPa 0,0 l/m 21,1 km/h (4 Bft) W-SW 252 0 min 0,000 mm 0,0 UV-I 0 W/m -2,4 C -10,7 C 30,6 km/h (5 Bft) 97,56 %
14.01.2017 01:12 -0,4 C 86 % 1004,9 hPa 0,0 l/m 19,4 km/h (3 Bft) W-SW 246 0 min 0,000 mm 0,0 UV-I 0 W/m -2,4 C -9,9 C 27,4 km/h (4 Bft) 98,11 %
14.01.2017 01:14 -0,4 C 86 % 1004,9 hPa 0,0 l/m 26,0 km/h (4 Bft) W-SW 258 0 min 0,000 mm 0,0 UV-I 0 W/m -2,4 C -12,6 C 35,4 km/h (5 Bft) 97,56 %
14.01.2017 01:16 -0,4 C 85 % 1004,9 hPa 0,0 l/m 18,3 km/h (3 Bft) W 259 0 min 0,000 mm 0,0 UV-I 0 W/m -2,6 C -9,3 C 32,2 km/h (5 Bft) 96,23 %
14.01.2017 01:18 -0,4 C 85 % 1005,0 hPa 0,0 l/m 18,4 km/h (3 Bft) W 268 0 min 0,000 mm 0,0 UV-I 0 W/m -2,6 C -9,4 C 27,4 km/h (4 Bft) 97,56 %
14.01.2017 01:20 -0,4 C 84 % 1005,0 hPa 0,0 l/m 23,0 km/h (4 Bft) SW 234 0 min 0,000 mm 0,0 UV-I 0 W/m -2,8 C -11,5 C 30,6 km/h (5 Bft) 98,11 %
14.01.2017 01:22 -0,4 C 84 % 1005,0 hPa 0,0 l/m 13,8 km/h (3 Bft) W 267 0 min 0,000 mm 0,0 UV-I 0 W/m -2,8 C -6,7 C 20,9 km/h (4 Bft) 98,00 %
14.01.2017 01:24 -0,4 C 84 % 1005,0 hPa 0,0 l/m 17,8 km/h (3 Bft) W 266 0 min 0,000 mm 0,0 UV-I 0 W/m -2,8 C -9,1 C 32,2 km/h (5 Bft) 97,14 %
14.01.2017 01:26 -0,4 C 83 % 1005,0 hPa 0,0 l/m 16,4 km/h (3 Bft) W 273 0 min 0,000 mm 0,0 UV-I 0 W/m -2,9 C -8,3 C 25,7 km/h (4 Bft) 98,31 %
14.01.2017 01:28 -0,4 C 83 % 1005,0 hPa 0,0 l/m 14,9 km/h (3 Bft) W-SW 253 0 min 0,000 mm 0,0 UV-I 0 W/m -2,9 C -7,4 C 17,7 km/h (3 Bft) 97,73 %
14.01.2017 01:30 -0,4 C 83 % 1005,1 hPa 0,0 l/m 16,6 km/h (3 Bft) S-SW 198 0 min 0,000 mm 0,0 UV-I 0 W/m -2,9 C -8,4 C 25,7 km/h (4 Bft) 97,73 %
14.01.2017 01:32 -0,4 C 83 % 1005,0 hPa 0,0 l/m 17,5 km/h (3 Bft) W-SW 255 0 min 0,000 mm 0,0 UV-I 0 W/m -2,9 C -8,9 C 25,7 km/h (4 Bft) 96,30 %
14.01.2017 01:34 -0,4 C 82 % 1005,0 hPa 0,0 l/m 14,1 km/h (3 Bft) W-NW 294 0 min 0,000 mm 0,0 UV-I 0 W/m -3,1 C -6,9 C 22,5 km/h (4 Bft) 97,14 %
14.01.2017 01:36 -0,4 C 82 % 1005,0 hPa 0,0 l/m 16,6 km/h (3 Bft) W 262 0 min 0,000 mm 0,0 UV-I 0 W/m -3,1 C -8,4 C 25,7 km/h (4 Bft) 97,87 %
14.01.2017 01:38 -0,4 C 82 % 1005,1 hPa 0,0 l/m 14,8 km/h (3 Bft) W-SW 254 0 min 0,000 mm 0,0 UV-I 0 W/m -3,1 C -7,3 C 20,9 km/h (4 Bft) 97,87 %
14.01.2017 01:40 -0,4 C 82 % 1005,1 hPa 0,0 l/m 17,2 km/h (3 Bft) W-SW 256 0 min 0,000 mm 0,0 UV-I 0 W/m -3,1 C -8,7 C 25,7 km/h (4 Bft) 100,00 %
14.01.2017 01:42 -0,4 C 81 % 1005,1 hPa 0,0 l/m 14,8 km/h (3 Bft) W-SW 246 0 min 0,000 mm 0,0 UV-I 0 W/m -3,3 C -7,3 C 20,9 km/h (4 Bft) 100,00 %
14.01.2017 01:44 -0,4 C 81 % 1005,1 hPa 0,0 l/m 16,9 km/h (3 Bft) W 262 0 min 0,000 mm 0,0 UV-I 0 W/m -3,3 C -8,6 C 27,4 km/h (4 Bft) 100,00 %
14.01.2017 01:46 -0,4 C 81 % 1005,2 hPa 0,0 l/m 15,7 km/h (3 Bft) W-SW 251 0 min 0,000 mm 0,0 UV-I 0 W/m -3,3 C -7,9 C 27,4 km/h (4 Bft) 97,56 %
14.01.2017 01:48 -0,4 C 81 % 1005,2 hPa 0,0 l/m 17,7 km/h (3 Bft) W-SW 254 0 min 0,000 mm 0,0 UV-I 0 W/m -3,3 C -9,0 C 22,5 km/h (4 Bft) 100,00 %
14.01.2017 01:50 -0,4 C 80 % 1005,3 hPa 0,0 l/m 18,8 km/h (3 Bft) W-SW 251 0 min 0,000 mm 0,0 UV-I 0 W/m -3,4 C -9,6 C 24,1 km/h (4 Bft) 100,00 %
14.01.2017 01:52 -0,4 C 80 % 1005,4 hPa 0,0 l/m 16,2 km/h (3 Bft) W-SW 253 0 min 0,000 mm 0,0 UV-I 0 W/m -3,4 C -8,2 C 27,4 km/h (4 Bft) 100,00 %
14.01.2017 01:54 -0,4 C 80 % 1005,2 hPa 0,0 l/m 20,9 km/h (4 Bft) W-SW 258 0 min 0,000 mm 0,0 UV-I 0 W/m -3,4 C -10,6 C 30,6 km/h (5 Bft) 100,00 %
14.01.2017 01:56 -0,4 C 80 % 1005,4 hPa 0,0 l/m 16,1 km/h (3 Bft) W-SW 249 0 min 0,000 mm 0,0 UV-I 0 W/m -3,4 C -8,1 C 22,5 km/h (4 Bft) 100,00 %
14.01.2017 01:58 -0,4 C 79 % 1005,4 hPa 0,0 l/m 15,9 km/h (3 Bft) W-SW 248 0 min 0,000 mm 0,0 UV-I 0 W/m -3,6 C -8,0 C 24,1 km/h (4 Bft) 100,00 %
14.01.2017 02:00 -0,4 C 79 % 1005,4 hPa 0,0 l/m 20,5 km/h (4 Bft) W-SW 238 0 min 0,025 mm 0,0 UV-I 0 W/m -3,6 C -10,4 C 29,0 km/h (5 Bft) 100,00 %
14.01.2017 02:02 -0,4 C 79 % 1005,5 hPa 0,0 l/m 17,3 km/h (3 Bft) S-SW 199 0 min 0,000 mm 0,0 UV-I 0 W/m -3,6 C -8,8 C 24,1 km/h (4 Bft) 100,00 %
14.01.2017 02:04 -0,4 C 79 % 1005,5 hPa 0,0 l/m 15,2 km/h (3 Bft) W-SW 242 0 min 0,000 mm 0,0 UV-I 0 W/m -3,6 C -7,6 C 22,5 km/h (4 Bft) 100,00 %
14.01.2017 02:06 -0,5 C 79 % 1005,5 hPa 0,0 l/m 16,2 km/h (3 Bft) SW 224 0 min 0,000 mm 0,0 UV-I 0 W/m -3,7 C -8,3 C 24,1 km/h (4 Bft) 100,00 %
14.01.2017 02:08 -0,5 C 79 % 1005,6 hPa 0,0 l/m 12,9 km/h (3 Bft) SW 232 0 min 0,000 mm 0,0 UV-I 0 W/m -3,7 C -6,2 C 19,3 km/h (3 Bft) 100,00 %
14.01.2017 02:10 -0,6 C 79 % 1005,6 hPa 0,0 l/m 18,3 km/h (3 Bft) W-SW 250 0 min 0,000 mm 0,0 UV-I 0 W/m -3,8 C -9,6 C 24,1 km/h (4 Bft) 100,00 %
14.01.2017 02:12 -0,6 C 79 % 1005,6 hPa 0,0 l/m 13,7 km/h (3 Bft) SW 227 0 min 0,000 mm 0,0 UV-I 0 W/m -3,8 C -6,9 C 20,9 km/h (4 Bft) 100,00 %
14.01.2017 02:14 -0,7 C 79 % 1005,6 hPa 0,0 l/m 13,0 km/h (3 Bft) SW 220 0 min 0,000 mm 0,0 UV-I 0 W/m -3,9 C -6,5 C 17,7 km/h (3 Bft) 97,56 %
14.01.2017 02:16 -0,7 C 80 % 1005,7 hPa 0,0 l/m 13,3 km/h (3 Bft) SW 229 0 min 0,000 mm 0,0 UV-I 0 W/m -3,7 C -6,7 C 19,3 km/h (3 Bft) 100,00 %
14.01.2017 02:18 -0,8 C 81 % 1005,7 hPa 0,0 l/m 13,3 km/h (3 Bft) SW 224 0 min 0,000 mm 0,0 UV-I 0 W/m -3,6 C -6,8 C 22,5 km/h (4 Bft) 100,00 %
14.01.2017 02:20 -0,8 C 81 % 1005,6 hPa 0,0 l/m 12,5 km/h (3 Bft) W-SW 243 0 min 0,000 mm 0,0 UV-I 0 W/m -3,6 C -6,3 C 17,7 km/h (3 Bft) 100,00 %
14.01.2017 02:22 -0,9 C 82 % 1005,7 hPa 0,0 l/m 14,5 km/h (3 Bft) S-SW 201 0 min 0,000 mm 0,0 UV-I 0 W/m -3,6 C -7,8 C 22,5 km/h (4 Bft) 100,00 %
14.01.2017 02:24 -1,0 C 83 % 1005,6 hPa 0,0 l/m 15,6 km/h (3 Bft) W-SW 247 0 min 0,000 mm 0,0 UV-I 0 W/m -3,5 C -8,6 C 22,5 km/h (4 Bft) 100,00 %
14.01.2017 02:26 -1,1 C 83 % 1005,7 hPa 0,0 l/m 13,0 km/h (3 Bft) SW 231 0 min 0,000 mm 0,0 UV-I 0 W/m -3,6 C -7,0 C 17,7 km/h (3 Bft) 100,00 %
14.01.2017 02:28 -1,2 C 83 % 1005,7 hPa 0,0 l/m 13,5 km/h (3 Bft) SW 227 0 min 0,000 mm 0,0 UV-I 0 W/m -3,7 C -7,5 C 20,9 km/h (4 Bft) 100,00 %
14.01.2017 02:30 -1,3 C 84 % 1005,7 hPa 0,0 l/m 12,2 km/h (2 Bft) W-SW 239 0 min 0,000 mm 0,0 UV-I 0 W/m -3,6 C -6,6 C 19,3 km/h (3 Bft) 100,00 %
14.01.2017 02:32 -1,3 C 84 % 1005,7 hPa 0,0 l/m 10,6 km/h (2 Bft) SW 229 0 min 0,000 mm 0,0 UV-I 0 W/m -3,6 C -5,4 C 14,5 km/h (3 Bft) 100,00 %
14.01.2017 02:34 -1,5 C 84 % 1005,7 hPa 0,0 l/m 10,3 km/h (2 Bft) SW 234 0 min 0,000 mm 0,0 UV-I 0 W/m -3,8 C -5,4 C 16,1 km/h (3 Bft) 100,00 %
14.01.2017 02:36 -1,6 C 84 % 1005,7 hPa 0,0 l/m 13,7 km/h (3 Bft) W 263 0 min 0,000 mm 0,0 UV-I 0 W/m -3,9 C -8,1 C 19,3 km/h (3 Bft) 100,00 %
14.01.2017 02:38 -1,6 C 85 % 1005,7 hPa 0,0 l/m 10,8 km/h (2 Bft) SW 235 0 min 0,000 mm 0,0 UV-I 0 W/m -3,8 C -5,9 C 16,1 km/h (3 Bft) 100,00 %
14.01.2017 02:40 -1,6 C 85 % 1005,7 hPa 0,0 l/m 13,5 km/h (3 Bft) SW 225 0 min 0,000 mm 0,0 UV-I 0 W/m -3,8 C -7,9 C 19,3 km/h (3 Bft) 100,00 %
14.01.2017 02:42 -1,7 C 85 % 1005,7 hPa 0,0 l/m 10,9 km/h (2 Bft) W-SW 237 0 min 0,000 mm 0,0 UV-I 0 W/m -3,9 C -6,1 C 17,7 km/h (3 Bft) 100,00 %
14.01.2017 02:44 -1,7 C 85 % 1005,7 hPa 0,0 l/m 12,6 km/h (3 Bft) SW 228 0 min 0,000 mm 0,0 UV-I 0 W/m -3,9 C -7,4 C 22,5 km/h (4 Bft) 100,00 %
14.01.2017 02:46 -1,7 C 85 % 1005,6 hPa 0,0 l/m 10,6 km/h (2 Bft) SW 233 0 min 0,000 mm 0,0 UV-I 0 W/m -3,9 C -5,8 C 16,1 km/h (3 Bft) 100,00 %
14.01.2017 02:48 -1,7 C 85 % 1005,7 hPa 0,0 l/m 14,7 km/h (3 Bft) W 264 0 min 0,000 mm 0,0 UV-I 0 W/m -3,9 C -8,8 C 22,5 km/h (4 Bft) 100,00 %
14.01.2017 02:50 -1,7 C 85 % 1005,6 hPa 0,0 l/m 8,7 km/h (2 Bft) SW 217 0 min 0,000 mm 0,0 UV-I 0 W/m -3,9 C -4,1 C 12,9 km/h (3 Bft) 100,00 %
14.01.2017 02:52 -1,7 C 85 % 1005,6 hPa 0,0 l/m 10,9 km/h (2 Bft) W-SW 257 0 min 0,000 mm 0,0 UV-I 0 W/m -3,9 C -6,1 C 16,1 km/h (3 Bft) 100,00 %
14.01.2017 02:54 -1,8 C 85 % 1005,6 hPa 0,0 l/m 10,1 km/h (2 Bft) W-SW 255 0 min 0,000 mm 0,0 UV-I 0 W/m -4,0 C -5,5 C 22,5 km/h (4 Bft) 100,00 %
14.01.2017 02:56 -1,7 C 85 % 1005,6 hPa 0,0 l/m 10,7 km/h (2 Bft) W-SW 255 0 min 0,000 mm 0,0 UV-I 0 W/m -3,9 C -5,9 C 17,7 km/h (3 Bft) 100,00 %
14.01.2017 02:58 -1,8 C 85 % 1005,6 hPa 0,0 l/m 12,1 km/h (2 Bft) W-SW 238 0 min 0,000 mm 0,0 UV-I 0 W/m -4,0 C -7,2 C 16,1 km/h (3 Bft) 100,00 %
14.01.2017 03:00 -1,8 C 85 % 1005,6 hPa 0,0 l/m 11,2 km/h (2 Bft) W-SW 248 0 min 0,026 mm 0,0 UV-I 0 W/m -4,0 C -6,4 C 16,1 km/h (3 Bft) 100,00 %
14.01.2017 03:02 -1,8 C 85 % 1005,6 hPa 0,0 l/m 13,2 km/h (3 Bft) W-SW 243 0 min 0,000 mm 0,0 UV-I 0 W/m -4,0 C -8,0 C 19,3 km/h (3 Bft) 100,00 %
14.01.2017 03:04 -1,8 C 85 % 1005,6 hPa 0,0 l/m 13,1 km/h (3 Bft) S-SW 197 0 min 0,000 mm 0,0 UV-I 0 W/m -4,0 C -7,9 C 19,3 km/h (3 Bft) 100,00 %
14.01.2017 03:06 -1,8 C 85 % 1005,6 hPa 0,0 l/m 13,3 km/h (3 Bft) SW 236 0 min 0,000 mm 0,0 UV-I 0 W/m -4,0 C -8,0 C 19,3 km/h (3 Bft) 100,00 %
14.01.2017 03:08 -1,8 C 85 % 1005,6 hPa 0,0 l/m 15,4 km/h (3 Bft) W-SW 238 0 min 0,000 mm 0,0 UV-I 0 W/m -4,0 C -9,4 C 20,9 km/h (4 Bft) 100,00 %
14.01.2017 03:10 -1,8 C 85 % 1005,6 hPa 0,0 l/m 10,9 km/h (2 Bft) SW 220 0 min 0,000 mm 0,0 UV-I 0 W/m -4,0 C -6,2 C 16,1 km/h (3 Bft) 97,56 %
14.01.2017 03:12 -1,8 C 85 % 1005,5 hPa 0,0 l/m 14,5 km/h (3 Bft) W-SW 244 0 min 0,000 mm 0,0 UV-I 0 W/m -4,0 C -8,8 C 20,9 km/h (4 Bft) 98,00 %
14.01.2017 03:14 -1,8 C 85 % 1005,6 hPa 0,0 l/m 14,0 km/h (3 Bft) SW 232 0 min 0,000 mm 0,0 UV-I 0 W/m -4,0 C -8,5 C 22,5 km/h (4 Bft) 98,11 %
14.01.2017 03:16 -1,9 C 85 % 1005,6 hPa 0,0 l/m 14,5 km/h (3 Bft) SW 215 0 min 0,000 mm 0,0 UV-I 0 W/m -4,1 C -9,0 C 22,5 km/h (4 Bft) 97,56 %
14.01.2017 03:18 -1,9 C 86 % 1005,6 hPa 0,0 l/m 13,5 km/h (3 Bft) W-SW 248 0 min 0,000 mm 0,0 UV-I 0 W/m -3,9 C -8,3 C 19,3 km/h (3 Bft) 97,56 %
14.01.2017 03:20 -1,9 C 86 % 1005,6 hPa 0,0 l/m 13,3 km/h (3 Bft) W-SW 251 0 min 0,000 mm 0,0 UV-I 0 W/m -3,9 C -8,1 C 17,7 km/h (3 Bft) 98,11 %
14.01.2017 03:22 -1,9 C 86 % 1005,6 hPa 0,0 l/m 13,1 km/h (3 Bft) W-SW 244 0 min 0,000 mm 0,0 UV-I 0 W/m -3,9 C -8,0 C 19,3 km/h (3 Bft) 97,56 %
14.01.2017 03:24 -1,9 C 86 % 1005,6 hPa 0,0 l/m 15,2 km/h (3 Bft) W-SW 241 0 min 0,000 mm 0,0 UV-I 0 W/m -3,9 C -9,4 C 20,9 km/h (4 Bft) 96,43 %
14.01.2017 03:26 -2,0 C 87 % 1005,6 hPa 0,0 l/m 12,1 km/h (2 Bft) SW 214 0 min 0,000 mm 0,0 UV-I 0 W/m -3,9 C -7,4 C 16,1 km/h (3 Bft) 96,15 %
14.01.2017 03:28 -2,0 C 87 % 1005,6 hPa 0,0 l/m 12,1 km/h (2 Bft) W-SW 250 0 min 0,000 mm 0,0 UV-I 0 W/m -3,9 C -7,4 C 19,3 km/h (3 Bft) 98,31 %
14.01.2017 03:30 -2,1 C 87 % 1005,5 hPa 0,0 l/m 13,8 km/h (3 Bft) S-SW 199 0 min 0,000 mm 0,0 UV-I 0 W/m -4,0 C -8,7 C 20,9 km/h (4 Bft) 98,21 %
14.01.2017 03:32 -2,1 C 87 % 1005,6 hPa 0,0 l/m 14,3 km/h (3 Bft) SW 236 0 min 0,000 mm 0,0 UV-I 0 W/m -4,0 C -9,1 C 19,3 km/h (3 Bft) 94,74 %
14.01.2017 03:34 -2,1 C 87 % 1005,6 hPa 0,0 l/m 15,5 km/h (3 Bft) W-SW 256 0 min 0,000 mm 0,0 UV-I 0 W/m -4,0 C -9,8 C 20,9 km/h (4 Bft) 96,23 %
14.01.2017 03:36 -2,1 C 87 % 1005,6 hPa 0,0 l/m 14,9 km/h (3 Bft) W-SW 246 0 min 0,000 mm 0,0 UV-I 0 W/m -4,0 C -9,5 C 24,1 km/h (4 Bft) 98,00 %
14.01.2017 03:38 -2,1 C 87 % 1005,6 hPa 0,0 l/m 16,6 km/h (3 Bft) SW 229 0 min 0,000 mm 0,0 UV-I 0 W/m -4,0 C -10,5 C 27,4 km/h (4 Bft) 97,56 %
14.01.2017 03:40 -2,1 C 87 % 1005,6 hPa 0,0 l/m 13,0 km/h (3 Bft) SW 236 0 min 0,000 mm 0,0 UV-I 0 W/m -4,0 C -8,2 C 22,5 km/h (4 Bft) 98,11 %
14.01.2017 03:42 -2,1 C 87 % 1005,6 hPa 0,0 l/m 15,5 km/h (3 Bft) W-SW 240 0 min 0,000 mm 0,0 UV-I 0 W/m -4,0 C -9,8 C 22,5 km/h (4 Bft) 97,56 %
14.01.2017 03:44 -2,1 C 87 % 1005,6 hPa 0,0 l/m 16,7 km/h (3 Bft) W-SW 246 0 min 0,000 mm 0,0 UV-I 0 W/m -4,0 C -10,6 C 29,0 km/h (5 Bft) 97,62 %
14.01.2017 03:46 -2,1 C 87 % 1005,5 hPa 0,0 l/m 17,3 km/h (3 Bft) W-SW 258 0 min 0,000 mm 0,0 UV-I 0 W/m -4,0 C -10,9 C 25,7 km/h (4 Bft) 98,00 %
14.01.2017 03:48 -2,1 C 87 % 1005,4 hPa 0,0 l/m 16,3 km/h (3 Bft) W 262 0 min 0,000 mm 0,0 UV-I 0 W/m -4,0 C -10,3 C 25,7 km/h (4 Bft) 96,00 %
14.01.2017 03:50 -2,1 C 87 % 1005,5 hPa 0,0 l/m 13,8 km/h (3 Bft) W-SW 239 0 min 0,000 mm 0,0 UV-I 0 W/m -4,0 C -8,7 C 20,9 km/h (4 Bft) 95,74 %
14.01.2017 03:52 -2,1 C 87 % 1005,5 hPa 0,0 l/m 16,9 km/h (3 Bft) SW 231 0 min 0,000 mm 0,0 UV-I 0 W/m -4,0 C -10,7 C 27,4 km/h (4 Bft) 100,00 %
14.01.2017 03:54 -2,1 C 87 % 1005,4 hPa 0,0 l/m 14,6 km/h (3 Bft) W-SW 244 0 min 0,000 mm 0,0 UV-I 0 W/m -4,0 C -9,3 C 22,5 km/h (4 Bft) 96,43 %
14.01.2017 03:56 -2,1 C 87 % 1005,4 hPa 0,0 l/m 15,7 km/h (3 Bft) W-SW 251 0 min 0,000 mm 0,0 UV-I 0 W/m -4,0 C -10,0 C 22,5 km/h (4 Bft) 97,73 %
14.01.2017 03:58 -2,1 C 87 % 1005,4 hPa 0,0 l/m 15,0 km/h (3 Bft) W-SW 246 0 min 0,000 mm 0,0 UV-I 0 W/m -4,0 C -9,5 C 20,9 km/h (4 Bft) 100,00 %
14.01.2017 04:00 -2,2 C 87 % 1005,4 hPa 0,0 l/m 13,7 km/h (3 Bft) SW 229 0 min 0,025 mm 0,0 UV-I 0 W/m -4,1 C -8,8 C 17,7 km/h (3 Bft) 97,37 %
14.01.2017 04:02 -2,2 C 87 % 1005,4 hPa 0,0 l/m 16,3 km/h (3 Bft) W-SW 240 0 min 0,000 mm 0,0 UV-I 0 W/m -4,1 C -10,5 C 24,1 km/h (4 Bft) 97,50 %
14.01.2017 04:04 -2,3 C 87 % 1005,4 hPa 0,0 l/m 14,2 km/h (3 Bft) SW 229 0 min 0,000 mm 0,0 UV-I 0 W/m -4,2 C -9,2 C 20,9 km/h (4 Bft) 100,00 %
14.01.2017 04:06 -2,3 C 87 % 1005,4 hPa 0,0 l/m 15,6 km/h (3 Bft) W-SW 244 0 min 0,000 mm 0,0 UV-I 0 W/m -4,2 C -10,1 C 19,3 km/h (3 Bft) 100,00 %
14.01.2017 04:08 -2,3 C 87 % 1005,4 hPa 0,0 l/m 15,4 km/h (3 Bft) SW 223 0 min 0,000 mm 0,0 UV-I 0 W/m -4,2 C -10,0 C 20,9 km/h (4 Bft) 100,00 %
14.01.2017 04:10 -2,3 C 87 % 1005,3 hPa 0,0 l/m 13,6 km/h (3 Bft) W-SW 238 0 min 0,000 mm 0,0 UV-I 0 W/m -4,2 C -8,8 C 19,3 km/h (3 Bft) 95,74 %
14.01.2017 04:12 -2,4 C 88 % 1005,3 hPa 0,0 l/m 11,7 km/h (2 Bft) SW 226 0 min 0,000 mm 0,0 UV-I 0 W/m -4,1 C -7,5 C 16,1 km/h (3 Bft) 100,00 %
14.01.2017 04:14 -2,4 C 88 % 1005,3 hPa 0,0 l/m 13,0 km/h (3 Bft) S-SW 205 0 min 0,000 mm 0,0 UV-I 0 W/m -4,1 C -8,5 C 19,3 km/h (3 Bft) 100,00 %
14.01.2017 04:16 -2,4 C 88 % 1005,3 hPa 0,0 l/m 11,4 km/h (2 Bft) W 268 0 min 0,000 mm 0,0 UV-I 0 W/m -4,1 C -7,3 C 16,1 km/h (3 Bft) 100,00 %
14.01.2017 04:18 -2,4 C 88 % 1005,3 hPa 0,0 l/m 11,7 km/h (2 Bft) SW 224 0 min 0,000 mm 0,0 UV-I 0 W/m -4,1 C -7,5 C 16,1 km/h (3 Bft) 100,00 %
14.01.2017 04:20 -2,4 C 88 % 1005,3 hPa 0,0 l/m 12,1 km/h (2 Bft) SW 224 0 min 0,000 mm 0,0 UV-I 0 W/m -4,1 C -7,8 C 17,7 km/h (3 Bft) 100,00 %
14.01.2017 04:22 -2,4 C 88 % 1005,3 hPa 0,0 l/m 12,0 km/h (2 Bft) W-SW 254 0 min 0,000 mm 0,0 UV-I 0 W/m -4,1 C -7,8 C 17,7 km/h (3 Bft) 100,00 %
14.01.2017 04:24 -2,4 C 88 % 1005,2 hPa 0,0 l/m 12,0 km/h (2 Bft) W 259 0 min 0,000 mm 0,0 UV-I 0 W/m -4,1 C -7,8 C 17,7 km/h (3 Bft) 97,92 %
14.01.2017 04:26 -2,4 C 88 % 1005,2 hPa 0,0 l/m 10,4 km/h (2 Bft) SW 233 0 min 0,000 mm 0,0 UV-I 0 W/m -4,1 C -6,5 C 14,5 km/h (3 Bft) 100,00 %
14.01.2017 04:28 -2,4 C 88 % 1005,2 hPa 0,0 l/m 12,0 km/h (2 Bft) W 266 0 min 0,000 mm 0,0 UV-I 0 W/m -4,1 C -7,8 C 17,7 km/h (3 Bft) 100,00 %
14.01.2017 04:30 -2,4 C 87 % 1005,2 hPa 0,0 l/m 13,0 km/h (3 Bft) W-SW 239 0 min 0,000 mm 0,0 UV-I 0 W/m -4,3 C -8,5 C 19,3 km/h (3 Bft) 97,37 %
14.01.2017 04:32 -2,4 C 87 % 1005,1 hPa 0,0 l/m 12,1 km/h (2 Bft) SW 224 0 min 0,000 mm 0,0 UV-I 0 W/m -4,3 C -7,8 C 16,1 km/h (3 Bft) 100,00 %
14.01.2017 04:34 -2,4 C 87 % 1005,1 hPa 0,0 l/m 11,7 km/h (2 Bft) SW 221 0 min 0,000 mm 0,0 UV-I 0 W/m -4,3 C -7,5 C 20,9 km/h (4 Bft) 100,00 %
14.01.2017 04:36 -2,4 C 87 % 1005,1 hPa 0,0 l/m 13,0 km/h (3 Bft) W-SW 242 0 min 0,000 mm 0,0 UV-I 0 W/m -4,3 C -8,5 C 17,7 km/h (3 Bft) 100,00 %
14.01.2017 04:38 -2,4 C 87 % 1005,1 hPa 0,0 l/m 11,8 km/h (2 Bft) W-SW 251 0 min 0,000 mm 0,0 UV-I 0 W/m -4,3 C -7,6 C 17,7 km/h (3 Bft) 100,00 %
14.01.2017 04:40 -2,4 C 87 % 1005,0 hPa 0,0 l/m 11,9 km/h (2 Bft) W-SW 254 0 min 0,000 mm 0,0 UV-I 0 W/m -4,3 C -7,7 C 17,7 km/h (3 Bft) 97,73 %
14.01.2017 04:42 -2,5 C 87 % 1005,0 hPa 0,0 l/m 11,0 km/h (2 Bft) W-SW 240 0 min 0,000 mm 0,0 UV-I 0 W/m -4,4 C -7,1 C 14,5 km/h (3 Bft) 97,56 %
14.01.2017 04:44 -2,5 C 87 % 1005,0 hPa 0,0 l/m 11,8 km/h (2 Bft) W-SW 247 0 min 0,000 mm 0,0 UV-I 0 W/m -4,4 C -7,7 C 16,1 km/h (3 Bft) 100,00 %
14.01.2017 04:46 -2,6 C 87 % 1005,0 hPa 0,0 l/m 11,5 km/h (2 Bft) W-SW 238 0 min 0,000 mm 0,0 UV-I 0 W/m -4,5 C -7,6 C 19,3 km/h (3 Bft) 97,73 %
14.01.2017 04:48 -2,6 C 87 % 1004,9 hPa 0,0 l/m 12,5 km/h (3 Bft) W-SW 240 0 min 0,000 mm 0,0 UV-I 0 W/m -4,5 C -8,4 C 19,3 km/h (3 Bft) 100,00 %
14.01.2017 04:50 -2,6 C 87 % 1004,9 hPa 0,0 l/m 9,6 km/h (2 Bft) SW 218 0 min 0,000 mm 0,0 UV-I 0 W/m -4,5 C -6,0 C 16,1 km/h (3 Bft) 100,00 %
14.01.2017 04:52 -2,6 C 88 % 1004,9 hPa 0,0 l/m 9,2 km/h (2 Bft) S-SW 199 0 min 0,000 mm 0,0 UV-I 0 W/m -4,3 C -5,6 C 16,1 km/h (3 Bft) 97,87 %
14.01.2017 04:54 -2,7 C 88 % 1004,9 hPa 0,0 l/m 8,5 km/h (2 Bft) S-SW 200 0 min 0,000 mm 0,0 UV-I 0 W/m -4,4 C -5,0 C 12,9 km/h (3 Bft) 100,00 %
14.01.2017 04:56 -2,7 C 88 % 1004,9 hPa 0,0 l/m 11,2 km/h (2 Bft) S-SW 205 0 min 0,000 mm 0,0 UV-I 0 W/m -4,4 C -7,5 C 16,1 km/h (3 Bft) 98,21 %
14.01.2017 04:58 -2,7 C 88 % 1004,9 hPa 0,0 l/m 7,8 km/h (2 Bft) SW 217 0 min 0,000 mm 0,0 UV-I 0 W/m -4,4 C -4,3 C 11,3 km/h (2 Bft) 100,00 %
14.01.2017 05:00 -2,7 C 88 % 1004,9 hPa 0,0 l/m 7,7 km/h (2 Bft) SW 215 0 min 0,000 mm 0,0 UV-I 0 W/m -4,4 C -4,2 C 12,9 km/h (3 Bft) 100,00 %
14.01.2017 05:02 -2,7 C 88 % 1004,8 hPa 0,0 l/m 10,8 km/h (2 Bft) S-SW 198 0 min 0,000 mm 0,0 UV-I 0 W/m -4,4 C -7,1 C 16,1 km/h (3 Bft) 96,15 %
14.01.2017 05:04 -2,6 C 88 % 1004,8 hPa 0,0 l/m 9,6 km/h (2 Bft) S 190 0 min 0,000 mm 0,0 UV-I 0 W/m -4,3 C -6,0 C 14,5 km/h (3 Bft) 100,00 %
14.01.2017 05:06 -2,6 C 88 % 1004,8 hPa 0,0 l/m 8,5 km/h (2 Bft) S-SW 209 0 min 0,000 mm 0,0 UV-I 0 W/m -4,3 C -4,9 C 12,9 km/h (3 Bft) 100,00 %
14.01.2017 05:08 -2,6 C 88 % 1004,8 hPa 0,0 l/m 10,8 km/h (2 Bft) W-SW 240 0 min 0,000 mm 0,0 UV-I 0 W/m -4,3 C -7,0 C 16,1 km/h (3 Bft) 100,00 %
14.01.2017 05:10 -2,5 C 88 % 1004,8 hPa 0,0 l/m 9,8 km/h (2 Bft) S-SW 198 0 min 0,000 mm 0,0 UV-I 0 W/m -4,2 C -6,0 C 16,1 km/h (3 Bft) 100,00 %
14.01.2017 05:12 -2,5 C 88 % 1004,8 hPa 0,0 l/m 9,4 km/h (2 Bft) SW 215 0 min 0,000 mm 0,0 UV-I 0 W/m -4,2 C -5,7 C 12,9 km/h (3 Bft) 100,00 %
14.01.2017 05:14 -2,4 C 88 % 1004,8 hPa 0,0 l/m 9,0 km/h (2 Bft) SW 229 0 min 0,000 mm 0,0 UV-I 0 W/m -4,1 C -5,2 C 17,7 km/h (3 Bft) 100,00 %
14.01.2017 05:16 -2,4 C 88 % 1004,7 hPa 0,0 l/m 8,3 km/h (2 Bft) S-SW 204 0 min 0,000 mm 0,0 UV-I 0 W/m -4,1 C -4,5 C 11,3 km/h (2 Bft) 100,00 %
14.01.2017 05:18 -2,4 C 88 % 1004,7 hPa 0,0 l/m 10,1 km/h (2 Bft) W-SW 253 0 min 0,000 mm 0,0 UV-I 0 W/m -4,1 C -6,2 C 17,7 km/h (3 Bft) 100,00 %
14.01.2017 05:20 -2,4 C 88 % 1004,7 hPa 0,0 l/m 10,1 km/h (2 Bft) W-SW 242 0 min 0,000 mm 0,0 UV-I 0 W/m -4,1 C -6,2 C 16,1 km/h (3 Bft) 98,00 %
14.01.2017 05:22 -2,4 C 88 % 1004,7 hPa 0,0 l/m 9,4 km/h (2 Bft) S-SW 212 0 min 0,000 mm 0,0 UV-I 0 W/m -4,1 C -5,6 C 14,5 km/h (3 Bft) 100,00 %
14.01.2017 05:24 -2,4 C 88 % 1004,6 hPa 0,0 l/m 10,1 km/h (2 Bft) SW 221 0 min 0,000 mm 0,0 UV-I 0 W/m -4,1 C -6,2 C 16,1 km/h (3 Bft) 100,00 %
14.01.2017 05:26 -2,4 C 88 % 1004,6 hPa 0,0 l/m 10,6 km/h (2 Bft) SW 219 0 min 0,000 mm 0,0 UV-I 0 W/m -4,1 C -6,6 C 17,7 km/h (3 Bft) 100,00 %
14.01.2017 05:28 -2,3 C 87 % 1004,6 hPa 0,0 l/m 11,0 km/h (2 Bft) W-SW 250 0 min 0,000 mm 0,0 UV-I 0 W/m -4,2 C -6,8 C 16,1 km/h (3 Bft) 100,00 %
14.01.2017 05:30 -2,3 C 87 % 1004,6 hPa 0,0 l/m 11,5 km/h (2 Bft) W-SW 244 0 min 0,000 mm 0,0 UV-I 0 W/m -4,2 C -7,3 C 17,7 km/h (3 Bft) 100,00 %
14.01.2017 05:32 -2,3 C 87 % 1004,6 hPa 0,0 l/m 12,4 km/h (3 Bft) W-SW 238 0 min 0,000 mm 0,0 UV-I 0 W/m -4,2 C -8,0 C 17,7 km/h (3 Bft) 97,87 %
14.01.2017 05:34 -2,3 C 87 % 1004,6 hPa 0,0 l/m 13,3 km/h (3 Bft) W-SW 239 0 min 0,000 mm 0,0 UV-I 0 W/m -4,2 C -8,6 C 17,7 km/h (3 Bft) 100,00 %
14.01.2017 05:36 -2,3 C 87 % 1004,5 hPa 0,0 l/m 13,0 km/h (3 Bft) W-SW 252 0 min 0,000 mm 0,0 UV-I 0 W/m -4,2 C -8,4 C 19,3 km/h (3 Bft) 100,00 %
14.01.2017 05:38 -2,3 C 87 % 1004,5 hPa 0,0 l/m 13,2 km/h (3 Bft) SW 219 0 min 0,000 mm 0,0 UV-I 0 W/m -4,2 C -8,5 C 20,9 km/h (4 Bft) 96,43 %
14.01.2017 05:40 -2,3 C 87 % 1004,5 hPa 0,0 l/m 12,4 km/h (3 Bft) W-SW 243 0 min 0,000 mm 0,0 UV-I 0 W/m -4,2 C -8,0 C 17,7 km/h (3 Bft) 97,73 %
14.01.2017 05:42 -2,3 C 86 % 1004,5 hPa 0,0 l/m 13,8 km/h (3 Bft) W-SW 254 0 min 0,000 mm 0,0 UV-I 0 W/m -4,3 C -9,0 C 19,3 km/h (3 Bft) 98,11 %
14.01.2017 05:44 -2,3 C 86 % 1004,5 hPa 0,0 l/m 12,2 km/h (2 Bft) SW 217 0 min 0,000 mm 0,0 UV-I 0 W/m -4,3 C -7,8 C 20,9 km/h (4 Bft) 97,44 %
14.01.2017 05:46 -2,3 C 86 % 1004,5 hPa 0,0 l/m 14,7 km/h (3 Bft) W-SW 238 0 min 0,000 mm 0,0 UV-I 0 W/m -4,3 C -9,6 C 20,9 km/h (4 Bft) 98,11 %
14.01.2017 05:48 -2,3 C 86 % 1004,5 hPa 0,0 l/m 13,8 km/h (3 Bft) W-SW 252 0 min 0,000 mm 0,0 UV-I 0 W/m -4,3 C -9,0 C 20,9 km/h (4 Bft) 97,56 %
14.01.2017 05:50 -2,3 C 86 % 1004,5 hPa 0,0 l/m 13,7 km/h (3 Bft) W-SW 252 0 min 0,000 mm 0,0 UV-I 0 W/m -4,3 C -8,9 C 20,9 km/h (4 Bft) 98,00 %
14.01.2017 05:52 -2,2 C 86 % 1004,5 hPa 0,0 l/m 14,3 km/h (3 Bft) SW 223 0 min 0,000 mm 0,0 UV-I 0 W/m -4,2 C -9,2 C 22,5 km/h (4 Bft) 92,00 %
14.01.2017 05:54 -2,2 C 86 % 1004,5 hPa 0,0 l/m 16,6 km/h (3 Bft) W-SW 240 0 min 0,000 mm 0,0 UV-I 0 W/m -4,2 C -10,6 C 25,7 km/h (4 Bft) 97,56 %
14.01.2017 05:56 -2,2 C 86 % 1004,5 hPa 0,0 l/m 15,6 km/h (3 Bft) S 183 0 min 0,000 mm 0,0 UV-I 0 W/m -4,2 C -10,0 C 25,7 km/h (4 Bft) 97,56 %
14.01.2017 05:58 -2,2 C 85 % 1004,4 hPa 0,0 l/m 15,7 km/h (3 Bft) SW 231 0 min 0,000 mm 0,0 UV-I 0 W/m -4,4 C -10,1 C 22,5 km/h (4 Bft) 98,11 %
14.01.2017 06:00 -2,1 C 85 % 1004,4 hPa 0,0 l/m 17,9 km/h (3 Bft) W-SW 239 0 min 0,000 mm 0,0 UV-I 0 W/m -4,3 C -11,2 C 27,4 km/h (4 Bft) 97,73 %
14.01.2017 06:02 -2,1 C 85 % 1004,4 hPa 0,0 l/m 18,5 km/h (3 Bft) W-SW 244 0 min 0,000 mm 0,0 UV-I 0 W/m -4,3 C -11,6 C 25,7 km/h (4 Bft) 97,87 %
14.01.2017 06:04 -2,1 C 85 % 1004,3 hPa 0,0 l/m 18,9 km/h (3 Bft) SW 218 0 min 0,000 mm 0,0 UV-I 0 W/m -4,3 C -11,8 C 27,4 km/h (4 Bft) 95,74 %
14.01.2017 06:06 -2,1 C 85 % 1004,3 hPa 0,0 l/m 15,2 km/h (3 Bft) SW 221 0 min 0,000 mm 0,0 UV-I 0 W/m -4,3 C -9,7 C 19,3 km/h (3 Bft) 98,11 %
14.01.2017 06:08 -2,1 C 85 % 1004,4 hPa 0,0 l/m 16,6 km/h (3 Bft) W-SW 248 0 min 0,000 mm 0,0 UV-I 0 W/m -4,3 C -10,5 C 25,7 km/h (4 Bft) 96,30 %
14.01.2017 06:10 -2,1 C 85 % 1004,4 hPa 0,0 l/m 15,9 km/h (3 Bft) SW 224 0 min 0,000 mm 0,0 UV-I 0 W/m -4,3 C -10,1 C 22,5 km/h (4 Bft) 94,03 %
14.01.2017 06:12 -2,1 C 85 % 1004,3 hPa 0,0 l/m 19,9 km/h (4 Bft) W-SW 245 0 min 0,000 mm 0,0 UV-I 0 W/m -4,3 C -12,3 C 25,7 km/h (4 Bft) 97,56 %
14.01.2017 06:14 -2,1 C 85 % 1004,4 hPa 0,0 l/m 16,2 km/h (3 Bft) SW 220 0 min 0,000 mm 0,0 UV-I 0 W/m -4,3 C -10,3 C 24,1 km/h (4 Bft) 98,00 %
14.01.2017 06:16 -2,1 C 85 % 1004,3 hPa 0,0 l/m 14,0 km/h (3 Bft) SW 229 0 min 0,000 mm 0,0 UV-I 0 W/m -4,3 C -8,9 C 20,9 km/h (4 Bft) 100,00 %
14.01.2017 06:18 -2,2 C 85 % 1004,3 hPa 0,0 l/m 15,2 km/h (3 Bft) S-SW 199 0 min 0,000 mm 0,0 UV-I 0 W/m -4,4 C -9,8 C 19,3 km/h (3 Bft) 100,00 %
14.01.2017 06:20 -2,2 C 85 % 1004,3 hPa 0,0 l/m 12,9 km/h (3 Bft) W-SW 242 0 min 0,000 mm 0,0 UV-I 0 W/m -4,4 C -8,2 C 20,9 km/h (4 Bft) 100,00 %
14.01.2017 06:22 -2,2 C 85 % 1004,3 hPa 0,0 l/m 15,3 km/h (3 Bft) W-SW 245 0 min 0,000 mm 0,0 UV-I 0 W/m -4,4 C -9,8 C 22,5 km/h (4 Bft) 100,00 %
14.01.2017 06:24 -2,2 C 85 % 1004,3 hPa 0,0 l/m 12,6 km/h (3 Bft) SW 232 0 min 0,000 mm 0,0 UV-I 0 W/m -4,4 C -8,0 C 19,3 km/h (3 Bft) 97,44 %
14.01.2017 06:26 -2,2 C 85 % 1004,3 hPa 0,0 l/m 11,7 km/h (2 Bft) W-SW 240 0 min 0,000 mm 0,0 UV-I 0 W/m -4,4 C -7,3 C 17,7 km/h (3 Bft) 100,00 %
14.01.2017 06:28 -2,2 C 85 % 1004,3 hPa 0,0 l/m 10,1 km/h (2 Bft) W-SW 239 0 min 0,000 mm 0,0 UV-I 0 W/m -4,4 C -6,0 C 16,1 km/h (3 Bft) 100,00 %
14.01.2017 06:30 -2,2 C 85 % 1004,3 hPa 0,0 l/m 12,6 km/h (3 Bft) S-SW 204 0 min 0,000 mm 0,0 UV-I 0 W/m -4,4 C -8,0 C 19,3 km/h (3 Bft) 100,00 %
14.01.2017 06:32 -2,3 C 85 % 1004,3 hPa 0,0 l/m 9,0 km/h (2 Bft) S-SW 193 0 min 0,000 mm 0,0 UV-I 0 W/m -4,5 C -5,1 C 14,5 km/h (3 Bft) 100,00 %
14.01.2017 06:34 -2,2 C 86 % 1004,4 hPa 0,0 l/m 9,4 km/h (2 Bft) SW 228 0 min 0,000 mm 0,0 UV-I 0 W/m -4,2 C -5,3 C 14,5 km/h (3 Bft) 95,74 %
14.01.2017 06:36 -2,2 C 86 % 1004,4 hPa 0,0 l/m 7,9 km/h (2 Bft) SW 236 0 min 0,000 mm 0,0 UV-I 0 W/m -4,2 C -3,9 C 14,5 km/h (3 Bft) 100,00 %
14.01.2017 06:38 -2,3 C 86 % 1004,4 hPa 0,0 l/m 8,6 km/h (2 Bft) W-SW 258 0 min 0,000 mm 0,0 UV-I 0 W/m -4,3 C -4,7 C 12,9 km/h (3 Bft) 100,00 %
14.01.2017 06:40 -2,2 C 86 % 1004,5 hPa 0,0 l/m 9,1 km/h (2 Bft) SW 221 0 min 0,000 mm 0,0 UV-I 0 W/m -4,2 C -5,1 C 17,7 km/h (3 Bft) 100,00 %
14.01.2017 06:42 -2,2 C 86 % 1004,4 hPa 0,0 l/m 11,1 km/h (2 Bft) S-SW 207 0 min 0,000 mm 0,0 UV-I 0 W/m -4,2 C -6,8 C 17,7 km/h (3 Bft) 100,00 %
14.01.2017 06:44 -2,2 C 86 % 1004,4 hPa 0,0 l/m 9,4 km/h (2 Bft) W-SW 242 0 min 0,000 mm 0,0 UV-I 0 W/m -4,2 C -5,3 C 14,5 km/h (3 Bft) 100,00 %
14.01.2017 06:46 -2,2 C 86 % 1004,5 hPa 0,0 l/m 13,4 km/h (3 Bft) SW 234 0 min 0,000 mm 0,0 UV-I 0 W/m -4,2 C -8,6 C 19,3 km/h (3 Bft) 100,00 %
14.01.2017 06:48 -2,2 C 86 % 1004,5 hPa 0,0 l/m 11,1 km/h (2 Bft) W-SW 247 0 min 0,000 mm 0,0 UV-I 0 W/m -4,2 C -6,8 C 16,1 km/h (3 Bft) 100,00 %
14.01.2017 06:50 -2,1 C 86 % 1004,5 hPa 0,0 l/m 11,5 km/h (2 Bft) SW 232 0 min 0,000 mm 0,0 UV-I 0 W/m -4,1 C -7,0 C 16,1 km/h (3 Bft) 100,00 %
14.01.2017 06:52 -2,1 C 86 % 1004,5 hPa 0,0 l/m 11,0 km/h (2 Bft) W-SW 244 0 min 0,000 mm 0,0 UV-I 0 W/m -4,1 C -6,6 C 16,1 km/h (3 Bft) 100,00 %
14.01.2017 06:54 -2,1 C 86 % 1004,5 hPa 0,0 l/m 11,0 km/h (2 Bft) W-SW 238 0 min 0,000 mm 0,0 UV-I 0 W/m -4,1 C -6,6 C 16,1 km/h (3 Bft) 100,00 %
14.01.2017 06:56 -2,1 C 86 % 1004,4 hPa 0,0 l/m 10,0 km/h (2 Bft) SW 231 0 min 0,000 mm 0,0 UV-I 0 W/m -4,1 C -5,8 C 14,5 km/h (3 Bft) 100,00 %
14.01.2017 06:58 -2,1 C 86 % 1004,4 hPa 0,0 l/m 12,4 km/h (3 Bft) SW 236 0 min 0,000 mm 0,0 UV-I 0 W/m -4,1 C -7,7 C 17,7 km/h (3 Bft) 100,00 %
14.01.2017 07:00 -2,1 C 86 % 1004,4 hPa 0,0 l/m 12,3 km/h (3 Bft) W-SW 237 0 min 0,026 mm 0,0 UV-I 0 W/m -4,1 C -7,6 C 17,7 km/h (3 Bft) 100,00 %
14.01.2017 07:02 -2,0 C 86 % 1004,4 hPa 0,0 l/m 11,3 km/h (2 Bft) SW 225 0 min 0,000 mm 0,0 UV-I 0 W/m -4,0 C -6,8 C 14,5 km/h (3 Bft) 97,92 %
14.01.2017 07:04 -2,0 C 86 % 1004,4 hPa 0,0 l/m 10,7 km/h (2 Bft) S-SW 213 0 min 0,000 mm 0,0 UV-I 0 W/m -4,0 C -6,3 C 14,5 km/h (3 Bft) 100,00 %
14.01.2017 07:06 -2,1 C 86 % 1004,4 hPa 0,0 l/m 10,6 km/h (2 Bft) SW 224 0 min 0,000 mm 0,0 UV-I 0 W/m -4,1 C -6,3 C 16,1 km/h (3 Bft) 100,00 %
14.01.2017 07:08 -2,0 C 86 % 1004,4 hPa 0,0 l/m 12,3 km/h (3 Bft) SW 227 0 min 0,000 mm 0,0 UV-I 0 W/m -4,0 C -7,5 C 17,7 km/h (3 Bft) 100,00 %
14.01.2017 07:10 -2,0 C 86 % 1004,4 hPa 0,0 l/m 12,3 km/h (3 Bft) W-SW 253 0 min 0,000 mm 0,0 UV-I 0 W/m -4,0 C -7,5 C 17,7 km/h (3 Bft) 98,53 %
14.01.2017 07:12 -2,0 C 86 % 1004,3 hPa 0,0 l/m 13,4 km/h (3 Bft) W-SW 254 0 min 0,000 mm 0,0 UV-I 0 W/m -4,0 C -8,3 C 19,3 km/h (3 Bft) 100,00 %
14.01.2017 07:14 -1,9 C 86 % 1004,4 hPa 0,0 l/m 14,3 km/h (3 Bft) W-SW 244 0 min 0,000 mm 0,0 UV-I 0 W/m -3,9 C -8,8 C 24,1 km/h (4 Bft) 100,00 %
14.01.2017 07:16 -1,8 C 85 % 1004,4 hPa 0,0 l/m 13,3 km/h (3 Bft) SW 226 0 min 0,000 mm 0,0 UV-I 0 W/m -4,0 C -8,0 C 19,3 km/h (3 Bft) 100,00 %
14.01.2017 07:18 -1,8 C 85 % 1004,4 hPa 0,0 l/m 13,9 km/h (3 Bft) W-SW 256 0 min 0,000 mm 0,0 UV-I 0 W/m -4,0 C -8,4 C 22,5 km/h (4 Bft) 97,87 %
14.01.2017 07:20 -1,7 C 85 % 1004,4 hPa 0,0 l/m 16,8 km/h (3 Bft) W-SW 257 0 min 0,000 mm 0,0 UV-I 0 W/m -3,9 C -10,1 C 25,7 km/h (4 Bft) 100,00 %
14.01.2017 07:22 -1,7 C 85 % 1004,4 hPa 0,0 l/m 18,0 km/h (3 Bft) W-SW 237 0 min 0,000 mm 0,0 UV-I 0 W/m -3,9 C -10,8 C 25,7 km/h (4 Bft) 100,00 %
14.01.2017 07:24 -1,6 C 84 % 1004,5 hPa 0,0 l/m 15,1 km/h (3 Bft) W-SW 244 0 min 0,000 mm 0,0 UV-I 0 W/m -3,9 C -9,0 C 20,9 km/h (4 Bft) 100,00 %
14.01.2017 07:26 -1,6 C 84 % 1004,6 hPa 0,0 l/m 15,7 km/h (3 Bft) W-SW 252 0 min 0,000 mm 0,0 UV-I 0 W/m -3,9 C -9,4 C 25,7 km/h (4 Bft) 97,56 %
14.01.2017 07:28 -1,4 C 83 % 1004,5 hPa 0,0 l/m 15,6 km/h (3 Bft) SW 232 0 min 0,000 mm 0,0 UV-I 0 W/m -3,9 C -9,0 C 24,1 km/h (4 Bft) 98,11 %
14.01.2017 07:30 -1,4 C 83 % 1004,6 hPa 0,0 l/m 20,4 km/h (4 Bft) W-SW 256 0 min 0,000 mm 0,0 UV-I 0 W/m -3,9 C -11,6 C 27,4 km/h (4 Bft) 100,00 %
14.01.2017 07:32 -1,3 C 83 % 1004,6 hPa 0,0 l/m 15,9 km/h (3 Bft) W-SW 242 0 min 0,000 mm 0,0 UV-I 0 W/m -3,8 C -9,1 C 27,4 km/h (4 Bft) 97,37 %
14.01.2017 07:34 -1,2 C 83 % 1004,5 hPa 0,0 l/m 19,8 km/h (3 Bft) W-SW 253 0 min 0,000 mm 0,0 UV-I 0 W/m -3,7 C -11,1 C 27,4 km/h (4 Bft) 100,00 %
14.01.2017 07:36 -1,1 C 82 % 1004,5 hPa 0,0 l/m 21,8 km/h (4 Bft) W-SW 242 0 min 0,000 mm 0,0 UV-I 0 W/m -3,8 C -11,9 C 33,8 km/h (5 Bft) 100,00 %
14.01.2017 07:38 -1,1 C 82 % 1004,6 hPa 0,0 l/m 20,1 km/h (4 Bft) W-SW 244 0 min 0,000 mm 0,0 UV-I 0 W/m -3,8 C -11,1 C 33,8 km/h (5 Bft) 100,00 %
14.01.2017 07:40 -0,9 C 82 % 1004,6 hPa 0,0 l/m 19,9 km/h (4 Bft) W-SW 246 0 min 0,000 mm 0,0 UV-I 0 W/m -3,6 C -10,7 C 27,4 km/h (4 Bft) 100,00 %
14.01.2017 07:42 -0,9 C 82 % 1004,6 hPa 0,0 l/m 24,8 km/h (4 Bft) SW 215 0 min 0,000 mm 0,0 UV-I 1 W/m -3,6 C -12,9 C 37,0 km/h (5 Bft) 100,00 %
14.01.2017 07:44 -0,8 C 82 % 1004,6 hPa 0,0 l/m 21,4 km/h (4 Bft) SW 223 0 min 0,000 mm 0,0 UV-I 5 W/m -3,5 C -11,3 C 29,0 km/h (5 Bft) 95,74 %
14.01.2017 07:46 -0,8 C 82 % 1004,6 hPa 0,0 l/m 22,2 km/h (4 Bft) S-SW 203 0 min 0,000 mm 0,0 UV-I 5 W/m -3,5 C -11,7 C 30,6 km/h (5 Bft) 100,00 %
14.01.2017 07:48 -0,8 C 82 % 1004,4 hPa 0,0 l/m 25,5 km/h (4 Bft) W-SW 249 0 min 0,000 mm 0,0 UV-I 5 W/m -3,5 C -13,0 C 43,5 km/h (6 Bft) 100,00 %
14.01.2017 07:50 -0,7 C 82 % 1004,4 hPa 0,0 l/m 26,4 km/h (4 Bft) W 259 0 min 0,000 mm 0,0 UV-I 5 W/m -3,4 C -13,2 C 38,6 km/h (5 Bft) 100,00 %
14.01.2017 07:52 -0,7 C 82 % 1004,4 hPa 0,0 l/m 24,9 km/h (4 Bft) W 269 0 min 0,000 mm 0,0 UV-I 5 W/m -3,4 C -12,6 C 35,4 km/h (5 Bft) 98,00 %
14.01.2017 07:54 -0,7 C 83 % 1004,3 hPa 0,0 l/m 26,6 km/h (4 Bft) W-SW 252 0 min 0,000 mm 0,0 UV-I 7 W/m -3,2 C -13,3 C 40,2 km/h (6 Bft) 97,56 %
14.01.2017 07:56 -0,7 C 83 % 1004,4 hPa 0,0 l/m 24,5 km/h (4 Bft) W-SW 242 0 min 0,000 mm 0,0 UV-I 7 W/m -3,2 C -12,5 C 38,6 km/h (5 Bft) 94,34 %
14.01.2017 07:58 -0,7 C 83 % 1004,3 hPa 0,0 l/m 28,0 km/h (4 Bft) SW 228 0 min 0,000 mm 0,0 UV-I 8 W/m -3,2 C -13,7 C 41,8 km/h (6 Bft) 98,11 %
14.01.2017 08:00 -0,7 C 84 % 1004,3 hPa 0,0 l/m 28,6 km/h (4 Bft) SW 230 0 min 0,025 mm 0,0 UV-I 9 W/m -3,1 C -13,9 C 45,1 km/h (6 Bft) 97,87 %
14.01.2017 08:02 -0,7 C 84 % 1004,3 hPa 0,0 l/m 22,4 km/h (4 Bft) S-SW 213 2 min 0,000 mm 0,0 UV-I 11 W/m -3,1 C -11,6 C 33,8 km/h (5 Bft) 97,14 %
14.01.2017 08:04 -0,7 C 85 % 1004,3 hPa 0,0 l/m 21,7 km/h (4 Bft) SW 227 2 min 0,000 mm 0,0 UV-I 12 W/m -2,9 C -11,3 C 32,2 km/h (5 Bft) 98,21 %
14.01.2017 08:06 -0,7 C 85 % 1004,3 hPa 0,0 l/m 24,6 km/h (4 Bft) W-SW 249 0 min 0,000 mm 0,0 UV-I 14 W/m -2,9 C -12,5 C 40,2 km/h (6 Bft) 92,11 %
14.01.2017 08:08 -0,7 C 85 % 1004,3 hPa 0,0 l/m 24,0 km/h (4 Bft) W-SW 243 2 min 0,000 mm 0,0 UV-I 17 W/m -2,9 C -12,3 C 32,2 km/h (5 Bft) 98,21 %
14.01.2017 08:10 -0,7 C 86 % 1004,3 hPa 0,0 l/m 26,4 km/h (4 Bft) W-SW 238 0 min 0,000 mm 0,0 UV-I 19 W/m -2,7 C -13,2 C 37,0 km/h (5 Bft) 97,56 %
14.01.2017 08:12 -0,7 C 86 % 1004,4 hPa 0,0 l/m 23,4 km/h (4 Bft) W-SW 242 0 min 0,000 mm 0,0 UV-I 18 W/m -2,7 C -12,0 C 38,6 km/h (5 Bft) 96,23 %
14.01.2017 08:14 -0,7 C 87 % 1004,4 hPa 0,0 l/m 24,1 km/h (4 Bft) W-SW 243 0 min 0,000 mm 0,0 UV-I 18 W/m -2,6 C -12,3 C 37,0 km/h (5 Bft) 94,74 %
14.01.2017 08:16 -0,8 C 88 % 1004,5 hPa 0,0 l/m 22,0 km/h (4 Bft) W 269 0 min 0,000 mm 0,0 UV-I 18 W/m -2,5 C -11,6 C 29,0 km/h (5 Bft) 98,11 %
14.01.2017 08:18 -0,8 C 88 % 1004,5 hPa 0,0 l/m 18,0 km/h (3 Bft) SW 219 0 min 0,000 mm 0,0 UV-I 18 W/m -2,5 C -9,7 C 32,2 km/h (5 Bft) 97,73 %
14.01.2017 08:20 -0,8 C 88 % 1004,5 hPa 0,0 l/m 22,2 km/h (4 Bft) SW 225 0 min 0,000 mm 0,0 UV-I 18 W/m -2,5 C -11,7 C 33,8 km/h (5 Bft) 98,00 %
14.01.2017 08:22 -0,8 C 89 % 1004,5 hPa 0,0 l/m 26,7 km/h (4 Bft) SW 234 0 min 0,000 mm 0,0 UV-I 18 W/m -2,4 C -13,4 C 38,6 km/h (5 Bft) 97,62 %
14.01.2017 08:24 -0,8 C 89 % 1004,5 hPa 0,0 l/m 24,1 km/h (4 Bft) W-SW 244 0 min 0,000 mm 0,0 UV-I 19 W/m -2,4 C -12,5 C 37,0 km/h (5 Bft) 98,18 %
14.01.2017 08:26 -0,7 C 89 % 1004,5 hPa 0,0 l/m 22,4 km/h (4 Bft) W-SW 245 0 min 0,000 mm 0,0 UV-I 19 W/m -2,3 C -11,6 C 33,8 km/h (5 Bft) 97,62 %
14.01.2017 08:28 -0,7 C 89 % 1004,5 hPa 0,0 l/m 25,4 km/h (4 Bft) W-SW 238 0 min 0,000 mm 0,0 UV-I 20 W/m -2,3 C -12,8 C 35,4 km/h (5 Bft) 96,23 %
14.01.2017 08:30 -0,7 C 89 % 1004,6 hPa 0,0 l/m 25,2 km/h (4 Bft) SW 234 0 min 0,000 mm 0,0 UV-I 21 W/m -2,3 C -12,7 C 38,6 km/h (5 Bft) 100,00 %
14.01.2017 08:32 -0,7 C 89 % 1004,6 hPa 0,0 l/m 26,3 km/h (4 Bft) W-SW 240 0 min 0,000 mm 0,0 UV-I 21 W/m -2,3 C -13,1 C 37,0 km/h (5 Bft) 97,56 %
14.01.2017 08:34 -0,7 C 89 % 1004,6 hPa 0,0 l/m 26,2 km/h (4 Bft) W-SW 243 0 min 0,000 mm 0,0 UV-I 22 W/m -2,3 C -13,1 C 37,0 km/h (5 Bft) 98,11 %
14.01.2017 08:36 -0,7 C 89 % 1004,6 hPa 0,0 l/m 20,2 km/h (4 Bft) W-SW 246 0 min 0,000 mm 0,0 UV-I 26 W/m -2,3 C -10,6 C 30,6 km/h (5 Bft) 98,21 %
14.01.2017 08:38 -0,7 C 90 % 1004,6 hPa 0,0 l/m 29,3 km/h (5 Bft) SW 214 0 min 0,000 mm 0,0 UV-I 25 W/m -2,1 C -14,2 C 41,8 km/h (6 Bft) 98,00 %
14.01.2017 08:40 -0,7 C 90 % 1004,7 hPa 0,0 l/m 24,9 km/h (4 Bft) SW 223 0 min 0,000 mm 0,0 UV-I 26 W/m -2,1 C -12,6 C 38,6 km/h (5 Bft) 100,00 %
14.01.2017 08:42 -0,7 C 90 % 1004,8 hPa 0,0 l/m 21,9 km/h (4 Bft) SW 233 0 min 0,000 mm 0,0 UV-I 26 W/m -2,1 C -11,4 C 35,4 km/h (5 Bft) 100,00 %
14.01.2017 08:44 -0,7 C 90 % 1004,8 hPa 0,0 l/m 19,7 km/h (3 Bft) SW 223 0 min 0,000 mm 0,0 UV-I 29 W/m -2,1 C -10,4 C 32,2 km/h (5 Bft) 100,00 %
14.01.2017 08:46 -0,7 C 90 % 1004,7 hPa 0,0 l/m 19,0 km/h (3 Bft) SW 232 0 min 0,000 mm 0,0 UV-I 35 W/m -2,1 C -10,0 C 33,8 km/h (5 Bft) 100,00 %
14.01.2017 08:48 -0,7 C 90 % 1004,8 hPa 0,0 l/m 26,1 km/h (4 Bft) W-SW 246 0 min 0,000 mm 0,0 UV-I 43 W/m -2,1 C -13,1 C 38,6 km/h (5 Bft) 97,56 %
14.01.2017 08:50 -0,7 C 90 % 1004,8 hPa 0,0 l/m 23,3 km/h (4 Bft) S-SW 209 0 min 0,000 mm 0,0 UV-I 48 W/m -2,1 C -12,0 C 29,0 km/h (5 Bft) 100,00 %
14.01.2017 08:52 -0,7 C 90 % 1004,9 hPa 0,0 l/m 26,5 km/h (4 Bft) S-SW 211 0 min 0,000 mm 0,0 UV-I 53 W/m -2,1 C -13,2 C 40,2 km/h (6 Bft) 100,00 %
14.01.2017 08:54 -0,6 C 90 % 1004,8 hPa 0,0 l/m 23,1 km/h (4 Bft) W-SW 248 0 min 0,000 mm 0,0 UV-I 47 W/m -2,0 C -11,8 C 32,2 km/h (5 Bft) 100,00 %
14.01.2017 08:56 -0,6 C 90 % 1004,9 hPa 0,0 l/m 23,7 km/h (4 Bft) SW 223 0 min 0,000 mm 0,0 UV-I 41 W/m -2,0 C -12,0 C 32,2 km/h (5 Bft) 100,00 %
14.01.2017 08:58 -0,6 C 90 % 1004,9 hPa 0,0 l/m 23,9 km/h (4 Bft) SW 225 0 min 0,000 mm 0,0 UV-I 38 W/m -2,0 C -12,1 C 45,1 km/h (6 Bft) 100,00 %
14.01.2017 09:00 -0,6 C 90 % 1004,9 hPa 0,0 l/m 25,6 km/h (4 Bft) W-SW 243 0 min 0,025 mm 0,0 UV-I 38 W/m -2,0 C -12,8 C 33,8 km/h (5 Bft) 100,00 %
14.01.2017 09:02 -0,6 C 90 % 1004,9 hPa 0,0 l/m 20,8 km/h (4 Bft) W-SW 256 0 min 0,000 mm 0,0 UV-I 33 W/m -2,0 C -10,8 C 29,0 km/h (5 Bft) 100,00 %
14.01.2017 09:04 -0,6 C 90 % 1004,9 hPa 0,0 l/m 18,6 km/h (3 Bft) SW 230 0 min 0,000 mm 0,0 UV-I 29 W/m -2,0 C -9,7 C 24,1 km/h (4 Bft) 100,00 %
14.01.2017 09:06 -0,6 C 90 % 1005,0 hPa 0,0 l/m 19,9 km/h (4 Bft) SW 216 0 min 0,000 mm 0,0 UV-I 32 W/m -2,0 C -10,4 C 32,2 km/h (5 Bft) 100,00 %
14.01.2017 09:08 -0,5 C 90 % 1005,0 hPa 0,0 l/m 26,4 km/h (4 Bft) SW 224 0 min 0,000 mm 0,0 UV-I 33 W/m -1,9 C -12,9 C 40,2 km/h (6 Bft) 97,37 %
14.01.2017 09:10 -0,5 C 90 % 1005,0 hPa 0,0 l/m 24,3 km/h (4 Bft) SW 234 0 min 0,000 mm 0,0 UV-I 34 W/m -1,9 C -12,1 C 37,0 km/h (5 Bft) 100,00 %
14.01.2017 09:12 -0,5 C 90 % 1005,0 hPa 0,0 l/m 23,3 km/h (4 Bft) W-SW 242 0 min 0,000 mm 0,0 UV-I 35 W/m -1,9 C -11,7 C 35,4 km/h (5 Bft) 100,00 %
14.01.2017 09:14 -0,5 C 91 % 1005,0 hPa 0,0 l/m 28,4 km/h (4 Bft) SW 232 0 min 0,000 mm 0,0 UV-I 33 W/m -1,8 C -13,6 C 41,8 km/h (6 Bft) 100,00 %
14.01.2017 09:16 -0,5 C 91 % 1005,1 hPa 0,0 l/m 28,6 km/h (4 Bft) W-SW 252 0 min 0,000 mm 0,0 UV-I 29 W/m -1,8 C -13,7 C 37,0 km/h (5 Bft) 100,00 %
14.01.2017 09:18 -0,5 C 91 % 1005,1 hPa 0,0 l/m 21,5 km/h (4 Bft) W-SW 239 0 min 0,000 mm 0,0 UV-I 26 W/m -1,8 C -11,0 C 35,4 km/h (5 Bft) 100,00 %
14.01.2017 09:20 -0,4 C 91 % 1005,1 hPa 0,0 l/m 22,1 km/h (4 Bft) W-SW 237 0 min 0,000 mm 0,0 UV-I 24 W/m -1,7 C -11,1 C 33,8 km/h (5 Bft) 100,00 %
14.01.2017 09:22 -0,5 C 91 % 1005,1 hPa 0,0 l/m 24,0 km/h (4 Bft) SW 235 0 min 0,000 mm 0,0 UV-I 23 W/m -1,8 C -12,0 C 33,8 km/h (5 Bft) 100,00 %
14.01.2017 09:24 -0,4 C 91 % 1005,1 hPa 0,0 l/m 22,2 km/h (4 Bft) W 260 0 min 0,000 mm 0,0 UV-I 24 W/m -1,7 C -11,1 C 32,2 km/h (5 Bft) 100,00 %
14.01.2017 09:26 -0,4 C 91 % 1005,2 hPa 0,0 l/m 21,6 km/h (4 Bft) W-SW 250 0 min 0,000 mm 0,0 UV-I 27 W/m -1,7 C -10,9 C 30,6 km/h (5 Bft) 100,00 %
14.01.2017 09:28 -0,4 C 91 % 1005,2 hPa 0,0 l/m 23,9 km/h (4 Bft) W-SW 239 0 min 0,000 mm 0,0 UV-I 28 W/m -1,7 C -11,8 C 32,2 km/h (5 Bft) 100,00 %
14.01.2017 09:30 -0,4 C 91 % 1005,2 hPa 0,0 l/m 23,0 km/h (4 Bft) SW 232 0 min 0,000 mm 0,0 UV-I 28 W/m -1,7 C -11,5 C 29,0 km/h (5 Bft) 97,56 %
14.01.2017 09:32 -0,3 C 91 % 1005,2 hPa 0,0 l/m 18,3 km/h (3 Bft) W-SW 244 0 min 0,000 mm 0,0 UV-I 31 W/m -1,6 C -9,2 C 27,4 km/h (4 Bft) 97,73 %
14.01.2017 09:34 -0,3 C 91 % 1005,2 hPa 0,0 l/m 20,0 km/h (4 Bft) SW 231 0 min 0,000 mm 0,0 UV-I 37 W/m -1,6 C -10,0 C 24,1 km/h (4 Bft) 98,11 %
14.01.2017 09:36 -0,3 C 91 % 1005,3 hPa 0,0 l/m 25,3 km/h (4 Bft) SW 225 0 min 0,000 mm 0,0 UV-I 52 W/m -1,6 C -12,2 C 37,0 km/h (5 Bft) 100,00 %
14.01.2017 09:38 -0,3 C 91 % 1005,2 hPa 0,0 l/m 20,3 km/h (4 Bft) W 267 0 min 0,000 mm 0,0 UV-I 71 W/m -1,6 C -10,2 C 29,0 km/h (5 Bft) 97,37 %
14.01.2017 09:40 -0,3 C 91 % 1005,3 hPa 0,0 l/m 21,2 km/h (4 Bft) SW 231 0 min 0,000 mm 0,0 UV-I 67 W/m -1,6 C -10,6 C 27,4 km/h (4 Bft) 100,00 %
14.01.2017 09:42 -0,2 C 91 % 1005,4 hPa 0,0 l/m 19,0 km/h (3 Bft) W-SW 258 0 min 0,000 mm 0,0 UV-I 53 W/m -1,5 C -9,4 C 27,4 km/h (4 Bft) 100,00 %
14.01.2017 09:44 -0,2 C 91 % 1005,3 hPa 0,0 l/m 19,2 km/h (3 Bft) SW 227 0 min 0,000 mm 0,0 UV-I 49 W/m -1,5 C -9,5 C 27,4 km/h (4 Bft) 100,00 %
14.01.2017 09:46 -0,2 C 91 % 1005,3 hPa 0,0 l/m 22,5 km/h (4 Bft) SW 227 0 min 0,000 mm 0,0 UV-I 47 W/m -1,5 C -11,0 C 33,8 km/h (5 Bft) 97,87 %
14.01.2017 09:48 -0,2 C 91 % 1005,4 hPa 0,0 l/m 19,4 km/h (3 Bft) SW 236 0 min 0,000 mm 0,0 UV-I 46 W/m -1,5 C -9,6 C 32,2 km/h (5 Bft) 100,00 %
14.01.2017 09:50 -0,2 C 91 % 1005,4 hPa 0,0 l/m 22,8 km/h (4 Bft) W 260 0 min 0,000 mm 0,0 UV-I 46 W/m -1,5 C -11,1 C 33,8 km/h (5 Bft) 100,00 %
14.01.2017 09:52 -0,2 C 91 % 1005,4 hPa 0,0 l/m 19,6 km/h (3 Bft) SW 235 0 min 0,000 mm 0,0 UV-I 51 W/m -1,5 C -9,7 C 29,0 km/h (5 Bft) 100,00 %
14.01.2017 09:54 -0,1 C 91 % 1005,5 hPa 0,0 l/m 23,2 km/h (4 Bft) SW 230 0 min 0,000 mm 0,0 UV-I 53 W/m -1,4 C -11,2 C 33,8 km/h (5 Bft) 100,00 %
14.01.2017 09:56 -0,1 C 91 % 1005,4 hPa 0,0 l/m 22,5 km/h (4 Bft) SW 229 0 min 0,000 mm 0,0 UV-I 59 W/m -1,4 C -10,9 C 35,4 km/h (5 Bft) 98,11 %
14.01.2017 09:58 -0,1 C 91 % 1005,4 hPa 0,0 l/m 21,5 km/h (4 Bft) SW 230 0 min 0,000 mm 0,0 UV-I 72 W/m -1,4 C -10,4 C 29,0 km/h (5 Bft) 100,00 %
14.01.2017 10:00 0,0 C 91 % 1005,5 hPa 0,0 l/m 20,4 km/h (4 Bft) SW 225 0 min 0,026 mm 0,0 UV-I 67 W/m -1,3 C -9,8 C 29,0 km/h (5 Bft) 100,00 %
14.01.2017 10:02 0,0 C 91 % 1005,5 hPa 0,0 l/m 19,4 km/h (3 Bft) SW 221 0 min 0,000 mm 0,0 UV-I 83 W/m -1,3 C -9,3 C 32,2 km/h (5 Bft) 97,37 %
14.01.2017 10:04 0,1 C 91 % 1005,5 hPa 0,0 l/m 24,9 km/h (4 Bft) W-SW 238 0 min 0,000 mm 0,0 UV-I 84 W/m -1,2 C -11,5 C 33,8 km/h (5 Bft) 97,87 %
14.01.2017 10:06 0,1 C 91 % 1005,5 hPa 0,0 l/m 18,2 km/h (3 Bft) S-SW 199 0 min 0,000 mm 0,0 UV-I 76 W/m -1,2 C -8,6 C 27,4 km/h (4 Bft) 95,12 %
14.01.2017 10:08 0,1 C 91 % 1005,6 hPa 0,0 l/m 16,2 km/h (3 Bft) SW 232 0 min 0,000 mm 0,0 UV-I 86 W/m -1,2 C -7,6 C 25,7 km/h (4 Bft) 98,21 %
14.01.2017 10:10 0,2 C 91 % 1005,6 hPa 0,0 l/m 15,9 km/h (3 Bft) SW 229 0 min 0,000 mm 0,0 UV-I 94 W/m -1,1 C -7,3 C 20,9 km/h (4 Bft) 97,73 %
14.01.2017 10:12 0,2 C 91 % 1005,6 hPa 0,0 l/m 19,2 km/h (3 Bft) SW 229 0 min 0,000 mm 0,0 UV-I 86 W/m -1,1 C -9,0 C 30,6 km/h (5 Bft) 96,23 %
14.01.2017 10:14 0,2 C 91 % 1005,6 hPa 0,0 l/m 22,2 km/h (4 Bft) SW 229 0 min 0,000 mm 0,0 UV-I 83 W/m -1,1 C -10,3 C 30,6 km/h (5 Bft) 97,37 %
14.01.2017 10:16 0,3 C 91 % 1005,6 hPa 0,0 l/m 20,4 km/h (4 Bft) S-SW 198 0 min 0,000 mm 0,0 UV-I 76 W/m -1,0 C -9,4 C 33,8 km/h (5 Bft) 97,87 %
14.01.2017 10:18 0,3 C 90 % 1005,7 hPa 0,0 l/m 16,8 km/h (3 Bft) SW 232 0 min 0,000 mm 0,0 UV-I 72 W/m -1,1 C -7,6 C 24,1 km/h (4 Bft) 96,23 %
14.01.2017 10:20 0,3 C 91 % 1005,7 hPa 0,0 l/m 20,7 km/h (4 Bft) SW 230 0 min 0,000 mm 0,0 UV-I 74 W/m -1,0 C -9,6 C 30,6 km/h (5 Bft) 97,73 %
14.01.2017 10:22 0,3 C 91 % 1005,8 hPa 0,0 l/m 19,2 km/h (3 Bft) SW 217 0 min 0,000 mm 0,0 UV-I 84 W/m -1,0 C -8,9 C 30,6 km/h (5 Bft) 98,11 %
14.01.2017 10:24 0,3 C 91 % 1005,8 hPa 0,0 l/m 18,9 km/h (3 Bft) W 275 0 min 0,000 mm 0,0 UV-I 85 W/m -1,0 C -8,7 C 25,7 km/h (4 Bft) 97,44 %
14.01.2017 10:26 0,3 C 91 % 1005,8 hPa 0,0 l/m 19,1 km/h (3 Bft) SW 233 0 min 0,000 mm 0,0 UV-I 80 W/m -1,0 C -8,8 C 25,7 km/h (4 Bft) 98,11 %
14.01.2017 10:28 0,3 C 91 % 1005,8 hPa 0,0 l/m 17,7 km/h (3 Bft) SW 236 0 min 0,000 mm 0,0 UV-I 75 W/m -1,0 C -8,1 C 24,1 km/h (4 Bft) 94,74 %
14.01.2017 10:30 0,3 C 91 % 1005,9 hPa 0,0 l/m 17,9 km/h (3 Bft) W-SW 241 0 min 0,000 mm 0,0 UV-I 72 W/m -1,0 C -8,2 C 30,6 km/h (5 Bft) 97,87 %
14.01.2017 10:32 0,4 C 91 % 1005,9 hPa 0,0 l/m 20,7 km/h (4 Bft) W 267 0 min 0,000 mm 0,0 UV-I 83 W/m -0,9 C -9,4 C 29,0 km/h (5 Bft) 95,74 %
14.01.2017 10:34 0,4 C 91 % 1005,8 hPa 0,0 l/m 16,1 km/h (3 Bft) SW 225 0 min 0,000 mm 0,0 UV-I 106 W/m -0,9 C -7,1 C 22,5 km/h (4 Bft) 96,43 %
14.01.2017 10:36 0,5 C 91 % 1005,8 hPa 0,0 l/m 17,0 km/h (3 Bft) W-SW 242 0 min 0,000 mm 0,0 UV-I 125 W/m -0,8 C -7,5 C 22,5 km/h (4 Bft) 97,37 %
14.01.2017 10:38 0,6 C 91 % 1005,8 hPa 0,0 l/m 17,6 km/h (3 Bft) W-SW 238 0 min 0,000 mm 0,0 UV-I 121 W/m -0,7 C -7,7 C 24,1 km/h (4 Bft) 97,73 %
14.01.2017 10:40 0,6 C 91 % 1005,8 hPa 0,0 l/m 20,1 km/h (4 Bft) S-SW 212 0 min 0,000 mm 0,0 UV-I 142 W/m -0,7 C -8,9 C 30,6 km/h (5 Bft) 100,00 %
14.01.2017 10:42 0,7 C 90 % 1005,8 hPa 0,0 l/m 19,0 km/h (3 Bft) SW 214 0 min 0,000 mm 0,0 UV-I 158 W/m -0,7 C -8,3 C 27,4 km/h (4 Bft) 100,00 %
14.01.2017 10:44 0,7 C 90 % 1005,8 hPa 0,0 l/m 19,8 km/h (3 Bft) SW 218 0 min 0,000 mm 0,0 UV-I 138 W/m -0,7 C -8,6 C 33,8 km/h (5 Bft) 97,87 %
14.01.2017 10:46 0,8 C 90 % 1005,9 hPa 0,0 l/m 24,4 km/h (4 Bft) W-SW 250 0 min 0,000 mm 0,0 UV-I 132 W/m -0,6 C -10,4 C 35,4 km/h (5 Bft) 98,00 %
14.01.2017 10:48 0,9 C 89 % 1005,9 hPa 0,0 l/m 22,8 km/h (4 Bft) W-SW 242 0 min 0,000 mm 0,0 UV-I 163 W/m -0,7 C -9,7 C 29,0 km/h (5 Bft) 100,00 %
14.01.2017 10:50 0,9 C 89 % 1005,9 hPa 0,0 l/m 21,2 km/h (4 Bft) SW 227 0 min 0,000 mm 0,0 UV-I 172 W/m -0,7 C -9,0 C 30,6 km/h (5 Bft) 100,00 %
14.01.2017 10:52 1,1 C 89 % 1006,0 hPa 0,0 l/m 18,9 km/h (3 Bft) W-SW 238 2 min 0,000 mm 0,0 UV-I 184 W/m -0,5 C -7,7 C 32,2 km/h (5 Bft) 100,00 %
14.01.2017 10:54 1,1 C 88 % 1006,0 hPa 0,0 l/m 19,0 km/h (3 Bft) W-SW 248 2 min 0,000 mm 0,0 UV-I 182 W/m -0,7 C -7,7 C 25,7 km/h (4 Bft) 98,11 %
14.01.2017 10:56 1,2 C 88 % 1005,9 hPa 0,0 l/m 23,2 km/h (4 Bft) W-SW 254 2 min 0,000 mm 0,0 UV-I 184 W/m -0,6 C -9,4 C 37,0 km/h (5 Bft) 100,00 %
14.01.2017 10:58 1,3 C 88 % 1006,0 hPa 0,0 l/m 22,7 km/h (4 Bft) W 263 0 min 0,000 mm 0,0 UV-I 179 W/m -0,5 C -9,1 C 33,8 km/h (5 Bft) 100,00 %
14.01.2017 11:00 1,3 C 87 % 1005,9 hPa 0,0 l/m 19,5 km/h (3 Bft) SW 233 0 min 0,000 mm 0,0 UV-I 180 W/m -0,6 C -7,7 C 27,4 km/h (4 Bft) 100,00 %
14.01.2017 11:02 1,3 C 87 % 1005,9 hPa 0,0 l/m 20,6 km/h (4 Bft) W 261 0 min 0,051 mm 0,0 UV-I 163 W/m -0,6 C -8,2 C 29,0 km/h (5 Bft) 100,00 %
14.01.2017 11:04 1,3 C 87 % 1005,9 hPa 0,0 l/m 17,2 km/h (3 Bft) W-SW 248 0 min 0,000 mm 0,0 UV-I 178 W/m -0,6 C -6,6 C 25,7 km/h (4 Bft) 98,00 %
14.01.2017 11:06 1,3 C 87 % 1005,9 hPa 0,0 l/m 19,8 km/h (3 Bft) W-SW 244 2 min 0,000 mm 0,0 UV-I 185 W/m -0,6 C -7,9 C 32,2 km/h (5 Bft) 100,00 %
14.01.2017 11:08 1,4 C 87 % 1005,9 hPa 0,0 l/m 19,6 km/h (3 Bft) W-SW 242 0 min 0,000 mm 0,0 UV-I 167 W/m -0,5 C -7,6 C 29,0 km/h (5 Bft) 100,00 %
14.01.2017 11:10 1,4 C 87 % 1005,9 hPa 0,0 l/m 22,5 km/h (4 Bft) W 262 0 min 0,000 mm 0,0 UV-I 164 W/m -0,5 C -8,9 C 33,8 km/h (5 Bft) 100,00 %
14.01.2017 11:12 1,4 C 87 % 1006,0 hPa 0,0 l/m 22,2 km/h (4 Bft) W-SW 244 2 min 0,000 mm 0,0 UV-I 188 W/m -0,5 C -8,8 C 33,8 km/h (5 Bft) 98,39 %
14.01.2017 11:14 1,5 C 87 % 1005,9 hPa 0,0 l/m 17,0 km/h (3 Bft) W-SW 240 2 min 0,000 mm 0,0 UV-I 218 W/m -0,4 C -6,3 C 22,5 km/h (4 Bft) 100,00 %
14.01.2017 11:16 1,6 C 87 % 1006,0 hPa 0,0 l/m 21,5 km/h (4 Bft) SW 223 2 min 0,000 mm 0,0 UV-I 213 W/m -0,3 C -8,2 C 33,8 km/h (5 Bft) 100,00 %
14.01.2017 11:18 1,6 C 87 % 1006,0 hPa 0,0 l/m 19,4 km/h (3 Bft) W-SW 248 2 min 0,000 mm 0,0 UV-I 198 W/m -0,3 C -7,3 C 25,7 km/h (4 Bft) 100,00 %
14.01.2017 11:20 1,6 C 87 % 1006,1 hPa 0,0 l/m 18,9 km/h (3 Bft) SW 234 0 min 0,000 mm 0,0 UV-I 188 W/m -0,3 C -7,1 C 30,6 km/h (5 Bft) 100,00 %
14.01.2017 11:22 1,6 C 87 % 1006,0 hPa 0,0 l/m 21,1 km/h (4 Bft) SW 214 0 min 0,000 mm 0,0 UV-I 170 W/m -0,3 C -8,0 C 30,6 km/h (5 Bft) 100,00 %
14.01.2017 11:24 1,5 C 87 % 1006,0 hPa 0,0 l/m 18,7 km/h (3 Bft) SW 236 0 min 0,000 mm 0,0 UV-I 150 W/m -0,4 C -7,1 C 27,4 km/h (4 Bft) 100,00 %
14.01.2017 11:26 1,4 C 87 % 1006,1 hPa 0,0 l/m 23,6 km/h (4 Bft) W 259 0 min 0,000 mm 0,0 UV-I 120 W/m -0,5 C -9,3 C 37,0 km/h (5 Bft) 100,00 %
14.01.2017 11:28 1,4 C 87 % 1006,0 hPa 0,0 l/m 26,5 km/h (4 Bft) SW 233 0 min 0,000 mm 0,0 UV-I 105 W/m -0,5 C -10,3 C 37,0 km/h (5 Bft) 97,87 %
14.01.2017 11:30 1,4 C 87 % 1006,1 hPa 0,0 l/m 23,6 km/h (4 Bft) W-SW 244 0 min 0,000 mm 0,0 UV-I 86 W/m -0,5 C -9,3 C 35,4 km/h (5 Bft) 100,00 %
14.01.2017 11:32 1,4 C 87 % 1006,0 hPa 0,2 l/m 21,3 km/h (4 Bft) W-SW 247 0 min 0,000 mm 0,0 UV-I 78 W/m -0,5 C -8,4 C 27,4 km/h (4 Bft) 96,23 %
14.01.2017 11:34 1,3 C 87 % 1006,0 hPa 0,0 l/m 21,1 km/h (4 Bft) S-SW 211 0 min 0,000 mm 0,0 UV-I 83 W/m -0,6 C -8,4 C 32,2 km/h (5 Bft) 97,56 %
14.01.2017 11:36 1,3 C 87 % 1006,1 hPa 0,0 l/m 24,4 km/h (4 Bft) SW 225 0 min 0,000 mm 0,0 UV-I 83 W/m -0,6 C -9,7 C 35,4 km/h (5 Bft) 100,00 %
14.01.2017 11:38 1,3 C 88 % 1006,1 hPa 0,0 l/m 22,3 km/h (4 Bft) SW 223 0 min 0,000 mm 0,0 UV-I 82 W/m -0,5 C -8,9 C 35,4 km/h (5 Bft) 100,00 %
14.01.2017 11:40 1,3 C 88 % 1006,1 hPa 0,0 l/m 19,3 km/h (3 Bft) S-SW 213 0 min 0,000 mm 0,0 UV-I 93 W/m -0,5 C -7,6 C 33,8 km/h (5 Bft) 96,00 %
14.01.2017 11:42 1,3 C 88 % 1006,2 hPa 0,0 l/m 25,1 km/h (4 Bft) W-SW 243 0 min 0,000 mm 0,0 UV-I 93 W/m -0,5 C -10,0 C 37,0 km/h (5 Bft) 100,00 %
14.01.2017 11:44 1,3 C 88 % 1006,2 hPa 0,0 l/m 26,7 km/h (4 Bft) W-SW 253 0 min 0,000 mm 0,0 UV-I 98 W/m -0,5 C -10,5 C 37,0 km/h (5 Bft) 100,00 %
14.01.2017 11:46 1,3 C 88 % 1006,2 hPa 0,2 l/m 21,3 km/h (4 Bft) SW 227 0 min 0,000 mm 0,0 UV-I 90 W/m -0,5 C -8,5 C 29,0 km/h (5 Bft) 100,00 %
14.01.2017 11:48 1,3 C 88 % 1006,2 hPa 0,0 l/m 22,7 km/h (4 Bft) SW 225 0 min 0,000 mm 0,0 UV-I 77 W/m -0,5 C -9,1 C 30,6 km/h (5 Bft) 98,11 %
14.01.2017 11:50 1,3 C 88 % 1006,3 hPa 0,0 l/m 21,4 km/h (4 Bft) S-SW 204 0 min 0,000 mm 0,0 UV-I 72 W/m -0,5 C -8,6 C 30,6 km/h (5 Bft) 100,00 %
14.01.2017 11:52 1,3 C 88 % 1006,2 hPa 0,0 l/m 17,1 km/h (3 Bft) W 271 0 min 0,000 mm 0,0 UV-I 73 W/m -0,5 C -6,6 C 25,7 km/h (4 Bft) 100,00 %
14.01.2017 11:54 1,3 C 88 % 1006,3 hPa 0,0 l/m 19,8 km/h (3 Bft) SW 225 0 min 0,000 mm 0,0 UV-I 77 W/m -0,5 C -7,9 C 33,8 km/h (5 Bft) 100,00 %
14.01.2017 11:56 1,3 C 88 % 1006,3 hPa 0,0 l/m 19,8 km/h (3 Bft) SW 225 0 min 0,000 mm 0,0 UV-I 81 W/m -0,5 C -7,9 C 30,6 km/h (5 Bft) 100,00 %
14.01.2017 11:58 1,3 C 88 % 1006,4 hPa 0,0 l/m 18,4 km/h (3 Bft) W-SW 240 0 min 0,000 mm 0,0 UV-I 81 W/m -0,5 C -7,2 C 27,4 km/h (4 Bft) 100,00 %
14.01.2017 12:00 1,3 C 89 % 1006,3 hPa 0,0 l/m 17,8 km/h (3 Bft) W-SW 241 0 min 0,000 mm 0,0 UV-I 84 W/m -0,3 C -6,9 C 25,7 km/h (4 Bft) 97,56 %
14.01.2017 12:02 1,3 C 89 % 1006,4 hPa 0,0 l/m 17,3 km/h (3 Bft) SW 225 0 min 0,050 mm 0,0 UV-I 99 W/m -0,3 C -6,7 C 25,7 km/h (4 Bft) 98,11 %
14.01.2017 12:04 1,3 C 89 % 1006,4 hPa 0,0 l/m 19,4 km/h (3 Bft) W-SW 249 0 min 0,000 mm 0,0 UV-I 97 W/m -0,3 C -7,7 C 30,6 km/h (5 Bft) 100,00 %
14.01.2017 12:06 1,3 C 89 % 1006,5 hPa 0,0 l/m 20,0 km/h (4 Bft) W-SW 256 0 min 0,000 mm 0,0 UV-I 92 W/m -0,3 C -8,0 C 35,4 km/h (5 Bft) 98,00 %
14.01.2017 12:08 1,3 C 89 % 1006,4 hPa 0,0 l/m 19,9 km/h (4 Bft) S-SW 208 0 min 0,000 mm 0,0 UV-I 84 W/m -0,3 C -7,9 C 29,0 km/h (5 Bft) 98,11 %
14.01.2017 12:10 1,3 C 89 % 1006,5 hPa 0,0 l/m 23,2 km/h (4 Bft) SW 214 0 min 0,000 mm 0,0 UV-I 84 W/m -0,3 C -9,3 C 32,2 km/h (5 Bft) 97,37 %
14.01.2017 12:12 1,3 C 89 % 1006,4 hPa 0,0 l/m 18,4 km/h (3 Bft) W-SW 238 0 min 0,000 mm 0,0 UV-I 91 W/m -0,3 C -7,2 C 25,7 km/h (4 Bft) 97,73 %
14.01.2017 12:14 1,2 C 90 % 1006,4 hPa 0,0 l/m 22,5 km/h (4 Bft) SW 218 0 min 0,000 mm 0,0 UV-I 101 W/m -0,3 C -9,1 C 35,4 km/h (5 Bft) 96,61 %
14.01.2017 12:16 1,2 C 90 % 1006,4 hPa 0,0 l/m 24,1 km/h (4 Bft) SW 217 0 min 0,000 mm 0,0 UV-I 127 W/m -0,3 C -9,8 C 33,8 km/h (5 Bft) 97,37 %
14.01.2017 12:18 1,2 C 90 % 1006,4 hPa 0,0 l/m 23,7 km/h (4 Bft) W-SW 254 0 min 0,000 mm 0,0 UV-I 138 W/m -0,3 C -9,6 C 35,4 km/h (5 Bft) 96,23 %
14.01.2017 12:20 1,2 C 90 % 1006,4 hPa 0,0 l/m 17,8 km/h (3 Bft) W-SW 243 0 min 0,000 mm 0,0 UV-I 116 W/m -0,3 C -7,0 C 27,4 km/h (4 Bft) 97,62 %
14.01.2017 12:22 1,2 C 90 % 1006,6 hPa 0,0 l/m 21,2 km/h (4 Bft) S-SW 213 0 min 0,000 mm 0,0 UV-I 95 W/m -0,3 C -8,6 C 30,6 km/h (5 Bft) 98,18 %
14.01.2017 12:24 1,2 C 90 % 1006,5 hPa 0,0 l/m 19,8 km/h (3 Bft) W-SW 244 0 min 0,000 mm 0,0 UV-I 98 W/m -0,3 C -8,0 C 29,0 km/h (5 Bft) 97,62 %
14.01.2017 12:26 1,2 C 91 % 1006,5 hPa 0,2 l/m 21,4 km/h (4 Bft) SW 217 0 min 0,000 mm 0,0 UV-I 98 W/m -0,1 C -8,7 C 32,2 km/h (5 Bft) 97,56 %
14.01.2017 12:28 1,1 C 91 % 1006,6 hPa 0,0 l/m 18,7 km/h (3 Bft) SW 221 0 min 0,000 mm 0,0 UV-I 100 W/m -0,2 C -7,6 C 30,6 km/h (5 Bft) 98,00 %
14.01.2017 12:30 1,1 C 91 % 1006,5 hPa 0,0 l/m 20,8 km/h (4 Bft) W-SW 254 0 min 0,000 mm 0,0 UV-I 93 W/m -0,2 C -8,6 C 33,8 km/h (5 Bft) 98,00 %
14.01.2017 12:32 1,1 C 92 % 1006,6 hPa 0,0 l/m 19,3 km/h (3 Bft) SW 221 0 min 0,000 mm 0,0 UV-I 92 W/m -0,1 C -7,9 C 27,4 km/h (4 Bft) 97,56 %
14.01.2017 12:34 1,1 C 92 % 1006,6 hPa 0,0 l/m 16,8 km/h (3 Bft) W-SW 252 0 min 0,000 mm 0,0 UV-I 82 W/m -0,1 C -6,6 C 29,0 km/h (5 Bft) 96,23 %
14.01.2017 12:36 1,1 C 92 % 1006,7 hPa 0,0 l/m 17,2 km/h (3 Bft) SW 231 0 min 0,000 mm 0,0 UV-I 84 W/m -0,1 C -6,9 C 22,5 km/h (4 Bft) 98,00 %
14.01.2017 12:38 1,0 C 92 % 1006,6 hPa 0,0 l/m 20,9 km/h (4 Bft) SW 227 0 min 0,000 mm 0,0 UV-I 89 W/m -0,2 C -8,7 C 24,1 km/h (4 Bft) 100,00 %
14.01.2017 12:40 1,0 C 92 % 1006,7 hPa 0,0 l/m 21,2 km/h (4 Bft) W-SW 238 0 min 0,000 mm 0,0 UV-I 76 W/m -0,2 C -8,9 C 33,8 km/h (5 Bft) 96,23 %
14.01.2017 12:42 1,0 C 92 % 1006,6 hPa 0,0 l/m 21,7 km/h (4 Bft) W-SW 250 0 min 0,000 mm 0,0 UV-I 60 W/m -0,2 C -9,1 C 29,0 km/h (5 Bft) 100,00 %
14.01.2017 12:44 1,0 C 92 % 1006,7 hPa 0,0 l/m 21,9 km/h (4 Bft) S-SW 205 0 min 0,000 mm 0,0 UV-I 54 W/m -0,2 C -9,2 C 37,0 km/h (5 Bft) 98,00 %
14.01.2017 12:46 1,0 C 92 % 1006,7 hPa 0,0 l/m 27,1 km/h (4 Bft) SW 234 0 min 0,000 mm 0,0 UV-I 62 W/m -0,2 C -11,1 C 37,0 km/h (5 Bft) 100,00 %
14.01.2017 12:48 1,0 C 92 % 1006,8 hPa 0,0 l/m 20,2 km/h (4 Bft) W-SW 246 0 min 0,000 mm 0,0 UV-I 66 W/m -0,2 C -8,4 C 27,4 km/h (4 Bft) 100,00 %
14.01.2017 12:50 1,0 C 92 % 1006,7 hPa 0,0 l/m 23,9 km/h (4 Bft) W 263 0 min 0,000 mm 0,0 UV-I 72 W/m -0,2 C -10,0 C 38,6 km/h (5 Bft) 98,21 %
14.01.2017 12:52 1,0 C 92 % 1006,7 hPa 0,0 l/m 22,8 km/h (4 Bft) W-SW 240 0 min 0,000 mm 0,0 UV-I 90 W/m -0,2 C -9,5 C 33,8 km/h (5 Bft) 100,00 %
14.01.2017 12:54 1,1 C 92 % 1006,7 hPa 0,0 l/m 19,0 km/h (3 Bft) W 265 0 min 0,000 mm 0,0 UV-I 98 W/m -0,1 C -7,7 C 33,8 km/h (5 Bft) 100,00 %
14.01.2017 12:56 1,1 C 91 % 1006,7 hPa 0,0 l/m 21,0 km/h (4 Bft) SW 231 0 min 0,000 mm 0,0 UV-I 86 W/m -0,2 C -8,7 C 27,4 km/h (4 Bft) 100,00 %
14.01.2017 12:58 1,2 C 91 % 1006,7 hPa 0,0 l/m 21,1 km/h (4 Bft) SW 224 0 min 0,000 mm 0,0 UV-I 77 W/m -0,1 C -8,6 C 29,0 km/h (5 Bft) 100,00 %
14.01.2017 13:00 1,2 C 91 % 1006,7 hPa 0,2 l/m 20,2 km/h (4 Bft) W-SW 238 0 min 0,051 mm 0,0 UV-I 68 W/m -0,1 C -8,2 C 32,2 km/h (5 Bft) 97,87 %
14.01.2017 13:02 1,2 C 90 % 1006,7 hPa 0,0 l/m 26,8 km/h (4 Bft) W-SW 254 0 min 0,000 mm 0,0 UV-I 62 W/m -0,3 C -10,7 C 45,1 km/h (6 Bft) 100,00 %
14.01.2017 13:04 1,2 C 90 % 1006,9 hPa 0,0 l/m 24,1 km/h (4 Bft) W-SW 250 0 min 0,000 mm 0,0 UV-I 63 W/m -0,3 C -9,8 C 35,4 km/h (5 Bft) 98,11 %
14.01.2017 13:06 1,3 C 90 % 1006,9 hPa 0,0 l/m 25,7 km/h (4 Bft) W-SW 244 0 min 0,000 mm 0,0 UV-I 72 W/m -0,2 C -10,2 C 38,6 km/h (5 Bft) 100,00 %
14.01.2017 13:08 1,3 C 89 % 1006,9 hPa 0,0 l/m 22,8 km/h (4 Bft) W-SW 257 0 min 0,000 mm 0,0 UV-I 80 W/m -0,3 C -9,1 C 33,8 km/h (5 Bft) 100,00 %
14.01.2017 13:10 1,3 C 89 % 1006,9 hPa 0,0 l/m 26,9 km/h (4 Bft) W 263 0 min 0,000 mm 0,0 UV-I 76 W/m -0,3 C -10,6 C 40,2 km/h (6 Bft) 100,00 %
14.01.2017 13:12 1,4 C 88 % 1006,9 hPa 0,0 l/m 23,9 km/h (4 Bft) W 281 0 min 0,000 mm 0,0 UV-I 74 W/m -0,4 C -9,4 C 32,2 km/h (5 Bft) 100,00 %
14.01.2017 13:14 1,4 C 88 % 1007,0 hPa 0,0 l/m 24,1 km/h (4 Bft) SW 236 0 min 0,000 mm 0,0 UV-I 72 W/m -0,4 C -9,5 C 41,8 km/h (6 Bft) 100,00 %
14.01.2017 13:16 1,5 C 87 % 1007,0 hPa 0,0 l/m 25,7 km/h (4 Bft) W-SW 237 0 min 0,000 mm 0,0 UV-I 86 W/m -0,4 C -9,9 C 45,1 km/h (6 Bft) 100,00 %
14.01.2017 13:18 1,6 C 87 % 1007,0 hPa 0,0 l/m 24,1 km/h (4 Bft) W-SW 250 0 min 0,000 mm 0,0 UV-I 101 W/m -0,3 C -9,2 C 37,0 km/h (5 Bft) 100,00 %
14.01.2017 13:20 1,6 C 86 % 1007,1 hPa 0,0 l/m 27,1 km/h (4 Bft) S-SW 213 0 min 0,000 mm 0,0 UV-I 107 W/m -0,5 C -10,3 C 38,6 km/h (5 Bft) 100,00 %
14.01.2017 13:22 1,7 C 86 % 1007,1 hPa 0,0 l/m 21,6 km/h (4 Bft) W-SW 257 0 min 0,000 mm 0,0 UV-I 130 W/m -0,4 C -8,1 C 30,6 km/h (5 Bft) 100,00 %
14.01.2017 13:24 1,7 C 86 % 1007,1 hPa 0,0 l/m 25,7 km/h (4 Bft) W 261 0 min 0,000 mm 0,0 UV-I 162 W/m -0,4 C -9,7 C 35,4 km/h (5 Bft) 100,00 %
14.01.2017 13:26 1,8 C 85 % 1007,1 hPa 0,0 l/m 30,6 km/h (5 Bft) W-SW 257 0 min 0,000 mm 0,0 UV-I 179 W/m -0,4 C -11,0 C 46,7 km/h (6 Bft) 100,00 %
14.01.2017 13:28 1,8 C 84 % 1007,1 hPa 0,0 l/m 28,2 km/h (4 Bft) W-SW 245 2 min 0,000 mm 0,0 UV-I 197 W/m -0,6 C -10,3 C 46,7 km/h (6 Bft) 100,00 %
14.01.2017 13:30 1,9 C 84 % 1007,1 hPa 0,0 l/m 24,6 km/h (4 Bft) W-SW 252 2 min 0,000 mm 0,0 UV-I 201 W/m -0,5 C -9,0 C 33,8 km/h (5 Bft) 100,00 %
14.01.2017 13:32 1,9 C 84 % 1007,2 hPa 0,0 l/m 26,3 km/h (4 Bft) W 269 2 min 0,000 mm 0,0 UV-I 187 W/m -0,5 C -9,6 C 37,0 km/h (5 Bft) 100,00 %
14.01.2017 13:34 1,9 C 84 % 1007,2 hPa 0,0 l/m 23,1 km/h (4 Bft) W-SW 254 2 min 0,000 mm 0,0 UV-I 200 W/m -0,5 C -8,4 C 35,4 km/h (5 Bft) 97,73 %
14.01.2017 13:36 2,0 C 84 % 1007,3 hPa 0,0 l/m 25,6 km/h (4 Bft) W-SW 255 2 min 0,000 mm 0,0 UV-I 184 W/m -0,4 C -9,2 C 40,2 km/h (6 Bft) 100,00 %
14.01.2017 13:38 2,0 C 84 % 1007,3 hPa 0,0 l/m 23,4 km/h (4 Bft) W-SW 240 2 min 0,000 mm 0,0 UV-I 179 W/m -0,4 C -8,4 C 41,8 km/h (6 Bft) 100,00 %
14.01.2017 13:40 2,0 C 83 % 1007,3 hPa 0,0 l/m 28,8 km/h (4 Bft) W-SW 248 0 min 0,000 mm 0,0 UV-I 168 W/m -0,6 C -10,2 C 40,2 km/h (6 Bft) 97,87 %
14.01.2017 13:42 2,0 C 83 % 1007,4 hPa 0,0 l/m 31,8 km/h (5 Bft) W 264 0 min 0,000 mm 0,0 UV-I 149 W/m -0,6 C -11,1 C 54,7 km/h (7 Bft) 100,00 %
14.01.2017 13:44 1,9 C 83 % 1007,4 hPa 0,0 l/m 27,5 km/h (4 Bft) W 263 0 min 0,000 mm 0,0 UV-I 143 W/m -0,7 C -10,0 C 45,1 km/h (6 Bft) 97,62 %
14.01.2017 13:46 1,9 C 83 % 1007,3 hPa 0,0 l/m 27,4 km/h (4 Bft) W 272 0 min 0,000 mm 0,0 UV-I 151 W/m -0,7 C -9,9 C 46,7 km/h (6 Bft) 100,00 %
14.01.2017 13:48 1,9 C 83 % 1007,6 hPa 0,0 l/m 22,0 km/h (4 Bft) W-SW 258 0 min 0,000 mm 0,0 UV-I 153 W/m -0,7 C -8,0 C 37,0 km/h (5 Bft) 98,53 %
14.01.2017 13:50 1,9 C 83 % 1007,6 hPa 0,0 l/m 23,7 km/h (4 Bft) SW 236 0 min 0,000 mm 0,0 UV-I 146 W/m -0,7 C -8,7 C 35,4 km/h (5 Bft) 100,00 %
14.01.2017 13:52 1,9 C 82 % 1007,6 hPa 0,0 l/m 22,9 km/h (4 Bft) W 270 0 min 0,000 mm 0,0 UV-I 144 W/m -0,8 C -8,4 C 30,6 km/h (5 Bft) 100,00 %
14.01.2017 13:54 1,9 C 82 % 1007,6 hPa 0,0 l/m 23,9 km/h (4 Bft) W-SW 245 0 min 0,000 mm 0,0 UV-I 153 W/m -0,8 C -8,7 C 35,4 km/h (5 Bft) 100,00 %
14.01.2017 13:56 1,9 C 82 % 1007,5 hPa 0,0 l/m 26,6 km/h (4 Bft) W-SW 257 0 min 0,000 mm 0,0 UV-I 149 W/m -0,8 C -9,7 C 40,2 km/h (6 Bft) 100,00 %
14.01.2017 13:58 2,0 C 82 % 1007,6 hPa 0,0 l/m 20,3 km/h (4 Bft) W-SW 242 0 min 0,000 mm 0,0 UV-I 160 W/m -0,7 C -7,2 C 27,4 km/h (4 Bft) 100,00 %
14.01.2017 14:00 2,0 C 82 % 1007,6 hPa 0,0 l/m 23,4 km/h (4 Bft) W-SW 254 0 min 0,076 mm 0,0 UV-I 147 W/m -0,7 C -8,4 C 37,0 km/h (5 Bft) 100,00 %
14.01.2017 14:02 2,0 C 82 % 1007,7 hPa 0,0 l/m 23,1 km/h (4 Bft) W-SW 242 0 min 0,000 mm 0,0 UV-I 139 W/m -0,7 C -8,3 C 32,2 km/h (5 Bft) 100,00 %
14.01.2017 14:04 2,0 C 82 % 1007,6 hPa 0,0 l/m 26,1 km/h (4 Bft) W-SW 250 0 min 0,000 mm 0,0 UV-I 134 W/m -0,7 C -9,4 C 45,1 km/h (6 Bft) 98,11 %
14.01.2017 14:06 1,9 C 82 % 1007,7 hPa 0,0 l/m 27,9 km/h (4 Bft) W-SW 251 0 min 0,000 mm 0,0 UV-I 130 W/m -0,8 C -10,1 C 45,1 km/h (6 Bft) 98,11 %
14.01.2017 14:08 1,9 C 82 % 1007,8 hPa 0,0 l/m 25,8 km/h (4 Bft) W 269 0 min 0,000 mm 0,0 UV-I 136 W/m -0,8 C -9,4 C 37,0 km/h (5 Bft) 97,14 %
14.01.2017 14:10 1,9 C 82 % 1007,8 hPa 0,0 l/m 25,1 km/h (4 Bft) W-SW 238 0 min 0,000 mm 0,0 UV-I 129 W/m -0,8 C -9,2 C 35,4 km/h (5 Bft) 98,11 %
14.01.2017 14:12 1,9 C 82 % 1007,9 hPa 0,0 l/m 25,3 km/h (4 Bft) W-SW 256 0 min 0,000 mm 0,0 UV-I 130 W/m -0,8 C -9,2 C 46,7 km/h (6 Bft) 97,73 %
14.01.2017 14:14 1,9 C 82 % 1007,9 hPa 0,0 l/m 28,1 km/h (4 Bft) W-SW 246 0 min 0,000 mm 0,0 UV-I 129 W/m -0,8 C -10,2 C 51,5 km/h (7 Bft) 94,64 %
14.01.2017 14:16 1,9 C 82 % 1008,0 hPa 0,0 l/m 21,6 km/h (4 Bft) W-SW 244 0 min 0,000 mm 0,0 UV-I 137 W/m -0,8 C -7,9 C 33,8 km/h (5 Bft) 97,56 %
14.01.2017 14:18 1,9 C 82 % 1007,9 hPa 0,0 l/m 21,7 km/h (4 Bft) SW 231 0 min 0,000 mm 0,0 UV-I 114 W/m -0,8 C -7,9 C 37,0 km/h (5 Bft) 97,44 %
14.01.2017 14:20 1,8 C 82 % 1008,1 hPa 0,0 l/m 25,4 km/h (4 Bft) W 278 0 min 0,000 mm 0,0 UV-I 76 W/m -0,9 C -9,4 C 37,0 km/h (5 Bft) 98,28 %
14.01.2017 14:22 1,8 C 82 % 1008,1 hPa 0,0 l/m 23,5 km/h (4 Bft) W 262 0 min 0,000 mm 0,0 UV-I 63 W/m -0,9 C -8,7 C 38,6 km/h (5 Bft) 97,44 %
14.01.2017 14:24 1,8 C 82 % 1008,1 hPa 0,0 l/m 30,0 km/h (5 Bft) W-SW 242 0 min 0,000 mm 0,0 UV-I 67 W/m -0,9 C -10,9 C 53,1 km/h (7 Bft) 96,23 %
14.01.2017 14:26 1,8 C 82 % 1008,2 hPa 0,0 l/m 30,1 km/h (5 Bft) W 279 0 min 0,000 mm 0,0 UV-I 77 W/m -0,9 C -10,9 C 46,7 km/h (6 Bft) 97,73 %
14.01.2017 14:28 1,7 C 83 % 1008,2 hPa 0,0 l/m 22,6 km/h (4 Bft) W-SW 247 0 min 0,000 mm 0,0 UV-I 59 W/m -0,9 C -8,5 C 33,8 km/h (5 Bft) 96,23 %
14.01.2017 14:30 1,7 C 83 % 1008,3 hPa 0,0 l/m 16,6 km/h (3 Bft) W-SW 257 0 min 0,000 mm 0,0 UV-I 55 W/m -0,9 C -5,8 C 22,5 km/h (4 Bft) 97,37 %
14.01.2017 14:32 1,7 C 83 % 1008,3 hPa 0,0 l/m 26,4 km/h (4 Bft) W-SW 248 0 min 0,000 mm 0,0 UV-I 62 W/m -0,9 C -9,9 C 37,0 km/h (5 Bft) 96,43 %
14.01.2017 14:34 1,7 C 83 % 1008,4 hPa 0,0 l/m 21,9 km/h (4 Bft) W 270 0 min 0,000 mm 0,0 UV-I 65 W/m -0,9 C -8,2 C 37,0 km/h (5 Bft) 97,56 %
14.01.2017 14:36 1,6 C 83 % 1008,4 hPa 0,0 l/m 22,9 km/h (4 Bft) W-SW 253 0 min 0,000 mm 0,0 UV-I 63 W/m -1,0 C -8,8 C 32,2 km/h (5 Bft) 98,11 %
14.01.2017 14:38 1,6 C 83 % 1008,4 hPa 0,0 l/m 26,6 km/h (4 Bft) W-SW 254 0 min 0,000 mm 0,0 UV-I 55 W/m -1,0 C -10,1 C 41,8 km/h (6 Bft) 100,00 %
14.01.2017 14:40 1,6 C 83 % 1008,5 hPa 0,0 l/m 23,0 km/h (4 Bft) W-SW 258 0 min 0,000 mm 0,0 UV-I 53 W/m -1,0 C -8,8 C 32,2 km/h (5 Bft) 100,00 %
14.01.2017 14:42 1,6 C 83 % 1008,5 hPa 0,0 l/m 28,9 km/h (5 Bft) W-SW 251 0 min 0,000 mm 0,0 UV-I 49 W/m -1,0 C -10,8 C 40,2 km/h (6 Bft) 100,00 %
14.01.2017 14:44 1,5 C 83 % 1008,6 hPa 0,0 l/m 29,0 km/h (5 Bft) W-SW 250 0 min 0,000 mm 0,0 UV-I 48 W/m -1,1 C -11,0 C 43,5 km/h (6 Bft) 100,00 %
14.01.2017 14:46 1,5 C 83 % 1008,5 hPa 0,0 l/m 27,9 km/h (4 Bft) W-SW 246 0 min 0,000 mm 0,0 UV-I 51 W/m -1,1 C -10,7 C 43,5 km/h (6 Bft) 98,21 %
14.01.2017 14:48 1,5 C 83 % 1008,6 hPa 0,0 l/m 23,3 km/h (4 Bft) SW 225 0 min 0,000 mm 0,0 UV-I 48 W/m -1,1 C -9,1 C 38,6 km/h (5 Bft) 97,56 %
14.01.2017 14:50 1,4 C 83 % 1008,6 hPa 0,0 l/m 26,5 km/h (4 Bft) W-SW 244 0 min 0,000 mm 0,0 UV-I 50 W/m -1,2 C -10,3 C 37,0 km/h (5 Bft) 100,00 %
14.01.2017 14:52 1,4 C 83 % 1008,7 hPa 0,0 l/m 25,3 km/h (4 Bft) W-SW 258 0 min 0,000 mm 0,0 UV-I 51 W/m -1,2 C -9,9 C 35,4 km/h (5 Bft) 98,51 %
14.01.2017 14:54 1,4 C 83 % 1008,8 hPa 0,0 l/m 19,2 km/h (3 Bft) W-SW 245 0 min 0,000 mm 0,0 UV-I 58 W/m -1,2 C -7,5 C 29,0 km/h (5 Bft) 100,00 %
14.01.2017 14:56 1,4 C 83 % 1008,8 hPa 0,0 l/m 25,6 km/h (4 Bft) SW 219 0 min 0,000 mm 0,0 UV-I 61 W/m -1,2 C -10,0 C 40,2 km/h (6 Bft) 100,00 %
14.01.2017 14:58 1,4 C 83 % 1008,8 hPa 0,0 l/m 23,6 km/h (4 Bft) W 273 0 min 0,000 mm 0,0 UV-I 63 W/m -1,2 C -9,3 C 33,8 km/h (5 Bft) 100,00 %
14.01.2017 15:00 1,4 C 83 % 1008,9 hPa 0,0 l/m 23,0 km/h (4 Bft) W-SW 244 0 min 0,051 mm 0,0 UV-I 62 W/m -1,2 C -9,1 C 30,6 km/h (5 Bft) 100,00 %
14.01.2017 15:02 1,4 C 83 % 1008,9 hPa 0,2 l/m 25,5 km/h (4 Bft) SW 231 0 min 0,000 mm 0,0 UV-I 56 W/m -1,2 C -10,0 C 38,6 km/h (5 Bft) 100,00 %
14.01.2017 15:04 1,4 C 83 % 1008,9 hPa 0,0 l/m 22,4 km/h (4 Bft) S-SW 213 0 min 0,000 mm 0,0 UV-I 55 W/m -1,2 C -8,8 C 33,8 km/h (5 Bft) 98,11 %
14.01.2017 15:06 1,4 C 83 % 1009,0 hPa 0,0 l/m 26,0 km/h (4 Bft) W 272 0 min 0,000 mm 0,0 UV-I 56 W/m -1,2 C -10,2 C 40,2 km/h (6 Bft) 97,56 %
14.01.2017 15:08 1,4 C 83 % 1009,0 hPa 0,0 l/m 32,7 km/h (5 Bft) SW 227 0 min 0,000 mm 0,0 UV-I 55 W/m -1,2 C -12,2 C 46,7 km/h (6 Bft) 98,00 %
14.01.2017 15:10 1,4 C 84 % 1009,0 hPa 0,0 l/m 26,2 km/h (4 Bft) W 261 0 min 0,000 mm 0,0 UV-I 53 W/m -1,0 C -10,2 C 41,8 km/h (6 Bft) 100,00 %
14.01.2017 15:12 1,3 C 84 % 1009,0 hPa 0,0 l/m 32,0 km/h (5 Bft) W-SW 255 0 min 0,000 mm 0,0 UV-I 53 W/m -1,1 C -12,1 C 48,3 km/h (6 Bft) 100,00 %
14.01.2017 15:14 1,3 C 84 % 1009,2 hPa 0,0 l/m 25,2 km/h (4 Bft) W-SW 254 0 min 0,000 mm 0,0 UV-I 48 W/m -1,1 C -10,0 C 43,5 km/h (6 Bft) 98,31 %
14.01.2017 15:16 1,3 C 84 % 1009,1 hPa 0,0 l/m 25,5 km/h (4 Bft) W-SW 257 0 min 0,000 mm 0,0 UV-I 48 W/m -1,1 C -10,1 C 38,6 km/h (5 Bft) 100,00 %
14.01.2017 15:18 1,3 C 84 % 1009,3 hPa 0,0 l/m 24,1 km/h (4 Bft) SW 222 0 min 0,000 mm 0,0 UV-I 47 W/m -1,1 C -9,6 C 33,8 km/h (5 Bft) 100,00 %
14.01.2017 15:20 1,3 C 84 % 1009,2 hPa 0,0 l/m 24,9 km/h (4 Bft) W-SW 250 0 min 0,000 mm 0,0 UV-I 50 W/m -1,1 C -9,9 C 43,5 km/h (6 Bft) 100,00 %
14.01.2017 15:22 1,2 C 85 % 1009,3 hPa 0,0 l/m 21,2 km/h (4 Bft) SW 236 0 min 0,000 mm 0,0 UV-I 50 W/m -1,0 C -8,6 C 27,4 km/h (4 Bft) 100,00 %
14.01.2017 15:24 1,2 C 85 % 1009,3 hPa 0,0 l/m 19,7 km/h (3 Bft) W-SW 250 0 min 0,000 mm 0,0 UV-I 56 W/m -1,0 C -7,9 C 27,4 km/h (4 Bft) 98,21 %
14.01.2017 15:26 1,1 C 86 % 1009,3 hPa 0,0 l/m 21,1 km/h (4 Bft) W 268 0 min 0,000 mm 0,0 UV-I 58 W/m -1,0 C -8,7 C 35,4 km/h (5 Bft) 100,00 %
14.01.2017 15:28 1,1 C 86 % 1009,4 hPa 0,0 l/m 20,4 km/h (4 Bft) W-SW 255 0 min 0,000 mm 0,0 UV-I 59 W/m -1,0 C -8,4 C 27,4 km/h (4 Bft) 100,00 %
14.01.2017 15:30 1,1 C 86 % 1009,4 hPa 0,0 l/m 24,7 km/h (4 Bft) W-SW 257 0 min 0,000 mm 0,0 UV-I 62 W/m -1,0 C -10,1 C 43,5 km/h (6 Bft) 100,00 %
14.01.2017 15:32 1,1 C 86 % 1009,4 hPa 0,0 l/m 18,6 km/h (3 Bft) W-SW 257 0 min 0,000 mm 0,0 UV-I 60 W/m -1,0 C -7,6 C 25,7 km/h (4 Bft) 97,73 %
14.01.2017 15:34 1,0 C 87 % 1009,4 hPa 0,0 l/m 22,7 km/h (4 Bft) W 260 0 min 0,000 mm 0,0 UV-I 54 W/m -0,9 C -9,5 C 35,4 km/h (5 Bft) 100,00 %
14.01.2017 15:36 1,0 C 86 % 1009,4 hPa 0,0 l/m 22,6 km/h (4 Bft) SW 223 0 min 0,000 mm 0,0 UV-I 51 W/m -1,1 C -9,4 C 30,6 km/h (5 Bft) 97,44 %
14.01.2017 15:38 1,0 C 86 % 1009,4 hPa 0,0 l/m 22,5 km/h (4 Bft) W 279 0 min 0,000 mm 0,0 UV-I 54 W/m -1,1 C -9,4 C 33,8 km/h (5 Bft) 100,00 %
14.01.2017 15:40 1,0 C 86 % 1009,5 hPa 0,0 l/m 17,1 km/h (3 Bft) W-SW 242 0 min 0,000 mm 0,0 UV-I 55 W/m -1,1 C -6,9 C 27,4 km/h (4 Bft) 100,00 %
14.01.2017 15:42 0,9 C 86 % 1009,5 hPa 0,0 l/m 26,6 km/h (4 Bft) W-SW 242 0 min 0,000 mm 0,0 UV-I 51 W/m -1,2 C -11,1 C 41,8 km/h (6 Bft) 100,00 %
14.01.2017 15:44 1,0 C 86 % 1009,5 hPa 0,0 l/m 22,8 km/h (4 Bft) W-SW 257 0 min 0,000 mm 0,0 UV-I 50 W/m -1,1 C -9,5 C 37,0 km/h (5 Bft) 100,00 %
14.01.2017 15:46 1,0 C 86 % 1009,5 hPa 0,0 l/m 23,4 km/h (4 Bft) W-SW 238 0 min 0,000 mm 0,0 UV-I 47 W/m -1,1 C -9,8 C 35,4 km/h (5 Bft) 100,00 %
14.01.2017 15:48 0,9 C 86 % 1009,5 hPa 0,0 l/m 18,8 km/h (3 Bft) W 263 0 min 0,000 mm 0,0 UV-I 40 W/m -1,2 C -7,9 C 25,7 km/h (4 Bft) 100,00 %
14.01.2017 15:50 0,9 C 86 % 1009,5 hPa 0,0 l/m 20,3 km/h (4 Bft) W 263 0 min 0,000 mm 0,0 UV-I 36 W/m -1,2 C -8,6 C 38,6 km/h (5 Bft) 100,00 %
14.01.2017 15:52 0,9 C 86 % 1009,5 hPa 0,0 l/m 24,4 km/h (4 Bft) W-SW 252 0 min 0,000 mm 0,0 UV-I 36 W/m -1,2 C -10,3 C 32,2 km/h (5 Bft) 98,00 %
14.01.2017 15:54 0,9 C 86 % 1009,7 hPa 0,0 l/m 21,2 km/h (4 Bft) W 268 0 min 0,000 mm 0,0 UV-I 34 W/m -1,2 C -9,0 C 29,0 km/h (5 Bft) 97,87 %
14.01.2017 15:56 0,9 C 86 % 1009,7 hPa 0,0 l/m 21,4 km/h (4 Bft) W-SW 254 0 min 0,000 mm 0,0 UV-I 30 W/m -1,2 C -9,1 C 27,4 km/h (4 Bft) 97,87 %
14.01.2017 15:58 0,9 C 86 % 1009,8 hPa 0,0 l/m 21,7 km/h (4 Bft) W-SW 243 0 min 0,000 mm 0,0 UV-I 28 W/m -1,2 C -9,2 C 32,2 km/h (5 Bft) 97,87 %
14.01.2017 16:00 0,9 C 86 % 1009,9 hPa 0,0 l/m 23,6 km/h (4 Bft) S-SW 202 0 min 0,000 mm 0,0 UV-I 26 W/m -1,2 C -10,0 C 32,2 km/h (5 Bft) 100,00 %
14.01.2017 16:02 0,9 C 86 % 1009,8 hPa 0,0 l/m 23,5 km/h (4 Bft) SW 235 0 min 0,051 mm 0,0 UV-I 25 W/m -1,2 C -9,9 C 41,8 km/h (6 Bft) 97,56 %
14.01.2017 16:04 0,9 C 86 % 1009,8 hPa 0,0 l/m 24,3 km/h (4 Bft) S-SW 201 0 min 0,000 mm 0,0 UV-I 25 W/m -1,2 C -10,2 C 35,4 km/h (5 Bft) 100,00 %
14.01.2017 16:06 0,9 C 86 % 1009,9 hPa 0,0 l/m 22,1 km/h (4 Bft) W-SW 240 0 min 0,000 mm 0,0 UV-I 23 W/m -1,2 C -9,4 C 30,6 km/h (5 Bft) 97,87 %
14.01.2017 16:08 0,9 C 86 % 1009,9 hPa 0,0 l/m 22,2 km/h (4 Bft) W-SW 252 0 min 0,000 mm 0,0 UV-I 20 W/m -1,2 C -9,4 C 35,4 km/h (5 Bft) 97,73 %
14.01.2017 16:10 0,9 C 86 % 1009,9 hPa 0,0 l/m 21,2 km/h (4 Bft) W-SW 240 0 min 0,000 mm 0,0 UV-I 17 W/m -1,2 C -9,0 C 30,6 km/h (5 Bft) 98,00 %
14.01.2017 16:12 0,9 C 86 % 1010,0 hPa 0,0 l/m 18,2 km/h (3 Bft) W 272 0 min 0,000 mm 0,0 UV-I 14 W/m -1,2 C -7,6 C 29,0 km/h (5 Bft) 97,37 %
14.01.2017 16:14 0,8 C 87 % 1010,0 hPa 0,0 l/m 17,3 km/h (3 Bft) W-SW 241 0 min 0,000 mm 0,0 UV-I 14 W/m -1,1 C -7,3 C 29,0 km/h (5 Bft) 97,62 %
14.01.2017 16:16 0,8 C 87 % 1010,0 hPa 0,0 l/m 17,9 km/h (3 Bft) W 259 0 min 0,000 mm 0,0 UV-I 12 W/m -1,1 C -7,6 C 30,6 km/h (5 Bft) 96,88 %
14.01.2017 16:18 0,7 C 88 % 1010,0 hPa 0,0 l/m 21,0 km/h (4 Bft) SW 232 0 min 0,000 mm 0,0 UV-I 11 W/m -1,1 C -9,2 C 35,4 km/h (5 Bft) 100,00 %
14.01.2017 16:20 0,7 C 89 % 1010,0 hPa 0,0 l/m 17,8 km/h (3 Bft) SW 232 0 min 0,000 mm 0,0 UV-I 8 W/m -0,9 C -7,7 C 27,4 km/h (4 Bft) 96,77 %
14.01.2017 16:22 0,6 C 89 % 1010,1 hPa 0,0 l/m 20,3 km/h (4 Bft) W-SW 239 0 min 0,000 mm 0,0 UV-I 7 W/m -1,0 C -9,0 C 30,6 km/h (5 Bft) 97,87 %
14.01.2017 16:24 0,6 C 89 % 1010,1 hPa 0,0 l/m 21,2 km/h (4 Bft) W 271 0 min 0,000 mm 0,0 UV-I 7 W/m -1,0 C -9,4 C 32,2 km/h (5 Bft) 98,00 %
14.01.2017 16:26 0,5 C 89 % 1010,2 hPa 0,0 l/m 20,9 km/h (4 Bft) SW 216 0 min 0,000 mm 0,0 UV-I 5 W/m -1,1 C -9,4 C 29,0 km/h (5 Bft) 97,73 %
14.01.2017 16:28 0,5 C 90 % 1010,3 hPa 0,0 l/m 20,7 km/h (4 Bft) SW 225 0 min 0,000 mm 0,0 UV-I 5 W/m -0,9 C -9,3 C 27,4 km/h (4 Bft) 95,12 %
14.01.2017 16:30 0,4 C 90 % 1010,3 hPa 0,0 l/m 20,2 km/h (4 Bft) SW 232 0 min 0,000 mm 0,0 UV-I 5 W/m -1,0 C -9,2 C 30,6 km/h (5 Bft) 98,00 %
14.01.2017 16:32 0,4 C 90 % 1010,3 hPa 0,0 l/m 16,7 km/h (3 Bft) S-SW 195 0 min 0,000 mm 0,0 UV-I 5 W/m -1,0 C -7,5 C 24,1 km/h (4 Bft) 96,23 %
14.01.2017 16:34 0,4 C 90 % 1010,3 hPa 0,0 l/m 19,2 km/h (3 Bft) W 267 0 min 0,000 mm 0,0 UV-I 0 W/m -1,0 C -8,7 C 27,4 km/h (4 Bft) 97,87 %
14.01.2017 16:36 0,4 C 90 % 1010,3 hPa 0,0 l/m 14,5 km/h (3 Bft) W-SW 238 0 min 0,000 mm 0,0 UV-I 0 W/m -1,0 C -6,2 C 20,9 km/h (4 Bft) 97,87 %
14.01.2017 16:38 0,3 C 90 % 1010,4 hPa 0,0 l/m 14,6 km/h (3 Bft) W 264 0 min 0,000 mm 0,0 UV-I 0 W/m -1,1 C -6,4 C 20,9 km/h (4 Bft) 97,37 %
14.01.2017 16:40 0,3 C 90 % 1010,4 hPa 0,0 l/m 17,9 km/h (3 Bft) W-SW 241 0 min 0,000 mm 0,0 UV-I 0 W/m -1,1 C -8,2 C 24,1 km/h (4 Bft) 98,00 %
14.01.2017 16:42 0,3 C 90 % 1010,4 hPa 0,0 l/m 20,7 km/h (4 Bft) SW 236 0 min 0,000 mm 0,0 UV-I 0 W/m -1,1 C -9,6 C 35,4 km/h (5 Bft) 98,11 %
14.01.2017 16:44 0,3 C 90 % 1010,4 hPa 0,0 l/m 18,4 km/h (3 Bft) W-SW 248 0 min 0,000 mm 0,0 UV-I 0 W/m -1,1 C -8,5 C 27,4 km/h (4 Bft) 100,00 %
14.01.2017 16:46 0,3 C 90 % 1010,5 hPa 0,0 l/m 19,4 km/h (3 Bft) W-SW 242 0 min 0,000 mm 0,0 UV-I 0 W/m -1,1 C -9,0 C 25,7 km/h (4 Bft) 100,00 %
14.01.2017 16:48 0,4 C 89 % 1010,5 hPa 0,0 l/m 20,7 km/h (4 Bft) SW 234 0 min 0,000 mm 0,0 UV-I 0 W/m -1,2 C -9,4 C 35,4 km/h (5 Bft) 100,00 %
14.01.2017 16:50 0,4 C 89 % 1010,5 hPa 0,0 l/m 20,7 km/h (4 Bft) W-SW 250 0 min 0,000 mm 0,0 UV-I 0 W/m -1,2 C -9,4 C 25,7 km/h (4 Bft) 100,00 %
14.01.2017 16:52 0,4 C 88 % 1010,5 hPa 0,0 l/m 21,2 km/h (4 Bft) W-SW 246 0 min 0,000 mm 0,0 UV-I 0 W/m -1,3 C -9,7 C 40,2 km/h (6 Bft) 95,74 %
14.01.2017 16:54 0,5 C 87 % 1010,4 hPa 0,0 l/m 26,0 km/h (4 Bft) W-SW 247 0 min 0,000 mm 0,0 UV-I 0 W/m -1,4 C -11,4 C 38,6 km/h (5 Bft) 100,00 %
14.01.2017 16:56 0,6 C 87 % 1010,5 hPa 0,0 l/m 23,2 km/h (4 Bft) W-SW 248 0 min 0,000 mm 0,0 UV-I 0 W/m -1,3 C -10,2 C 37,0 km/h (5 Bft) 100,00 %
14.01.2017 16:58 0,6 C 86 % 1010,6 hPa 0,0 l/m 23,6 km/h (4 Bft) W 261 0 min 0,000 mm 0,0 UV-I 0 W/m -1,5 C -10,4 C 41,8 km/h (6 Bft) 100,00 %
14.01.2017 17:00 0,7 C 85 % 1010,6 hPa 0,0 l/m 29,3 km/h (5 Bft) SW 236 0 min 0,000 mm 0,0 UV-I 0 W/m -1,5 C -12,2 C 46,7 km/h (6 Bft) 100,00 %
14.01.2017 17:03 0,7 C 85 % 1010,5 hPa 0,0 l/m 21,6 km/h (4 Bft) W-SW 252 0 min 0,025 mm 0,0 UV-I 0 W/m -1,5 C -9,4 C 40,2 km/h (6 Bft) 100,00 %
14.01.2017 17:04 0,7 C 85 % 1010,5 hPa 0,0 l/m 23,0 km/h (4 Bft) W 261 0 min 0,000 mm 0,0 UV-I 0 W/m -1,5 C -10,0 C 32,2 km/h (5 Bft) 100,00 %
14.01.2017 17:06 0,7 C 84 % 1010,6 hPa 0,0 l/m 27,5 km/h (4 Bft) W 280 0 min 0,000 mm 0,0 UV-I 0 W/m -1,7 C -11,6 C 37,0 km/h (5 Bft) 97,87 %
14.01.2017 17:08 0,7 C 84 % 1010,6 hPa 0,0 l/m 26,5 km/h (4 Bft) W 264 0 min 0,000 mm 0,0 UV-I 0 W/m -1,7 C -11,3 C 38,6 km/h (5 Bft) 100,00 %
14.01.2017 17:10 0,7 C 84 % 1010,7 hPa 0,0 l/m 26,1 km/h (4 Bft) W 261 0 min 0,000 mm 0,0 UV-I 0 W/m -1,7 C -11,2 C 43,5 km/h (6 Bft) 100,00 %
14.01.2017 17:12 0,7 C 84 % 1010,7 hPa 0,0 l/m 21,0 km/h (4 Bft) W-SW 249 0 min 0,000 mm 0,0 UV-I 0 W/m -1,7 C -9,2 C 30,6 km/h (5 Bft) 100,00 %
14.01.2017 17:14 0,7 C 84 % 1010,7 hPa 0,0 l/m 24,5 km/h (4 Bft) W 261 0 min 0,000 mm 0,0 UV-I 0 W/m -1,7 C -10,6 C 32,2 km/h (5 Bft) 100,00 %
14.01.2017 17:16 0,7 C 84 % 1010,7 hPa 0,0 l/m 20,0 km/h (4 Bft) W 259 0 min 0,000 mm 0,0 UV-I 0 W/m -1,7 C -8,7 C 30,6 km/h (5 Bft) 100,00 %
14.01.2017 17:18 0,7 C 84 % 1010,7 hPa 0,0 l/m 18,7 km/h (3 Bft) W-SW 254 0 min 0,000 mm 0,0 UV-I 0 W/m -1,7 C -8,1 C 33,8 km/h (5 Bft) 100,00 %
14.01.2017 17:20 0,7 C 84 % 1010,8 hPa 0,0 l/m 19,7 km/h (3 Bft) W-SW 247 0 min 0,000 mm 0,0 UV-I 0 W/m -1,7 C -8,6 C 29,0 km/h (5 Bft) 100,00 %
14.01.2017 17:22 0,7 C 84 % 1010,8 hPa 0,0 l/m 27,6 km/h (4 Bft) W-SW 242 0 min 0,000 mm 0,0 UV-I 0 W/m -1,7 C -11,7 C 38,6 km/h (5 Bft) 100,00 %
14.01.2017 17:24 0,7 C 83 % 1011,0 hPa 0,0 l/m 30,2 km/h (5 Bft) W-SW 248 0 min 0,000 mm 0,0 UV-I 0 W/m -1,8 C -12,5 C 46,7 km/h (6 Bft) 100,00 %
14.01.2017 17:26 0,7 C 83 % 1011,0 hPa 0,0 l/m 25,2 km/h (4 Bft) W-SW 252 0 min 0,000 mm 0,0 UV-I 0 W/m -1,8 C -10,8 C 41,8 km/h (6 Bft) 96,23 %
14.01.2017 17:28 0,7 C 83 % 1011,1 hPa 0,0 l/m 25,5 km/h (4 Bft) W-SW 257 0 min 0,000 mm 0,0 UV-I 0 W/m -1,8 C -11,0 C 38,6 km/h (5 Bft) 100,00 %
14.01.2017 17:30 0,7 C 83 % 1011,0 hPa 0,0 l/m 23,7 km/h (4 Bft) W-SW 240 0 min 0,000 mm 0,0 UV-I 0 W/m -1,8 C -10,3 C 32,2 km/h (5 Bft) 98,11 %
14.01.2017 17:32 0,7 C 84 % 1011,2 hPa 0,0 l/m 24,9 km/h (4 Bft) W-SW 252 0 min 0,000 mm 0,0 UV-I 0 W/m -1,7 C -10,7 C 40,2 km/h (6 Bft) 100,00 %
14.01.2017 17:34 0,7 C 84 % 1011,1 hPa 0,0 l/m 24,6 km/h (4 Bft) W-SW 247 0 min 0,000 mm 0,0 UV-I 0 W/m -1,7 C -10,6 C 37,0 km/h (5 Bft) 98,11 %
14.01.2017 17:36 0,7 C 84 % 1011,3 hPa 0,0 l/m 23,1 km/h (4 Bft) W-SW 250 0 min 0,000 mm 0,0 UV-I 0 W/m -1,7 C -10,0 C 38,6 km/h (5 Bft) 97,56 %
14.01.2017 17:38 0,7 C 84 % 1011,3 hPa 0,0 l/m 20,9 km/h (4 Bft) W-SW 241 0 min 0,000 mm 0,0 UV-I 0 W/m -1,7 C -9,1 C 32,2 km/h (5 Bft) 97,78 %
14.01.2017 17:40 0,7 C 84 % 1011,3 hPa 0,0 l/m 21,9 km/h (4 Bft) W-SW 256 0 min 0,000 mm 0,0 UV-I 0 W/m -1,7 C -9,6 C 33,8 km/h (5 Bft) 98,08 %
14.01.2017 17:42 0,7 C 85 % 1011,3 hPa 0,0 l/m 29,0 km/h (5 Bft) W-SW 237 0 min 0,000 mm 0,0 UV-I 0 W/m -1,5 C -12,1 C 43,5 km/h (6 Bft) 98,00 %
14.01.2017 17:44 0,6 C 85 % 1011,4 hPa 0,0 l/m 24,2 km/h (4 Bft) W 271 0 min 0,000 mm 0,0 UV-I 0 W/m -1,6 C -10,6 C 35,4 km/h (5 Bft) 100,00 %
14.01.2017 17:46 0,6 C 85 % 1011,4 hPa 0,0 l/m 25,3 km/h (4 Bft) W-SW 238 0 min 0,000 mm 0,0 UV-I 0 W/m -1,6 C -11,0 C 37,0 km/h (5 Bft) 97,87 %
14.01.2017 17:48 0,6 C 85 % 1011,4 hPa 0,0 l/m 21,3 km/h (4 Bft) SW 227 0 min 0,000 mm 0,0 UV-I 0 W/m -1,6 C -9,4 C 37,0 km/h (5 Bft) 100,00 %
14.01.2017 17:50 0,6 C 85 % 1011,5 hPa 0,0 l/m 21,9 km/h (4 Bft) W 266 0 min 0,000 mm 0,0 UV-I 0 W/m -1,6 C -9,7 C 30,6 km/h (5 Bft) 100,00 %
14.01.2017 17:52 0,6 C 85 % 1011,6 hPa 0,0 l/m 23,7 km/h (4 Bft) W-SW 254 0 min 0,000 mm 0,0 UV-I 0 W/m -1,6 C -10,4 C 32,2 km/h (5 Bft) 100,00 %
14.01.2017 17:54 0,6 C 85 % 1011,6 hPa 0,0 l/m 20,1 km/h (4 Bft) W-SW 252 0 min 0,000 mm 0,0 UV-I 0 W/m -1,6 C -8,9 C 32,2 km/h (5 Bft) 98,11 %
14.01.2017 17:56 0,6 C 85 % 1011,6 hPa 0,0 l/m 23,9 km/h (4 Bft) SW 223 0 min 0,000 mm 0,0 UV-I 0 W/m -1,6 C -10,5 C 37,0 km/h (5 Bft) 100,00 %
14.01.2017 17:58 0,6 C 85 % 1011,7 hPa 0,0 l/m 24,1 km/h (4 Bft) W 263 0 min 0,000 mm 0,0 UV-I 0 W/m -1,6 C -10,6 C 32,2 km/h (5 Bft) 100,00 %
14.01.2017 18:00 0,6 C 85 % 1011,7 hPa 0,0 l/m 18,9 km/h (3 Bft) SW 230 0 min 0,026 mm 0,0 UV-I 0 W/m -1,6 C -8,3 C 30,6 km/h (5 Bft) 97,56 %
14.01.2017 18:02 0,6 C 85 % 1011,8 hPa 0,0 l/m 21,2 km/h (4 Bft) W-SW 248 0 min 0,000 mm 0,0 UV-I 0 W/m -1,6 C -9,4 C 29,0 km/h (5 Bft) 98,21 %
14.01.2017 18:04 0,6 C 84 % 1011,8 hPa 0,0 l/m 18,4 km/h (3 Bft) W 271 0 min 0,000 mm 0,0 UV-I 0 W/m -1,8 C -8,1 C 25,7 km/h (4 Bft) 100,00 %
14.01.2017 18:06 0,6 C 84 % 1011,8 hPa 0,0 l/m 20,0 km/h (4 Bft) SW 217 0 min 0,000 mm 0,0 UV-I 0 W/m -1,8 C -8,9 C 33,8 km/h (5 Bft) 100,00 %
14.01.2017 18:08 0,6 C 84 % 1011,8 hPa 0,0 l/m 18,5 km/h (3 Bft) W 279 0 min 0,000 mm 0,0 UV-I 0 W/m -1,8 C -8,1 C 29,0 km/h (5 Bft) 100,00 %
14.01.2017 18:10 0,6 C 84 % 1011,8 hPa 0,0 l/m 18,1 km/h (3 Bft) SW 223 0 min 0,000 mm 0,0 UV-I 0 W/m -1,8 C -7,9 C 25,7 km/h (4 Bft) 100,00 %
14.01.2017 18:12 0,6 C 84 % 1011,8 hPa 0,0 l/m 20,4 km/h (4 Bft) W-SW 242 0 min 0,000 mm 0,0 UV-I 0 W/m -1,8 C -9,0 C 32,2 km/h (5 Bft) 100,00 %
14.01.2017 18:14 0,6 C 84 % 1011,9 hPa 0,0 l/m 18,9 km/h (3 Bft) SW 230 0 min 0,000 mm 0,0 UV-I 0 W/m -1,8 C -8,3 C 25,7 km/h (4 Bft) 97,78 %
14.01.2017 18:16 0,6 C 84 % 1011,9 hPa 0,0 l/m 18,9 km/h (3 Bft) W-SW 250 0 min 0,000 mm 0,0 UV-I 0 W/m -1,8 C -8,3 C 27,4 km/h (4 Bft) 98,28 %
14.01.2017 18:18 0,6 C 84 % 1011,9 hPa 0,0 l/m 18,0 km/h (3 Bft) SW 227 0 min 0,000 mm 0,0 UV-I 0 W/m -1,8 C -7,9 C 24,1 km/h (4 Bft) 94,87 %
14.01.2017 18:20 0,6 C 84 % 1011,9 hPa 0,0 l/m 17,6 km/h (3 Bft) W-SW 258 0 min 0,000 mm 0,0 UV-I 0 W/m -1,8 C -7,7 C 25,7 km/h (4 Bft) 96,23 %
14.01.2017 18:22 0,6 C 83 % 1012,0 hPa 0,0 l/m 19,0 km/h (3 Bft) W-SW 245 0 min 0,000 mm 0,0 UV-I 0 W/m -1,9 C -8,4 C 27,4 km/h (4 Bft) 90,91 %
14.01.2017 18:24 0,6 C 83 % 1012,0 hPa 0,0 l/m 21,9 km/h (4 Bft) W-SW 251 0 min 0,000 mm 0,0 UV-I 0 W/m -1,9 C -9,7 C 30,6 km/h (5 Bft) 98,41 %
14.01.2017 18:26 0,7 C 83 % 1011,9 hPa 0,0 l/m 25,7 km/h (4 Bft) W-SW 239 0 min 0,000 mm 0,0 UV-I 0 W/m -1,8 C -11,0 C 37,0 km/h (5 Bft) 97,06 %
14.01.2017 18:28 0,7 C 83 % 1012,0 hPa 0,0 l/m 17,3 km/h (3 Bft) W-SW 253 0 min 0,000 mm 0,0 UV-I 0 W/m -1,8 C -7,4 C 24,1 km/h (4 Bft) 97,56 %
14.01.2017 18:30 0,7 C 84 % 1012,1 hPa 0,0 l/m 17,8 km/h (3 Bft) SW 231 0 min 0,000 mm 0,0 UV-I 0 W/m -1,7 C -7,7 C 27,4 km/h (4 Bft) 98,21 %
14.01.2017 18:32 0,6 C 85 % 1012,1 hPa 0,0 l/m 15,0 km/h (3 Bft) SW 221 0 min 0,000 mm 0,0 UV-I 0 W/m -1,6 C -6,3 C 22,5 km/h (4 Bft) 94,74 %
14.01.2017 18:34 0,5 C 86 % 1012,2 hPa 0,0 l/m 18,5 km/h (3 Bft) SW 232 0 min 0,000 mm 0,0 UV-I 0 W/m -1,6 C -8,3 C 30,6 km/h (5 Bft) 97,87 %
14.01.2017 18:36 0,4 C 86 % 1012,2 hPa 0,0 l/m 17,0 km/h (3 Bft) W 263 0 min 0,000 mm 0,0 UV-I 0 W/m -1,7 C -7,6 C 25,7 km/h (4 Bft) 97,73 %
14.01.2017 18:38 0,4 C 86 % 1012,2 hPa 0,0 l/m 20,1 km/h (4 Bft) W-SW 254 0 min 0,000 mm 0,0 UV-I 0 W/m -1,7 C -9,2 C 27,4 km/h (4 Bft) 96,23 %
14.01.2017 18:40 0,3 C 87 % 1012,2 hPa 0,0 l/m 15,9 km/h (3 Bft) SW 218 0 min 0,000 mm 0,0 UV-I 0 W/m -1,6 C -7,1 C 24,1 km/h (4 Bft) 98,00 %
14.01.2017 18:42 0,3 C 88 % 1012,2 hPa 0,0 l/m 21,0 km/h (4 Bft) W-SW 245 0 min 0,000 mm 0,0 UV-I 0 W/m -1,4 C -9,7 C 30,6 km/h (5 Bft) 95,12 %
14.01.2017 18:44 0,2 C 88 % 1012,3 hPa 0,0 l/m 19,3 km/h (3 Bft) W-SW 245 0 min 0,000 mm 0,0 UV-I 0 W/m -1,5 C -9,0 C 25,7 km/h (4 Bft) 95,45 %
14.01.2017 18:46 0,2 C 89 % 1012,3 hPa 0,0 l/m 18,3 km/h (3 Bft) W-SW 243 0 min 0,000 mm 0,0 UV-I 0 W/m -1,4 C -8,6 C 32,2 km/h (5 Bft) 92,86 %
14.01.2017 18:48 0,1 C 89 % 1012,3 hPa 0,0 l/m 18,4 km/h (3 Bft) W-SW 256 0 min 0,000 mm 0,0 UV-I 0 W/m -1,5 C -8,7 C 25,7 km/h (4 Bft) 97,87 %
14.01.2017 18:50 0,1 C 90 % 1012,5 hPa 0,0 l/m 16,7 km/h (3 Bft) W-SW 250 0 min 0,000 mm 0,0 UV-I 0 W/m -1,3 C -7,8 C 25,7 km/h (4 Bft) 100,00 %
14.01.2017 18:52 0,0 C 91 % 1012,4 hPa 0,0 l/m 15,1 km/h (3 Bft) W 265 0 min 0,000 mm 0,0 UV-I 0 W/m -1,3 C -7,0 C 20,9 km/h (4 Bft) 100,00 %
14.01.2017 18:54 -0,1 C 91 % 1012,5 hPa 0,0 l/m 17,6 km/h (3 Bft) W-SW 246 0 min 0,000 mm 0,0 UV-I 0 W/m -1,4 C -8,6 C 22,5 km/h (4 Bft) 100,00 %
14.01.2017 18:56 -0,1 C 91 % 1012,5 hPa 0,0 l/m 15,2 km/h (3 Bft) SW 232 0 min 0,000 mm 0,0 UV-I 0 W/m -1,4 C -7,2 C 22,5 km/h (4 Bft) 97,56 %
14.01.2017 18:58 -0,1 C 92 % 1012,5 hPa 0,0 l/m 18,1 km/h (3 Bft) SW 229 0 min 0,000 mm 0,0 UV-I 0 W/m -1,2 C -8,8 C 30,6 km/h (5 Bft) 100,00 %
14.01.2017 19:00 -0,2 C 92 % 1012,5 hPa 0,0 l/m 17,6 km/h (3 Bft) W-SW 248 0 min 0,025 mm 0,0 UV-I 0 W/m -1,3 C -8,7 C 30,6 km/h (5 Bft) 100,00 %
14.01.2017 19:02 -0,2 C 92 % 1012,6 hPa 0,0 l/m 15,0 km/h (3 Bft) SW 216 0 min 0,000 mm 0,0 UV-I 0 W/m -1,3 C -7,2 C 22,5 km/h (4 Bft) 98,70 %
14.01.2017 19:04 -0,2 C 92 % 1012,6 hPa 0,0 l/m 17,7 km/h (3 Bft) SW 228 0 min 0,000 mm 0,0 UV-I 0 W/m -1,3 C -8,7 C 24,1 km/h (4 Bft) 100,00 %
14.01.2017 19:06 -0,2 C 92 % 1012,6 hPa 0,0 l/m 18,0 km/h (3 Bft) SW 221 0 min 0,000 mm 0,0 UV-I 0 W/m -1,3 C -8,9 C 27,4 km/h (4 Bft) 97,87 %
14.01.2017 19:08 -0,3 C 93 % 1012,6 hPa 0,0 l/m 18,5 km/h (3 Bft) W-SW 240 0 min 0,000 mm 0,0 UV-I 0 W/m -1,3 C -9,3 C 27,4 km/h (4 Bft) 100,00 %
14.01.2017 19:10 -0,3 C 93 % 1012,7 hPa 0,0 l/m 19,4 km/h (3 Bft) W 267 0 min 0,000 mm 0,0 UV-I 0 W/m -1,3 C -9,7 C 24,1 km/h (4 Bft) 100,00 %
14.01.2017 19:12 -0,3 C 93 % 1012,7 hPa 0,0 l/m 18,5 km/h (3 Bft) W-SW 242 0 min 0,000 mm 0,0 UV-I 0 W/m -1,3 C -9,3 C 29,0 km/h (5 Bft) 100,00 %
14.01.2017 19:14 -0,3 C 93 % 1012,7 hPa 0,0 l/m 21,2 km/h (4 Bft) W-SW 246 0 min 0,000 mm 0,0 UV-I 0 W/m -1,3 C -10,6 C 29,0 km/h (5 Bft) 100,00 %
14.01.2017 19:16 -0,3 C 93 % 1012,8 hPa 0,0 l/m 18,1 km/h (3 Bft) W 261 0 min 0,000 mm 0,0 UV-I 0 W/m -1,3 C -9,1 C 27,4 km/h (4 Bft) 100,00 %
14.01.2017 19:18 -0,3 C 93 % 1012,8 hPa 0,0 l/m 18,1 km/h (3 Bft) SW 217 0 min 0,000 mm 0,0 UV-I 0 W/m -1,3 C -9,1 C 24,1 km/h (4 Bft) 98,11 %
14.01.2017 19:20 -0,3 C 93 % 1012,8 hPa 0,0 l/m 16,1 km/h (3 Bft) SW 229 0 min 0,000 mm 0,0 UV-I 0 W/m -1,3 C -8,0 C 22,5 km/h (4 Bft) 100,00 %
14.01.2017 19:22 -0,3 C 93 % 1012,8 hPa 0,0 l/m 18,0 km/h (3 Bft) SW 232 0 min 0,000 mm 0,0 UV-I 0 W/m -1,3 C -9,0 C 22,5 km/h (4 Bft) 100,00 %
14.01.2017 19:24 -0,3 C 93 % 1012,8 hPa 0,0 l/m 16,8 km/h (3 Bft) SW 232 0 min 0,000 mm 0,0 UV-I 0 W/m -1,3 C -8,4 C 22,5 km/h (4 Bft) 100,00 %
14.01.2017 19:26 -0,4 C 93 % 1012,9 hPa 0,0 l/m 18,1 km/h (3 Bft) NW 309 0 min 0,000 mm 0,0 UV-I 0 W/m -1,4 C -9,2 C 25,7 km/h (4 Bft) 98,21 %
14.01.2017 19:28 -0,4 C 93 % 1012,8 hPa 0,0 l/m 23,5 km/h (4 Bft) W-SW 251 0 min 0,000 mm 0,0 UV-I 0 W/m -1,4 C -11,7 C 38,6 km/h (5 Bft) 100,00 %
14.01.2017 19:30 -0,4 C 93 % 1012,8 hPa 0,0 l/m 17,7 km/h (3 Bft) W-SW 240 0 min 0,000 mm 0,0 UV-I 0 W/m -1,4 C -9,0 C 30,6 km/h (5 Bft) 98,00 %
14.01.2017 19:32 -0,4 C 94 % 1012,9 hPa 0,0 l/m 19,8 km/h (3 Bft) W-SW 253 0 min 0,000 mm 0,0 UV-I 0 W/m -1,2 C -10,1 C 29,0 km/h (5 Bft) 97,56 %
14.01.2017 19:34 -0,4 C 94 % 1012,8 hPa 0,0 l/m 20,2 km/h (4 Bft) W 266 0 min 0,000 mm 0,0 UV-I 0 W/m -1,2 C -10,2 C 30,6 km/h (5 Bft) 100,00 %
14.01.2017 19:36 -0,4 C 94 % 1012,9 hPa 0,0 l/m 20,5 km/h (4 Bft) W-SW 256 0 min 0,000 mm 0,0 UV-I 0 W/m -1,2 C -10,4 C 25,7 km/h (4 Bft) 100,00 %
14.01.2017 19:38 -0,4 C 94 % 1012,9 hPa 0,0 l/m 14,8 km/h (3 Bft) SW 230 0 min 0,000 mm 0,0 UV-I 0 W/m -1,2 C -7,3 C 24,1 km/h (4 Bft) 98,00 %
14.01.2017 19:40 -0,4 C 94 % 1012,9 hPa 0,0 l/m 15,4 km/h (3 Bft) W 264 0 min 0,000 mm 0,0 UV-I 0 W/m -1,2 C -7,7 C 20,9 km/h (4 Bft) 100,00 %
14.01.2017 19:42 -0,5 C 94 % 1012,9 hPa 0,0 l/m 15,0 km/h (3 Bft) W-SW 243 0 min 0,000 mm 0,0 UV-I 0 W/m -1,3 C -7,6 C 22,5 km/h (4 Bft) 98,11 %
14.01.2017 19:44 -0,5 C 94 % 1012,9 hPa 0,0 l/m 18,4 km/h (3 Bft) W-SW 257 0 min 0,000 mm 0,0 UV-I 0 W/m -1,3 C -9,5 C 25,7 km/h (4 Bft) 100,00 %
14.01.2017 19:46 -0,5 C 94 % 1012,8 hPa 0,0 l/m 16,5 km/h (3 Bft) W-SW 240 0 min 0,000 mm 0,0 UV-I 0 W/m -1,3 C -8,5 C 24,1 km/h (4 Bft) 100,00 %
14.01.2017 19:48 -0,5 C 94 % 1012,9 hPa 0,0 l/m 14,0 km/h (3 Bft) S-SW 208 0 min 0,000 mm 0,0 UV-I 0 W/m -1,3 C -7,0 C 24,1 km/h (4 Bft) 100,00 %
14.01.2017 19:50 -0,5 C 94 % 1012,9 hPa 0,0 l/m 15,7 km/h (3 Bft) W-SW 256 0 min 0,000 mm 0,0 UV-I 0 W/m -1,3 C -8,0 C 24,1 km/h (4 Bft) 97,37 %
14.01.2017 19:52 -0,6 C 94 % 1012,9 hPa 0,0 l/m 14,1 km/h (3 Bft) W 270 0 min 0,000 mm 0,0 UV-I 0 W/m -1,4 C -7,1 C 20,9 km/h (4 Bft) 100,00 %
14.01.2017 19:54 -0,6 C 94 % 1012,9 hPa 0,0 l/m 16,2 km/h (3 Bft) S-SW 209 0 min 0,000 mm 0,0 UV-I 0 W/m -1,4 C -8,4 C 24,1 km/h (4 Bft) 100,00 %
14.01.2017 19:56 -0,6 C 94 % 1012,9 hPa 0,0 l/m 16,6 km/h (3 Bft) SW 223 0 min 0,000 mm 0,0 UV-I 0 W/m -1,4 C -8,6 C 24,1 km/h (4 Bft) 100,00 %
14.01.2017 19:58 -0,6 C 94 % 1012,9 hPa 0,0 l/m 17,7 km/h (3 Bft) W 266 0 min 0,000 mm 0,0 UV-I 0 W/m -1,4 C -9,3 C 27,4 km/h (4 Bft) 100,00 %
14.01.2017 20:00 -0,6 C 94 % 1012,9 hPa 0,0 l/m 16,6 km/h (3 Bft) W-SW 248 0 min 0,000 mm 0,0 UV-I 0 W/m -1,4 C -8,6 C 22,5 km/h (4 Bft) 97,73 %
14.01.2017 20:02 -0,6 C 94 % 1013,0 hPa 0,0 l/m 14,2 km/h (3 Bft) W-SW 246 0 min 0,000 mm 0,0 UV-I 0 W/m -1,4 C -7,2 C 20,9 km/h (4 Bft) 100,00 %
14.01.2017 20:04 -0,6 C 94 % 1013,0 hPa 0,0 l/m 12,9 km/h (3 Bft) W-SW 238 0 min 0,000 mm 0,0 UV-I 0 W/m -1,4 C -6,3 C 19,3 km/h (3 Bft) 100,00 %
14.01.2017 20:06 -0,6 C 94 % 1013,0 hPa 0,0 l/m 13,7 km/h (3 Bft) SW 234 0 min 0,000 mm 0,0 UV-I 0 W/m -1,4 C -6,9 C 22,5 km/h (4 Bft) 98,00 %
14.01.2017 20:08 -0,6 C 94 % 1013,0 hPa 0,0 l/m 16,2 km/h (3 Bft) W-SW 245 0 min 0,000 mm 0,0 UV-I 0 W/m -1,4 C -8,4 C 27,4 km/h (4 Bft) 100,00 %
14.01.2017 20:10 -0,6 C 94 % 1013,0 hPa 0,0 l/m 12,5 km/h (3 Bft) W-SW 245 0 min 0,000 mm 0,0 UV-I 0 W/m -1,4 C -6,1 C 17,7 km/h (3 Bft) 100,00 %
14.01.2017 20:12 -0,6 C 94 % 1013,0 hPa 0,0 l/m 12,8 km/h (3 Bft) W-SW 242 0 min 0,000 mm 0,0 UV-I 0 W/m -1,4 C -6,3 C 17,7 km/h (3 Bft) 100,00 %
14.01.2017 20:14 -0,6 C 94 % 1013,1 hPa 0,0 l/m 12,7 km/h (3 Bft) SW 220 0 min 0,000 mm 0,0 UV-I 0 W/m -1,4 C -6,2 C 19,3 km/h (3 Bft) 96,36 %
14.01.2017 20:16 -0,6 C 93 % 1013,1 hPa 0,0 l/m 12,1 km/h (2 Bft) SW 236 0 min 0,000 mm 0,0 UV-I 0 W/m -1,6 C -5,8 C 19,3 km/h (3 Bft) 96,23 %
14.01.2017 20:18 -0,6 C 93 % 1013,1 hPa 0,0 l/m 12,8 km/h (3 Bft) SW 234 0 min 0,000 mm 0,0 UV-I 0 W/m -1,6 C -6,3 C 19,3 km/h (3 Bft) 100,00 %
14.01.2017 20:20 -0,6 C 93 % 1013,1 hPa 0,0 l/m 14,7 km/h (3 Bft) SW 222 0 min 0,000 mm 0,0 UV-I 0 W/m -1,6 C -7,5 C 20,9 km/h (4 Bft) 91,49 %
14.01.2017 20:22 -0,6 C 93 % 1013,2 hPa 0,0 l/m 12,9 km/h (3 Bft) W-SW 237 0 min 0,000 mm 0,0 UV-I 0 W/m -1,6 C -6,3 C 20,9 km/h (4 Bft) 100,00 %
14.01.2017 20:24 -0,6 C 93 % 1013,2 hPa 0,0 l/m 11,8 km/h (2 Bft) SW 236 0 min 0,000 mm 0,0 UV-I 0 W/m -1,6 C -5,5 C 17,7 km/h (3 Bft) 96,77 %
14.01.2017 20:26 -0,6 C 93 % 1013,2 hPa 0,0 l/m 13,0 km/h (3 Bft) SW 235 0 min 0,000 mm 0,0 UV-I 0 W/m -1,6 C -6,4 C 24,1 km/h (4 Bft) 97,56 %
14.01.2017 20:28 -0,6 C 93 % 1013,2 hPa 0,0 l/m 13,8 km/h (3 Bft) SW 232 0 min 0,000 mm 0,0 UV-I 0 W/m -1,6 C -6,9 C 22,5 km/h (4 Bft) 96,55 %
14.01.2017 20:30 -0,6 C 92 % 1013,2 hPa 0,0 l/m 13,1 km/h (3 Bft) W-SW 249 0 min 0,000 mm 0,0 UV-I 0 W/m -1,7 C -6,5 C 24,1 km/h (4 Bft) 98,59 %
14.01.2017 20:32 -0,6 C 92 % 1013,3 hPa 0,0 l/m 12,3 km/h (3 Bft) W-SW 243 0 min 0,000 mm 0,0 UV-I 0 W/m -1,7 C -5,9 C 17,7 km/h (3 Bft) 92,11 %
14.01.2017 20:34 -0,6 C 92 % 1013,4 hPa 0,0 l/m 12,1 km/h (2 Bft) W-SW 238 0 min 0,000 mm 0,0 UV-I 0 W/m -1,7 C -5,8 C 19,3 km/h (3 Bft) 95,74 %
14.01.2017 20:36 -0,6 C 91 % 1013,4 hPa 0,0 l/m 15,8 km/h (3 Bft) SW 233 0 min 0,000 mm 0,0 UV-I 0 W/m -1,9 C -8,2 C 20,9 km/h (4 Bft) 96,43 %
14.01.2017 20:38 -0,6 C 91 % 1013,4 hPa 0,0 l/m 16,6 km/h (3 Bft) SW 214 0 min 0,000 mm 0,0 UV-I 0 W/m -1,9 C -8,6 C 27,4 km/h (4 Bft) 97,56 %
14.01.2017 20:40 -0,6 C 91 % 1013,4 hPa 0,0 l/m 16,1 km/h (3 Bft) W 261 0 min 0,000 mm 0,0 UV-I 0 W/m -1,9 C -8,4 C 24,1 km/h (4 Bft) 98,00 %
14.01.2017 20:42 -0,6 C 91 % 1013,4 hPa 0,0 l/m 17,6 km/h (3 Bft) SW 225 0 min 0,000 mm 0,0 UV-I 0 W/m -1,9 C -9,2 C 27,4 km/h (4 Bft) 97,56 %
14.01.2017 20:44 -0,6 C 91 % 1013,4 hPa 0,0 l/m 12,8 km/h (3 Bft) SW 221 0 min 0,000 mm 0,0 UV-I 0 W/m -1,9 C -6,3 C 19,3 km/h (3 Bft) 98,00 %
14.01.2017 20:46 -0,6 C 91 % 1013,5 hPa 0,0 l/m 16,1 km/h (3 Bft) SW 222 0 min 0,000 mm 0,0 UV-I 0 W/m -1,9 C -8,4 C 25,7 km/h (4 Bft) 94,00 %
14.01.2017 20:48 -0,6 C 91 % 1013,5 hPa 0,0 l/m 16,2 km/h (3 Bft) W-SW 239 0 min 0,000 mm 0,0 UV-I 0 W/m -1,9 C -8,4 C 20,9 km/h (4 Bft) 98,00 %
14.01.2017 20:50 -0,6 C 91 % 1013,5 hPa 0,0 l/m 15,3 km/h (3 Bft) W-SW 253 0 min 0,000 mm 0,0 UV-I 0 W/m -1,9 C -7,9 C 19,3 km/h (3 Bft) 95,45 %
14.01.2017 20:52 -0,6 C 91 % 1013,5 hPa 0,0 l/m 13,2 km/h (3 Bft) W-SW 242 0 min 0,000 mm 0,0 UV-I 0 W/m -1,9 C -6,5 C 19,3 km/h (3 Bft) 97,56 %
14.01.2017 20:54 -0,7 C 92 % 1013,5 hPa 0,0 l/m 13,7 km/h (3 Bft) SW 230 0 min 0,000 mm 0,0 UV-I 0 W/m -1,8 C -7,0 C 17,7 km/h (3 Bft) 94,34 %
14.01.2017 20:56 -0,7 C 92 % 1013,5 hPa 0,0 l/m 13,6 km/h (3 Bft) W-SW 252 0 min 0,000 mm 0,0 UV-I 0 W/m -1,8 C -6,9 C 20,9 km/h (4 Bft) 100,00 %
14.01.2017 20:58 -0,7 C 92 % 1013,5 hPa 0,0 l/m 10,9 km/h (2 Bft) SW 229 0 min 0,000 mm 0,0 UV-I 0 W/m -1,8 C -5,0 C 19,3 km/h (3 Bft) 100,00 %
14.01.2017 21:00 -0,8 C 92 % 1013,5 hPa 0,0 l/m 12,8 km/h (3 Bft) W-SW 250 0 min 0,000 mm 0,0 UV-I 0 W/m -1,9 C -6,5 C 19,3 km/h (3 Bft) 100,00 %
14.01.2017 21:02 -0,8 C 92 % 1013,5 hPa 0,0 l/m 11,9 km/h (2 Bft) W-SW 240 0 min 0,000 mm 0,0 UV-I 0 W/m -1,9 C -5,8 C 19,3 km/h (3 Bft) 95,74 %
14.01.2017 21:04 -0,8 C 92 % 1013,5 hPa 0,0 l/m 13,8 km/h (3 Bft) W-SW 250 0 min 0,000 mm 0,0 UV-I 0 W/m -1,9 C -7,2 C 19,3 km/h (3 Bft) 100,00 %
14.01.2017 21:06 -0,9 C 92 % 1013,6 hPa 0,0 l/m 13,2 km/h (3 Bft) W-SW 242 0 min 0,000 mm 0,0 UV-I 0 W/m -2,0 C -6,9 C 19,3 km/h (3 Bft) 100,00 %
14.01.2017 21:08 -0,9 C 93 % 1013,6 hPa 0,0 l/m 10,6 km/h (2 Bft) S-SW 200 0 min 0,000 mm 0,0 UV-I 0 W/m -1,9 C -4,9 C 16,1 km/h (3 Bft) 100,00 %
14.01.2017 21:10 -1,0 C 93 % 1013,6 hPa 0,0 l/m 11,8 km/h (2 Bft) W-SW 244 0 min 0,000 mm 0,0 UV-I 0 W/m -2,0 C -6,0 C 17,7 km/h (3 Bft) 94,00 %
14.01.2017 21:12 -1,0 C 93 % 1013,6 hPa 0,0 l/m 14,8 km/h (3 Bft) SW 227 0 min 0,000 mm 0,0 UV-I 0 W/m -2,0 C -8,1 C 19,3 km/h (3 Bft) 100,00 %
14.01.2017 21:14 -1,1 C 93 % 1013,7 hPa 0,0 l/m 11,1 km/h (2 Bft) SW 229 0 min 0,000 mm 0,0 UV-I 0 W/m -2,1 C -5,6 C 17,7 km/h (3 Bft) 100,00 %
14.01.2017 21:16 -1,1 C 93 % 1013,7 hPa 0,0 l/m 11,1 km/h (2 Bft) W-SW 238 0 min 0,000 mm 0,0 UV-I 0 W/m -2,1 C -5,6 C 17,7 km/h (3 Bft) 98,11 %
14.01.2017 21:18 -1,1 C 92 % 1013,7 hPa 0,0 l/m 11,2 km/h (2 Bft) SW 226 0 min 0,000 mm 0,0 UV-I 0 W/m -2,2 C -5,7 C 17,7 km/h (3 Bft) 97,37 %
14.01.2017 21:20 -1,1 C 93 % 1013,7 hPa 0,0 l/m 13,3 km/h (3 Bft) W-SW 258 0 min 0,000 mm 0,0 UV-I 0 W/m -2,1 C -7,2 C 20,9 km/h (4 Bft) 100,00 %
14.01.2017 21:22 -1,1 C 92 % 1013,7 hPa 0,0 l/m 17,1 km/h (3 Bft) W 271 0 min 0,000 mm 0,0 UV-I 0 W/m -2,2 C -9,6 C 22,5 km/h (4 Bft) 100,00 %
14.01.2017 21:24 -1,1 C 92 % 1013,7 hPa 0,0 l/m 19,2 km/h (3 Bft) W-SW 242 0 min 0,000 mm 0,0 UV-I 0 W/m -2,2 C -10,7 C 24,1 km/h (4 Bft) 100,00 %
14.01.2017 21:26 -1,0 C 92 % 1013,9 hPa 0,0 l/m 16,0 km/h (3 Bft) SW 232 0 min 0,000 mm 0,0 UV-I 0 W/m -2,1 C -8,8 C 24,1 km/h (4 Bft) 100,00 %
14.01.2017 21:28 -0,9 C 91 % 1013,9 hPa 0,0 l/m 15,9 km/h (3 Bft) SW 232 0 min 0,000 mm 0,0 UV-I 0 W/m -2,2 C -8,6 C 24,1 km/h (4 Bft) 100,00 %
14.01.2017 21:30 -0,9 C 91 % 1013,9 hPa 0,0 l/m 18,9 km/h (3 Bft) SW 224 0 min 0,000 mm 0,0 UV-I 0 W/m -2,2 C -10,3 C 33,8 km/h (5 Bft) 98,51 %
14.01.2017 21:32 -0,9 C 91 % 1014,0 hPa 0,0 l/m 16,2 km/h (3 Bft) W 271 0 min 0,000 mm 0,0 UV-I 0 W/m -2,2 C -8,8 C 27,4 km/h (4 Bft) 100,00 %
14.01.2017 21:34 -0,8 C 91 % 1014,0 hPa 0,0 l/m 17,2 km/h (3 Bft) W-SW 244 0 min 0,000 mm 0,0 UV-I 0 W/m -2,1 C -9,2 C 20,9 km/h (4 Bft) 100,00 %
14.01.2017 21:36 -0,8 C 91 % 1014,0 hPa 0,0 l/m 17,7 km/h (3 Bft) W-SW 240 0 min 0,000 mm 0,0 UV-I 0 W/m -2,1 C -9,5 C 25,7 km/h (4 Bft) 100,00 %
14.01.2017 21:38 -0,8 C 91 % 1014,0 hPa 0,0 l/m 10,4 km/h (2 Bft) SW 234 0 min 0,000 mm 0,0 UV-I 0 W/m -2,1 C -4,7 C 14,5 km/h (3 Bft) 98,57 %
14.01.2017 21:40 -0,8 C 91 % 1014,1 hPa 0,0 l/m 15,1 km/h (3 Bft) SW 225 0 min 0,000 mm 0,0 UV-I 0 W/m -2,1 C -8,0 C 24,1 km/h (4 Bft) 100,00 %
14.01.2017 21:43 -0,8 C 91 % 1014,1 hPa 0,0 l/m 15,8 km/h (3 Bft) W-SW 254 0 min 0,000 mm 0,0 UV-I 0 W/m -2,1 C -8,4 C 24,1 km/h (4 Bft) 98,68 %
14.01.2017 21:44 -0,8 C 91 % 1014,1 hPa 0,0 l/m 13,4 km/h (3 Bft) W-SW 249 0 min 0,000 mm 0,0 UV-I 0 W/m -2,1 C -6,9 C 16,1 km/h (3 Bft) 100,00 %
14.01.2017 21:46 -0,8 C 91 % 1014,1 hPa 0,0 l/m 15,9 km/h (3 Bft) W-SW 244 0 min 0,000 mm 0,0 UV-I 0 W/m -2,1 C -8,5 C 20,9 km/h (4 Bft) 100,00 %
14.01.2017 21:48 -0,8 C 91 % 1014,1 hPa 0,0 l/m 12,4 km/h (3 Bft) W-SW 248 0 min 0,000 mm 0,0 UV-I 0 W/m -2,1 C -6,2 C 20,9 km/h (4 Bft) 100,00 %
14.01.2017 21:50 -0,8 C 91 % 1014,2 hPa 0,0 l/m 14,8 km/h (3 Bft) W-SW 251 0 min 0,000 mm 0,0 UV-I 0 W/m -2,1 C -7,8 C 19,3 km/h (3 Bft) 100,00 %
14.01.2017 21:52 -0,9 C 91 % 1014,2 hPa 0,0 l/m 15,2 km/h (3 Bft) W 264 0 min 0,000 mm 0,0 UV-I 0 W/m -2,2 C -8,2 C 20,9 km/h (4 Bft) 100,00 %
14.01.2017 21:54 -0,9 C 91 % 1014,2 hPa 0,0 l/m 12,4 km/h (3 Bft) W-SW 246 0 min 0,000 mm 0,0 UV-I 0 W/m -2,2 C -6,3 C 17,7 km/h (3 Bft) 100,00 %
14.01.2017 21:56 -0,9 C 91 % 1014,3 hPa 0,0 l/m 13,7 km/h (3 Bft) W-SW 248 0 min 0,000 mm 0,0 UV-I 0 W/m -2,2 C -7,2 C 20,9 km/h (4 Bft) 100,00 %
14.01.2017 21:58 -1,0 C 92 % 1014,3 hPa 0,0 l/m 12,3 km/h (3 Bft) SW 234 0 min 0,000 mm 0,0 UV-I 0 W/m -2,1 C -6,4 C 16,1 km/h (3 Bft) 100,00 %
14.01.2017 22:00 -1,0 C 92 % 1014,3 hPa 0,0 l/m 11,4 km/h (2 Bft) S-SW 213 0 min 0,000 mm 0,0 UV-I 0 W/m -2,1 C -5,7 C 16,1 km/h (3 Bft) 100,00 %
14.01.2017 22:02 -1,0 C 92 % 1014,3 hPa 0,0 l/m 15,5 km/h (3 Bft) SW 229 0 min 0,000 mm 0,0 UV-I 0 W/m -2,1 C -8,5 C 20,9 km/h (4 Bft) 100,00 %
14.01.2017 22:04 -1,1 C 92 % 1014,4 hPa 0,0 l/m 10,9 km/h (2 Bft) W-SW 249 0 min 0,000 mm 0,0 UV-I 0 W/m -2,2 C -5,4 C 14,5 km/h (3 Bft) 100,00 %
14.01.2017 22:06 -1,1 C 92 % 1014,4 hPa 0,0 l/m 12,3 km/h (3 Bft) SW 219 0 min 0,000 mm 0,0 UV-I 0 W/m -2,2 C -6,5 C 17,7 km/h (3 Bft) 100,00 %
14.01.2017 22:08 -1,1 C 92 % 1014,4 hPa 0,0 l/m 11,9 km/h (2 Bft) W-SW 247 0 min 0,000 mm 0,0 UV-I 0 W/m -2,2 C -6,2 C 17,7 km/h (3 Bft) 100,00 %
14.01.2017 22:10 -1,1 C 92 % 1014,5 hPa 0,0 l/m 15,3 km/h (3 Bft) SW 215 0 min 0,000 mm 0,0 UV-I 0 W/m -2,2 C -8,5 C 24,1 km/h (4 Bft) 100,00 %
14.01.2017 22:12 -1,1 C 92 % 1014,5 hPa 0,0 l/m 14,6 km/h (3 Bft) W 261 0 min 0,000 mm 0,0 UV-I 0 W/m -2,2 C -8,1 C 19,3 km/h (3 Bft) 95,12 %
14.01.2017 22:14 -1,1 C 92 % 1014,5 hPa 0,0 l/m 12,3 km/h (3 Bft) W-SW 238 0 min 0,000 mm 0,0 UV-I 0 W/m -2,2 C -6,5 C 22,5 km/h (4 Bft) 100,00 %
14.01.2017 22:16 -1,1 C 92 % 1014,5 hPa 0,0 l/m 14,3 km/h (3 Bft) SW 216 0 min 0,000 mm 0,0 UV-I 0 W/m -2,2 C -7,9 C 20,9 km/h (4 Bft) 100,00 %
14.01.2017 22:18 -1,1 C 92 % 1014,5 hPa 0,0 l/m 10,0 km/h (2 Bft) W-SW 238 0 min 0,000 mm 0,0 UV-I 0 W/m -2,2 C -4,7 C 16,1 km/h (3 Bft) 97,73 %
14.01.2017 22:20 -1,1 C 92 % 1014,6 hPa 0,0 l/m 13,8 km/h (3 Bft) SW 219 0 min 0,000 mm 0,0 UV-I 0 W/m -2,2 C -7,5 C 19,3 km/h (3 Bft) 100,00 %
14.01.2017 22:22 -1,1 C 92 % 1014,6 hPa 0,0 l/m 13,4 km/h (3 Bft) SW 230 0 min 0,000 mm 0,0 UV-I 0 W/m -2,2 C -7,3 C 19,3 km/h (3 Bft) 100,00 %
14.01.2017 22:24 -1,1 C 92 % 1014,6 hPa 0,0 l/m 16,1 km/h (3 Bft) SW 234 0 min 0,000 mm 0,0 UV-I 0 W/m -2,2 C -9,0 C 20,9 km/h (4 Bft) 100,00 %
14.01.2017 22:26 -1,1 C 92 % 1014,6 hPa 0,0 l/m 13,3 km/h (3 Bft) W-SW 242 0 min 0,000 mm 0,0 UV-I 0 W/m -2,2 C -7,2 C 19,3 km/h (3 Bft) 100,00 %
14.01.2017 22:28 -1,1 C 92 % 1014,6 hPa 0,0 l/m 13,5 km/h (3 Bft) W-SW 240 0 min 0,000 mm 0,0 UV-I 0 W/m -2,2 C -7,3 C 19,3 km/h (3 Bft) 98,53 %
14.01.2017 22:30 -1,1 C 92 % 1014,6 hPa 0,0 l/m 10,0 km/h (2 Bft) SW 231 0 min 0,000 mm 0,0 UV-I 0 W/m -2,2 C -4,7 C 14,5 km/h (3 Bft) 97,87 %
14.01.2017 22:32 -1,1 C 92 % 1014,7 hPa 0,0 l/m 12,8 km/h (3 Bft) W-SW 243 0 min 0,000 mm 0,0 UV-I 0 W/m -2,2 C -6,9 C 20,9 km/h (4 Bft) 97,37 %
14.01.2017 22:34 -1,1 C 92 % 1014,7 hPa 0,0 l/m 14,6 km/h (3 Bft) W-SW 253 0 min 0,000 mm 0,0 UV-I 0 W/m -2,2 C -8,1 C 19,3 km/h (3 Bft) 94,00 %
14.01.2017 22:36 -1,1 C 92 % 1014,7 hPa 0,0 l/m 13,1 km/h (3 Bft) SW 236 0 min 0,000 mm 0,0 UV-I 0 W/m -2,2 C -7,1 C 20,9 km/h (4 Bft) 98,00 %
14.01.2017 22:38 -1,1 C 92 % 1014,7 hPa 0,0 l/m 16,0 km/h (3 Bft) S 169 0 min 0,000 mm 0,0 UV-I 0 W/m -2,2 C -8,9 C 24,1 km/h (4 Bft) 97,37 %
14.01.2017 22:40 -1,1 C 92 % 1014,7 hPa 0,0 l/m 15,0 km/h (3 Bft) W-SW 246 0 min 0,000 mm 0,0 UV-I 0 W/m -2,2 C -8,3 C 25,7 km/h (4 Bft) 96,23 %
14.01.2017 22:42 -1,2 C 92 % 1014,7 hPa 0,0 l/m 18,8 km/h (3 Bft) SW 229 0 min 0,000 mm 0,0 UV-I 0 W/m -2,3 C -10,6 C 25,7 km/h (4 Bft) 97,73 %
14.01.2017 22:44 -1,2 C 93 % 1014,7 hPa 0,0 l/m 16,3 km/h (3 Bft) W-SW 247 0 min 0,000 mm 0,0 UV-I 0 W/m -2,2 C -9,2 C 24,1 km/h (4 Bft) 98,11 %
14.01.2017 22:46 -1,2 C 92 % 1014,7 hPa 0,0 l/m 18,5 km/h (3 Bft) SW 217 0 min 0,000 mm 0,0 UV-I 0 W/m -2,3 C -10,4 C 25,7 km/h (4 Bft) 95,74 %
14.01.2017 22:48 -1,2 C 92 % 1014,7 hPa 0,0 l/m 20,0 km/h (4 Bft) SW 215 0 min 0,000 mm 0,0 UV-I 0 W/m -2,3 C -11,2 C 25,7 km/h (4 Bft) 94,74 %
14.01.2017 22:50 -1,2 C 93 % 1014,6 hPa 0,0 l/m 17,2 km/h (3 Bft) SW 233 0 min 0,000 mm 0,0 UV-I 0 W/m -2,2 C -9,7 C 24,1 km/h (4 Bft) 98,00 %
14.01.2017 22:52 -1,2 C 93 % 1014,6 hPa 0,0 l/m 18,2 km/h (3 Bft) SW 229 0 min 0,000 mm 0,0 UV-I 0 W/m -2,2 C -10,3 C 24,1 km/h (4 Bft) 98,11 %
14.01.2017 22:54 -1,3 C 93 % 1014,6 hPa 0,0 l/m 14,4 km/h (3 Bft) SW 234 0 min 0,000 mm 0,0 UV-I 0 W/m -2,3 C -8,2 C 19,3 km/h (3 Bft) 97,73 %
14.01.2017 22:56 -1,3 C 93 % 1014,6 hPa 0,0 l/m 15,3 km/h (3 Bft) SW 225 0 min 0,000 mm 0,0 UV-I 0 W/m -2,3 C -8,7 C 25,7 km/h (4 Bft) 97,44 %
14.01.2017 22:58 -1,3 C 93 % 1014,5 hPa 0,0 l/m 18,9 km/h (3 Bft) W-SW 247 0 min 0,000 mm 0,0 UV-I 0 W/m -2,3 C -10,8 C 25,7 km/h (4 Bft) 96,36 %
14.01.2017 23:00 -1,3 C 93 % 1014,5 hPa 0,0 l/m 17,9 km/h (3 Bft) SW 230 0 min 0,000 mm 0,0 UV-I 0 W/m -2,3 C -10,2 C 24,1 km/h (4 Bft) 97,44 %
14.01.2017 23:02 -1,4 C 93 % 1014,5 hPa 0,0 l/m 17,5 km/h (3 Bft) W 263 0 min 0,000 mm 0,0 UV-I 0 W/m -2,4 C -10,1 C 25,7 km/h (4 Bft) 98,11 %
14.01.2017 23:04 -1,4 C 93 % 1014,6 hPa 0,0 l/m 20,0 km/h (4 Bft) W-SW 255 0 min 0,000 mm 0,0 UV-I 0 W/m -2,4 C -11,4 C 27,4 km/h (4 Bft) 98,00 %
14.01.2017 23:06 -1,5 C 93 % 1014,5 hPa 0,0 l/m 16,0 km/h (3 Bft) SW 225 0 min 0,000 mm 0,0 UV-I 0 W/m -2,5 C -9,4 C 20,9 km/h (4 Bft) 97,87 %
14.01.2017 23:08 -1,5 C 93 % 1014,5 hPa 0,0 l/m 17,4 km/h (3 Bft) SW 232 0 min 0,000 mm 0,0 UV-I 0 W/m -2,5 C -10,2 C 25,7 km/h (4 Bft) 97,56 %
14.01.2017 23:10 -1,6 C 93 % 1014,6 hPa 0,0 l/m 20,1 km/h (4 Bft) W-SW 247 0 min 0,000 mm 0,0 UV-I 0 W/m -2,6 C -11,7 C 27,4 km/h (4 Bft) 100,00 %
14.01.2017 23:12 -1,6 C 93 % 1014,6 hPa 0,0 l/m 16,2 km/h (3 Bft) W-SW 245 0 min 0,000 mm 0,0 UV-I 0 W/m -2,6 C -9,7 C 22,5 km/h (4 Bft) 100,00 %
14.01.2017 23:14 -1,7 C 93 % 1014,6 hPa 0,0 l/m 16,6 km/h (3 Bft) SW 223 0 min 0,000 mm 0,0 UV-I 0 W/m -2,7 C -10,0 C 24,1 km/h (4 Bft) 100,00 %
14.01.2017 23:16 -1,7 C 93 % 1014,6 hPa 0,0 l/m 16,2 km/h (3 Bft) W-SW 248 0 min 0,000 mm 0,0 UV-I 0 W/m -2,7 C -9,8 C 24,1 km/h (4 Bft) 95,74 %
14.01.2017 23:18 -1,7 C 93 % 1014,7 hPa 0,0 l/m 16,6 km/h (3 Bft) W-SW 241 0 min 0,000 mm 0,0 UV-I 0 W/m -2,7 C -10,0 C 24,1 km/h (4 Bft) 100,00 %
14.01.2017 23:20 -1,7 C 93 % 1014,7 hPa 0,0 l/m 15,7 km/h (3 Bft) SW 224 0 min 0,000 mm 0,0 UV-I 0 W/m -2,7 C -9,5 C 24,1 km/h (4 Bft) 100,00 %
14.01.2017 23:22 -1,7 C 93 % 1014,7 hPa 0,0 l/m 14,6 km/h (3 Bft) SW 234 0 min 0,000 mm 0,0 UV-I 0 W/m -2,7 C -8,8 C 20,9 km/h (4 Bft) 100,00 %
14.01.2017 23:24 -1,7 C 93 % 1014,7 hPa 0,0 l/m 11,3 km/h (2 Bft) S-SW 211 0 min 0,000 mm 0,0 UV-I 0 W/m -2,7 C -6,4 C 17,7 km/h (3 Bft) 100,00 %
14.01.2017 23:26 -1,7 C 93 % 1014,7 hPa 0,0 l/m 12,4 km/h (3 Bft) SW 227 0 min 0,000 mm 0,0 UV-I 0 W/m -2,7 C -7,3 C 19,3 km/h (3 Bft) 100,00 %
14.01.2017 23:28 -1,7 C 93 % 1014,7 hPa 0,0 l/m 12,4 km/h (3 Bft) W-SW 255 0 min 0,000 mm 0,0 UV-I 0 W/m -2,7 C -7,3 C 17,7 km/h (3 Bft) 100,00 %
14.01.2017 23:30 -1,6 C 93 % 1014,7 hPa 0,0 l/m 13,9 km/h (3 Bft) SW 217 0 min 0,000 mm 0,0 UV-I 0 W/m -2,6 C -8,2 C 22,5 km/h (4 Bft) 100,00 %
14.01.2017 23:32 -1,6 C 93 % 1014,8 hPa 0,0 l/m 12,2 km/h (2 Bft) S-SW 198 0 min 0,000 mm 0,0 UV-I 0 W/m -2,6 C -7,0 C 19,3 km/h (3 Bft) 100,00 %
14.01.2017 23:34 -1,6 C 93 % 1014,8 hPa 0,0 l/m 14,8 km/h (3 Bft) W-SW 240 0 min 0,000 mm 0,0 UV-I 0 W/m -2,6 C -8,8 C 22,5 km/h (4 Bft) 100,00 %
14.01.2017 23:36 -1,6 C 93 % 1014,8 hPa 0,0 l/m 15,3 km/h (3 Bft) SW 231 0 min 0,000 mm 0,0 UV-I 0 W/m -2,6 C -9,1 C 22,5 km/h (4 Bft) 100,00 %
14.01.2017 23:38 -1,6 C 93 % 1014,9 hPa 0,0 l/m 14,0 km/h (3 Bft) SW 235 0 min 0,000 mm 0,0 UV-I 0 W/m -2,6 C -8,3 C 24,1 km/h (4 Bft) 100,00 %
14.01.2017 23:40 -1,5 C 93 % 1014,9 hPa 0,0 l/m 16,9 km/h (3 Bft) W-SW 244 0 min 0,000 mm 0,0 UV-I 0 W/m -2,5 C -9,9 C 22,5 km/h (4 Bft) 100,00 %
14.01.2017 23:42 -1,4 C 93 % 1015,0 hPa 0,0 l/m 13,3 km/h (3 Bft) W-SW 241 0 min 0,000 mm 0,0 UV-I 0 W/m -2,4 C -7,6 C 19,3 km/h (3 Bft) 100,00 %
14.01.2017 23:44 -1,4 C 93 % 1014,9 hPa 0,0 l/m 13,8 km/h (3 Bft) W-SW 250 0 min 0,000 mm 0,0 UV-I 0 W/m -2,4 C -7,9 C 24,1 km/h (4 Bft) 100,00 %
14.01.2017 23:46 -1,4 C 93 % 1015,0 hPa 0,0 l/m 12,7 km/h (3 Bft) SW 225 0 min 0,000 mm 0,0 UV-I 0 W/m -2,4 C -7,1 C 17,7 km/h (3 Bft) 100,00 %
14.01.2017 23:48 -1,3 C 93 % 1015,0 hPa 0,0 l/m 15,5 km/h (3 Bft) W-SW 239 0 min 0,000 mm 0,0 UV-I 0 W/m -2,3 C -8,9 C 22,5 km/h (4 Bft) 98,00 %
14.01.2017 23:50 -1,3 C 93 % 1015,0 hPa 0,0 l/m 13,0 km/h (3 Bft) SW 219 0 min 0,000 mm 0,0 UV-I 0 W/m -2,3 C -7,2 C 19,3 km/h (3 Bft) 100,00 %
14.01.2017 23:52 -1,3 C 93 % 1015,0 hPa 0,0 l/m 14,0 km/h (3 Bft) SW 229 0 min 0,000 mm 0,0 UV-I 0 W/m -2,3 C -7,9 C 20,9 km/h (4 Bft) 100,00 %
14.01.2017 23:54 -1,3 C 93 % 1015,0 hPa 0,0 l/m 13,5 km/h (3 Bft) SW 217 0 min 0,000 mm 0,0 UV-I 0 W/m -2,3 C -7,6 C 19,3 km/h (3 Bft) 100,00 %
14.01.2017 23:56 -1,3 C 93 % 1015,0 hPa 0,0 l/m 10,2 km/h (2 Bft) W 260 0 min 0,000 mm 0,0 UV-I 0 W/m -2,3 C -5,1 C 19,3 km/h (3 Bft) 100,00 %
14.01.2017 23:58 -1,3 C 93 % 1015,0 hPa 0,0 l/m 13,8 km/h (3 Bft) W-SW 244 0 min 0,000 mm 0,0 UV-I 0 W/m -2,3 C -7,8 C 20,9 km/h (4 Bft) 100,00 %
_ Min-Zeit 04:54 01:58 06:04 - 05:00 - - - - - - 06:32 08:38 04:58 18:22
Minimum _ -2,7 C 79 % 1004,3 hPa - 7,7 km/h (2 Bft) - - - - - - -4,5 C -14,2 C 11,3 km/h (2 Bft) 90,91 %
_ Max-Zeit 13:36 00:00 23:42 11:32 15:08 - - 08:02 14:00 00:00 11:14 12:32 06:36 13:42 00:00
Maximum _ 2,0 C 95 % 1015,0 hPa 0,2 l/m 32,7 km/h
SW (5 Bft)
- - 2 min 0,076 mm 0,0 UV-I 218 W/m -0,1 C -3,9 C 54,7 km/h
W-SW (7 Bft)
100,00 %
Durchschnitt _ -0,4 C 88 % 1008,1 hPa #1,0 l/m 18,2 km/h (3 Bft) W-SW - #34 min. #0,584 mm 0,0 UV-I 76 W/m -2,1 C -8,8 C 27,3 km/h (4 Bft) 98,79 %